<?xml version="1.0" encoding="UTF-8" standalone="no" ?>
<gpx xmlns="http://www.topografix.com/GPX/1/1" xmlns:xsi="http://www.w3.org/2001/XMLSchema-instance" xsi:schemaLocation="http://www.topografix.com/GPX/1/1 http://www.topografix.com/GPX/1/1/gpx.xsd" version="1.1" creator="VisuGPX - https://www.visugpx.com">
  <metadata>
    <name>BOIS DE ROCHEFORT 1</name>
  </metadata>
  <trk>
    <name><![CDATA[BOIS DE ROCHEFORT 1]]></name>
    <trkseg>
      <trkpt lat="48.59171" lon="1.96592">
        <ele>63.1</ele>
        <time>2018-12-06T08:17:40Z</time>
      </trkpt>
      <trkpt lat="48.59171" lon="1.96592">
        <ele>63.1</ele>
        <time>2018-12-06T08:17:41Z</time>
      </trkpt>
      <trkpt lat="48.59171" lon="1.96597">
        <ele>63.1</ele>
        <time>2018-12-06T08:17:49Z</time>
      </trkpt>
      <trkpt lat="48.59172" lon="1.96615">
        <ele>63.58</ele>
        <time>2018-12-06T08:18:01Z</time>
      </trkpt>
      <trkpt lat="48.59171" lon="1.96614">
        <ele>63.1</ele>
        <time>2018-12-06T08:18:07Z</time>
      </trkpt>
      <trkpt lat="48.5917" lon="1.96615">
        <ele>63.1</ele>
        <time>2018-12-06T08:18:14Z</time>
      </trkpt>
      <trkpt lat="48.59172" lon="1.96615">
        <ele>63.1</ele>
        <time>2018-12-06T08:18:21Z</time>
      </trkpt>
      <trkpt lat="48.59171" lon="1.9662">
        <ele>67.43</ele>
        <time>2018-12-06T08:18:37Z</time>
      </trkpt>
      <trkpt lat="48.59172" lon="1.96621">
        <ele>71.27</ele>
        <time>2018-12-06T08:18:40Z</time>
      </trkpt>
      <trkpt lat="48.59172" lon="1.96621">
        <ele>75.12</ele>
        <time>2018-12-06T08:18:43Z</time>
      </trkpt>
      <trkpt lat="48.59172" lon="1.96622">
        <ele>78</ele>
        <time>2018-12-06T08:18:46Z</time>
      </trkpt>
      <trkpt lat="48.59176" lon="1.96616">
        <ele>81.85</ele>
        <time>2018-12-06T08:18:50Z</time>
      </trkpt>
      <trkpt lat="48.59177" lon="1.96612">
        <ele>86.18</ele>
        <time>2018-12-06T08:18:54Z</time>
      </trkpt>
      <trkpt lat="48.59176" lon="1.96612">
        <ele>90.02</ele>
        <time>2018-12-06T08:18:58Z</time>
      </trkpt>
      <trkpt lat="48.59176" lon="1.96611">
        <ele>93.39</ele>
        <time>2018-12-06T08:19:02Z</time>
      </trkpt>
      <trkpt lat="48.59175" lon="1.96611">
        <ele>96.75</ele>
        <time>2018-12-06T08:19:06Z</time>
      </trkpt>
      <trkpt lat="48.59174" lon="1.96612">
        <ele>97.71</ele>
        <time>2018-12-06T08:19:08Z</time>
      </trkpt>
      <trkpt lat="48.59175" lon="1.96608">
        <ele>101.56</ele>
        <time>2018-12-06T08:19:13Z</time>
      </trkpt>
      <trkpt lat="48.59177" lon="1.96603">
        <ele>104.44</ele>
        <time>2018-12-06T08:19:18Z</time>
      </trkpt>
      <trkpt lat="48.59177" lon="1.96602">
        <ele>107.81</ele>
        <time>2018-12-06T08:19:25Z</time>
      </trkpt>
      <trkpt lat="48.59178" lon="1.966">
        <ele>111.17</ele>
        <time>2018-12-06T08:19:33Z</time>
      </trkpt>
      <trkpt lat="48.59179" lon="1.96599">
        <ele>113.57</ele>
        <time>2018-12-06T08:19:44Z</time>
      </trkpt>
      <trkpt lat="48.5918" lon="1.96598">
        <ele>115.01</ele>
        <time>2018-12-06T08:19:51Z</time>
      </trkpt>
      <trkpt lat="48.5918" lon="1.96598">
        <ele>115.98</ele>
        <time>2018-12-06T08:19:57Z</time>
      </trkpt>
      <trkpt lat="48.5918" lon="1.96597">
        <ele>116.94</ele>
        <time>2018-12-06T08:20:05Z</time>
      </trkpt>
      <trkpt lat="48.5918" lon="1.96597">
        <ele>116.94</ele>
        <time>2018-12-06T08:20:10Z</time>
      </trkpt>
      <trkpt lat="48.59179" lon="1.96597">
        <ele>117.42</ele>
        <time>2018-12-06T08:20:16Z</time>
      </trkpt>
      <trkpt lat="48.59179" lon="1.96598">
        <ele>117.9</ele>
        <time>2018-12-06T08:20:22Z</time>
      </trkpt>
      <trkpt lat="48.5918" lon="1.96596">
        <ele>118.38</ele>
        <time>2018-12-06T08:20:30Z</time>
      </trkpt>
      <trkpt lat="48.5918" lon="1.96596">
        <ele>118.38</ele>
        <time>2018-12-06T08:20:33Z</time>
      </trkpt>
      <trkpt lat="48.59178" lon="1.96594">
        <ele>117.42</ele>
        <time>2018-12-06T08:20:37Z</time>
      </trkpt>
      <trkpt lat="48.59174" lon="1.96593">
        <ele>116.94</ele>
        <time>2018-12-06T08:20:44Z</time>
      </trkpt>
      <trkpt lat="48.59173" lon="1.96593">
        <ele>116.46</ele>
        <time>2018-12-06T08:20:55Z</time>
      </trkpt>
      <trkpt lat="48.59173" lon="1.96592">
        <ele>116.46</ele>
        <time>2018-12-06T08:21:11Z</time>
      </trkpt>
      <trkpt lat="48.59172" lon="1.96594">
        <ele>116.46</ele>
        <time>2018-12-06T08:21:28Z</time>
      </trkpt>
      <trkpt lat="48.59172" lon="1.96594">
        <ele>116.46</ele>
        <time>2018-12-06T08:21:46Z</time>
      </trkpt>
      <trkpt lat="48.59171" lon="1.96591">
        <ele>116.46</ele>
        <time>2018-12-06T08:22:02Z</time>
      </trkpt>
      <trkpt lat="48.59169" lon="1.9659">
        <ele>116.46</ele>
        <time>2018-12-06T08:22:17Z</time>
      </trkpt>
      <trkpt lat="48.59168" lon="1.96589">
        <ele>116.46</ele>
        <time>2018-12-06T08:22:34Z</time>
      </trkpt>
      <trkpt lat="48.59168" lon="1.96589">
        <ele>115.98</ele>
        <time>2018-12-06T08:22:45Z</time>
      </trkpt>
      <trkpt lat="48.59168" lon="1.96589">
        <ele>115.98</ele>
        <time>2018-12-06T08:23:00Z</time>
      </trkpt>
      <trkpt lat="48.59166" lon="1.96592">
        <ele>115.98</ele>
        <time>2018-12-06T08:23:17Z</time>
      </trkpt>
      <trkpt lat="48.59165" lon="1.96593">
        <ele>115.98</ele>
        <time>2018-12-06T08:23:36Z</time>
      </trkpt>
      <trkpt lat="48.59164" lon="1.96593">
        <ele>115.98</ele>
        <time>2018-12-06T08:23:55Z</time>
      </trkpt>
      <trkpt lat="48.59164" lon="1.96592">
        <ele>115.98</ele>
        <time>2018-12-06T08:24:07Z</time>
      </trkpt>
      <trkpt lat="48.59163" lon="1.96592">
        <ele>115.98</ele>
        <time>2018-12-06T08:24:20Z</time>
      </trkpt>
      <trkpt lat="48.59164" lon="1.96594">
        <ele>115.98</ele>
        <time>2018-12-06T08:24:34Z</time>
      </trkpt>
      <trkpt lat="48.59164" lon="1.96595">
        <ele>116.94</ele>
        <time>2018-12-06T08:24:43Z</time>
      </trkpt>
      <trkpt lat="48.59166" lon="1.96592">
        <ele>116.94</ele>
        <time>2018-12-06T08:24:51Z</time>
      </trkpt>
      <trkpt lat="48.59167" lon="1.96587">
        <ele>116.46</ele>
        <time>2018-12-06T08:25:08Z</time>
      </trkpt>
      <trkpt lat="48.59168" lon="1.96585">
        <ele>116.46</ele>
        <time>2018-12-06T08:25:19Z</time>
      </trkpt>
      <trkpt lat="48.59168" lon="1.96586">
        <ele>116.46</ele>
        <time>2018-12-06T08:25:27Z</time>
      </trkpt>
      <trkpt lat="48.59167" lon="1.96585">
        <ele>116.46</ele>
        <time>2018-12-06T08:25:39Z</time>
      </trkpt>
      <trkpt lat="48.59166" lon="1.96585">
        <ele>116.46</ele>
        <time>2018-12-06T08:25:45Z</time>
      </trkpt>
      <trkpt lat="48.59166" lon="1.96585">
        <ele>116.46</ele>
        <time>2018-12-06T08:25:53Z</time>
      </trkpt>
      <trkpt lat="48.59166" lon="1.96584">
        <ele>116.46</ele>
        <time>2018-12-06T08:26:02Z</time>
      </trkpt>
      <trkpt lat="48.59167" lon="1.96585">
        <ele>116.46</ele>
        <time>2018-12-06T08:26:09Z</time>
      </trkpt>
      <trkpt lat="48.59166" lon="1.96587">
        <ele>116.46</ele>
        <time>2018-12-06T08:26:17Z</time>
      </trkpt>
      <trkpt lat="48.59165" lon="1.96586">
        <ele>115.98</ele>
        <time>2018-12-06T08:26:20Z</time>
      </trkpt>
      <trkpt lat="48.59162" lon="1.96585">
        <ele>115.5</ele>
        <time>2018-12-06T08:26:26Z</time>
      </trkpt>
      <trkpt lat="48.59161" lon="1.96587">
        <ele>115.01</ele>
        <time>2018-12-06T08:26:31Z</time>
      </trkpt>
      <trkpt lat="48.5916" lon="1.9659">
        <ele>115.01</ele>
        <time>2018-12-06T08:26:33Z</time>
      </trkpt>
      <trkpt lat="48.5916" lon="1.96605">
        <ele>115.5</ele>
        <time>2018-12-06T08:26:42Z</time>
      </trkpt>
      <trkpt lat="48.5916" lon="1.96617">
        <ele>115.5</ele>
        <time>2018-12-06T08:26:51Z</time>
      </trkpt>
      <trkpt lat="48.59162" lon="1.96631">
        <ele>115.5</ele>
        <time>2018-12-06T08:26:59Z</time>
      </trkpt>
      <trkpt lat="48.59162" lon="1.96636">
        <ele>115.5</ele>
        <time>2018-12-06T08:27:01Z</time>
      </trkpt>
      <trkpt lat="48.59165" lon="1.9665">
        <ele>115.5</ele>
        <time>2018-12-06T08:27:08Z</time>
      </trkpt>
      <trkpt lat="48.59164" lon="1.96654">
        <ele>115.5</ele>
        <time>2018-12-06T08:27:11Z</time>
      </trkpt>
      <trkpt lat="48.59164" lon="1.96666">
        <ele>115.5</ele>
        <time>2018-12-06T08:27:18Z</time>
      </trkpt>
      <trkpt lat="48.59163" lon="1.96676">
        <ele>115.5</ele>
        <time>2018-12-06T08:27:23Z</time>
      </trkpt>
      <trkpt lat="48.59163" lon="1.96689">
        <ele>115.5</ele>
        <time>2018-12-06T08:27:29Z</time>
      </trkpt>
      <trkpt lat="48.59163" lon="1.96702">
        <ele>115.5</ele>
        <time>2018-12-06T08:27:35Z</time>
      </trkpt>
      <trkpt lat="48.59162" lon="1.96717">
        <ele>115.5</ele>
        <time>2018-12-06T08:27:40Z</time>
      </trkpt>
      <trkpt lat="48.5916" lon="1.96738">
        <ele>115.5</ele>
        <time>2018-12-06T08:27:48Z</time>
      </trkpt>
      <trkpt lat="48.5916" lon="1.96749">
        <ele>115.01</ele>
        <time>2018-12-06T08:27:53Z</time>
      </trkpt>
      <trkpt lat="48.59162" lon="1.96759">
        <ele>115.01</ele>
        <time>2018-12-06T08:27:59Z</time>
      </trkpt>
      <trkpt lat="48.59162" lon="1.96774">
        <ele>115.01</ele>
        <time>2018-12-06T08:28:05Z</time>
      </trkpt>
      <trkpt lat="48.59161" lon="1.96779">
        <ele>114.53</ele>
        <time>2018-12-06T08:28:07Z</time>
      </trkpt>
      <trkpt lat="48.59162" lon="1.96787">
        <ele>115.01</ele>
        <time>2018-12-06T08:28:12Z</time>
      </trkpt>
      <trkpt lat="48.59162" lon="1.96789">
        <ele>115.01</ele>
        <time>2018-12-06T08:28:14Z</time>
      </trkpt>
      <trkpt lat="48.5916" lon="1.96802">
        <ele>115.5</ele>
        <time>2018-12-06T08:28:20Z</time>
      </trkpt>
      <trkpt lat="48.59163" lon="1.96814">
        <ele>115.5</ele>
        <time>2018-12-06T08:28:24Z</time>
      </trkpt>
      <trkpt lat="48.59162" lon="1.96824">
        <ele>115.5</ele>
        <time>2018-12-06T08:28:29Z</time>
      </trkpt>
      <trkpt lat="48.5916" lon="1.96837">
        <ele>115.98</ele>
        <time>2018-12-06T08:28:34Z</time>
      </trkpt>
      <trkpt lat="48.59159" lon="1.96838">
        <ele>115.98</ele>
        <time>2018-12-06T08:28:35Z</time>
      </trkpt>
      <trkpt lat="48.59157" lon="1.96855">
        <ele>116.46</ele>
        <time>2018-12-06T08:28:43Z</time>
      </trkpt>
      <trkpt lat="48.59157" lon="1.96867">
        <ele>116.46</ele>
        <time>2018-12-06T08:28:49Z</time>
      </trkpt>
      <trkpt lat="48.59153" lon="1.96875">
        <ele>116.46</ele>
        <time>2018-12-06T08:28:55Z</time>
      </trkpt>
      <trkpt lat="48.5915" lon="1.96887">
        <ele>116.46</ele>
        <time>2018-12-06T08:29:02Z</time>
      </trkpt>
      <trkpt lat="48.59149" lon="1.96898">
        <ele>116.46</ele>
        <time>2018-12-06T08:29:06Z</time>
      </trkpt>
      <trkpt lat="48.59148" lon="1.96905">
        <ele>116.46</ele>
        <time>2018-12-06T08:29:09Z</time>
      </trkpt>
      <trkpt lat="48.59145" lon="1.9692">
        <ele>117.42</ele>
        <time>2018-12-06T08:29:15Z</time>
      </trkpt>
      <trkpt lat="48.59142" lon="1.9693">
        <ele>117.9</ele>
        <time>2018-12-06T08:29:20Z</time>
      </trkpt>
      <trkpt lat="48.59139" lon="1.96938">
        <ele>117.9</ele>
        <time>2018-12-06T08:29:23Z</time>
      </trkpt>
      <trkpt lat="48.59138" lon="1.96951">
        <ele>118.38</ele>
        <time>2018-12-06T08:29:28Z</time>
      </trkpt>
      <trkpt lat="48.59136" lon="1.96963">
        <ele>118.86</ele>
        <time>2018-12-06T08:29:34Z</time>
      </trkpt>
      <trkpt lat="48.59133" lon="1.96974">
        <ele>118.86</ele>
        <time>2018-12-06T08:29:39Z</time>
      </trkpt>
      <trkpt lat="48.59133" lon="1.96979">
        <ele>118.86</ele>
        <time>2018-12-06T08:29:41Z</time>
      </trkpt>
      <trkpt lat="48.59131" lon="1.96986">
        <ele>119.34</ele>
        <time>2018-12-06T08:29:47Z</time>
      </trkpt>
      <trkpt lat="48.59126" lon="1.96995">
        <ele>119.34</ele>
        <time>2018-12-06T08:29:53Z</time>
      </trkpt>
      <trkpt lat="48.59126" lon="1.96997">
        <ele>119.34</ele>
        <time>2018-12-06T08:29:54Z</time>
      </trkpt>
      <trkpt lat="48.59125" lon="1.97003">
        <ele>119.34</ele>
        <time>2018-12-06T08:29:57Z</time>
      </trkpt>
      <trkpt lat="48.59124" lon="1.9701">
        <ele>119.34</ele>
        <time>2018-12-06T08:30:00Z</time>
      </trkpt>
      <trkpt lat="48.5912" lon="1.97017">
        <ele>119.34</ele>
        <time>2018-12-06T08:30:05Z</time>
      </trkpt>
      <trkpt lat="48.59119" lon="1.97025">
        <ele>119.34</ele>
        <time>2018-12-06T08:30:11Z</time>
      </trkpt>
      <trkpt lat="48.59116" lon="1.97032">
        <ele>119.82</ele>
        <time>2018-12-06T08:30:16Z</time>
      </trkpt>
      <trkpt lat="48.59113" lon="1.97042">
        <ele>119.82</ele>
        <time>2018-12-06T08:30:21Z</time>
      </trkpt>
      <trkpt lat="48.59114" lon="1.97054">
        <ele>119.82</ele>
        <time>2018-12-06T08:30:26Z</time>
      </trkpt>
      <trkpt lat="48.59113" lon="1.97067">
        <ele>120.3</ele>
        <time>2018-12-06T08:30:32Z</time>
      </trkpt>
      <trkpt lat="48.59109" lon="1.97082">
        <ele>120.78</ele>
        <time>2018-12-06T08:30:38Z</time>
      </trkpt>
      <trkpt lat="48.59106" lon="1.97094">
        <ele>120.78</ele>
        <time>2018-12-06T08:30:44Z</time>
      </trkpt>
      <trkpt lat="48.59105" lon="1.97097">
        <ele>121.26</ele>
        <time>2018-12-06T08:30:46Z</time>
      </trkpt>
      <trkpt lat="48.59104" lon="1.97107">
        <ele>121.26</ele>
        <time>2018-12-06T08:30:50Z</time>
      </trkpt>
      <trkpt lat="48.59098" lon="1.97131">
        <ele>121.74</ele>
        <time>2018-12-06T08:30:57Z</time>
      </trkpt>
      <trkpt lat="48.59096" lon="1.97141">
        <ele>122.22</ele>
        <time>2018-12-06T08:31:01Z</time>
      </trkpt>
      <trkpt lat="48.59096" lon="1.97151">
        <ele>122.22</ele>
        <time>2018-12-06T08:31:04Z</time>
      </trkpt>
      <trkpt lat="48.59092" lon="1.97165">
        <ele>122.22</ele>
        <time>2018-12-06T08:31:10Z</time>
      </trkpt>
      <trkpt lat="48.59088" lon="1.97181">
        <ele>122.71</ele>
        <time>2018-12-06T08:31:17Z</time>
      </trkpt>
      <trkpt lat="48.59086" lon="1.97188">
        <ele>122.71</ele>
        <time>2018-12-06T08:31:21Z</time>
      </trkpt>
      <trkpt lat="48.59087" lon="1.97206">
        <ele>123.19</ele>
        <time>2018-12-06T08:31:28Z</time>
      </trkpt>
      <trkpt lat="48.59086" lon="1.97213">
        <ele>124.15</ele>
        <time>2018-12-06T08:31:33Z</time>
      </trkpt>
      <trkpt lat="48.59087" lon="1.97219">
        <ele>124.63</ele>
        <time>2018-12-06T08:31:39Z</time>
      </trkpt>
      <trkpt lat="48.59078" lon="1.9722">
        <ele>125.11</ele>
        <time>2018-12-06T08:31:44Z</time>
      </trkpt>
      <trkpt lat="48.59068" lon="1.97219">
        <ele>125.11</ele>
        <time>2018-12-06T08:31:49Z</time>
      </trkpt>
      <trkpt lat="48.59067" lon="1.97219">
        <ele>125.59</ele>
        <time>2018-12-06T08:31:50Z</time>
      </trkpt>
      <trkpt lat="48.59062" lon="1.97216">
        <ele>126.07</ele>
        <time>2018-12-06T08:31:57Z</time>
      </trkpt>
      <trkpt lat="48.59053" lon="1.97216">
        <ele>127.03</ele>
        <time>2018-12-06T08:32:05Z</time>
      </trkpt>
      <trkpt lat="48.59047" lon="1.97215">
        <ele>127.51</ele>
        <time>2018-12-06T08:32:10Z</time>
      </trkpt>
      <trkpt lat="48.5904" lon="1.97215">
        <ele>127.99</ele>
        <time>2018-12-06T08:32:16Z</time>
      </trkpt>
      <trkpt lat="48.59044" lon="1.97221">
        <ele>128.47</ele>
        <time>2018-12-06T08:32:22Z</time>
      </trkpt>
      <trkpt lat="48.59046" lon="1.97225">
        <ele>128.95</ele>
        <time>2018-12-06T08:32:25Z</time>
      </trkpt>
      <trkpt lat="48.59056" lon="1.97238">
        <ele>129.92</ele>
        <time>2018-12-06T08:32:33Z</time>
      </trkpt>
      <trkpt lat="48.59059" lon="1.9725">
        <ele>129.92</ele>
        <time>2018-12-06T08:32:39Z</time>
      </trkpt>
      <trkpt lat="48.59063" lon="1.97254">
        <ele>130.88</ele>
        <time>2018-12-06T08:32:45Z</time>
      </trkpt>
      <trkpt lat="48.59066" lon="1.97254">
        <ele>131.84</ele>
        <time>2018-12-06T08:32:51Z</time>
      </trkpt>
      <trkpt lat="48.59069" lon="1.9725">
        <ele>132.32</ele>
        <time>2018-12-06T08:32:57Z</time>
      </trkpt>
      <trkpt lat="48.59072" lon="1.97246">
        <ele>132.8</ele>
        <time>2018-12-06T08:33:02Z</time>
      </trkpt>
      <trkpt lat="48.59072" lon="1.97246">
        <ele>132.8</ele>
        <time>2018-12-06T08:33:03Z</time>
      </trkpt>
      <trkpt lat="48.59073" lon="1.97238">
        <ele>133.28</ele>
        <time>2018-12-06T08:33:07Z</time>
      </trkpt>
      <trkpt lat="48.59076" lon="1.97229">
        <ele>133.76</ele>
        <time>2018-12-06T08:33:14Z</time>
      </trkpt>
      <trkpt lat="48.5908" lon="1.97221">
        <ele>134.24</ele>
        <time>2018-12-06T08:33:20Z</time>
      </trkpt>
      <trkpt lat="48.59083" lon="1.97216">
        <ele>134.72</ele>
        <time>2018-12-06T08:33:26Z</time>
      </trkpt>
      <trkpt lat="48.59089" lon="1.97205">
        <ele>135.2</ele>
        <time>2018-12-06T08:33:33Z</time>
      </trkpt>
      <trkpt lat="48.59094" lon="1.97196">
        <ele>136.16</ele>
        <time>2018-12-06T08:33:39Z</time>
      </trkpt>
      <trkpt lat="48.59098" lon="1.97188">
        <ele>136.64</ele>
        <time>2018-12-06T08:33:44Z</time>
      </trkpt>
      <trkpt lat="48.59101" lon="1.9718">
        <ele>137.61</ele>
        <time>2018-12-06T08:33:49Z</time>
      </trkpt>
      <trkpt lat="48.59112" lon="1.97179">
        <ele>138.57</ele>
        <time>2018-12-06T08:33:56Z</time>
      </trkpt>
      <trkpt lat="48.5912" lon="1.97181">
        <ele>139.53</ele>
        <time>2018-12-06T08:34:01Z</time>
      </trkpt>
      <trkpt lat="48.59129" lon="1.9718">
        <ele>140.97</ele>
        <time>2018-12-06T08:34:07Z</time>
      </trkpt>
      <trkpt lat="48.59139" lon="1.97171">
        <ele>141.93</ele>
        <time>2018-12-06T08:34:14Z</time>
      </trkpt>
      <trkpt lat="48.59147" lon="1.97163">
        <ele>142.41</ele>
        <time>2018-12-06T08:34:19Z</time>
      </trkpt>
      <trkpt lat="48.59156" lon="1.97151">
        <ele>142.89</ele>
        <time>2018-12-06T08:34:26Z</time>
      </trkpt>
      <trkpt lat="48.59158" lon="1.97148">
        <ele>143.37</ele>
        <time>2018-12-06T08:34:28Z</time>
      </trkpt>
      <trkpt lat="48.59165" lon="1.97137">
        <ele>143.37</ele>
        <time>2018-12-06T08:34:33Z</time>
      </trkpt>
      <trkpt lat="48.59171" lon="1.97124">
        <ele>143.85</ele>
        <time>2018-12-06T08:34:39Z</time>
      </trkpt>
      <trkpt lat="48.59176" lon="1.97109">
        <ele>144.82</ele>
        <time>2018-12-06T08:34:47Z</time>
      </trkpt>
      <trkpt lat="48.5918" lon="1.97099">
        <ele>144.82</ele>
        <time>2018-12-06T08:34:53Z</time>
      </trkpt>
      <trkpt lat="48.59183" lon="1.97094">
        <ele>145.3</ele>
        <time>2018-12-06T08:34:56Z</time>
      </trkpt>
      <trkpt lat="48.59187" lon="1.97083">
        <ele>145.78</ele>
        <time>2018-12-06T08:35:01Z</time>
      </trkpt>
      <trkpt lat="48.59193" lon="1.97074">
        <ele>146.26</ele>
        <time>2018-12-06T08:35:06Z</time>
      </trkpt>
      <trkpt lat="48.592" lon="1.97064">
        <ele>146.26</ele>
        <time>2018-12-06T08:35:12Z</time>
      </trkpt>
      <trkpt lat="48.59203" lon="1.97061">
        <ele>146.74</ele>
        <time>2018-12-06T08:35:14Z</time>
      </trkpt>
      <trkpt lat="48.59209" lon="1.97048">
        <ele>146.74</ele>
        <time>2018-12-06T08:35:20Z</time>
      </trkpt>
      <trkpt lat="48.59215" lon="1.97036">
        <ele>147.22</ele>
        <time>2018-12-06T08:35:26Z</time>
      </trkpt>
      <trkpt lat="48.59224" lon="1.97022">
        <ele>148.66</ele>
        <time>2018-12-06T08:35:33Z</time>
      </trkpt>
      <trkpt lat="48.59232" lon="1.97008">
        <ele>150.1</ele>
        <time>2018-12-06T08:35:40Z</time>
      </trkpt>
      <trkpt lat="48.59234" lon="1.97005">
        <ele>150.58</ele>
        <time>2018-12-06T08:35:42Z</time>
      </trkpt>
      <trkpt lat="48.5924" lon="1.96997">
        <ele>151.54</ele>
        <time>2018-12-06T08:35:47Z</time>
      </trkpt>
      <trkpt lat="48.59246" lon="1.9699">
        <ele>152.03</ele>
        <time>2018-12-06T08:35:50Z</time>
      </trkpt>
      <trkpt lat="48.59253" lon="1.96976">
        <ele>153.95</ele>
        <time>2018-12-06T08:35:58Z</time>
      </trkpt>
      <trkpt lat="48.59254" lon="1.96973">
        <ele>154.43</ele>
        <time>2018-12-06T08:35:59Z</time>
      </trkpt>
      <trkpt lat="48.59256" lon="1.96968">
        <ele>154.43</ele>
        <time>2018-12-06T08:36:01Z</time>
      </trkpt>
      <trkpt lat="48.59264" lon="1.96958">
        <ele>155.87</ele>
        <time>2018-12-06T08:36:08Z</time>
      </trkpt>
      <trkpt lat="48.59271" lon="1.96954">
        <ele>156.35</ele>
        <time>2018-12-06T08:36:15Z</time>
      </trkpt>
      <trkpt lat="48.59273" lon="1.96951">
        <ele>156.35</ele>
        <time>2018-12-06T08:36:16Z</time>
      </trkpt>
      <trkpt lat="48.59279" lon="1.96936">
        <ele>157.79</ele>
        <time>2018-12-06T08:36:22Z</time>
      </trkpt>
      <trkpt lat="48.5928" lon="1.96934">
        <ele>158.27</ele>
        <time>2018-12-06T08:36:23Z</time>
      </trkpt>
      <trkpt lat="48.59286" lon="1.96925">
        <ele>159.24</ele>
        <time>2018-12-06T08:36:29Z</time>
      </trkpt>
      <trkpt lat="48.59289" lon="1.96916">
        <ele>160.68</ele>
        <time>2018-12-06T08:36:34Z</time>
      </trkpt>
      <trkpt lat="48.59292" lon="1.9691">
        <ele>162.12</ele>
        <time>2018-12-06T08:36:39Z</time>
      </trkpt>
      <trkpt lat="48.59294" lon="1.96908">
        <ele>162.12</ele>
        <time>2018-12-06T08:36:40Z</time>
      </trkpt>
      <trkpt lat="48.59299" lon="1.96896">
        <ele>163.56</ele>
        <time>2018-12-06T08:36:45Z</time>
      </trkpt>
      <trkpt lat="48.59306" lon="1.96879">
        <ele>164.52</ele>
        <time>2018-12-06T08:36:53Z</time>
      </trkpt>
      <trkpt lat="48.59308" lon="1.96875">
        <ele>164.52</ele>
        <time>2018-12-06T08:36:56Z</time>
      </trkpt>
      <trkpt lat="48.59312" lon="1.96869">
        <ele>165</ele>
        <time>2018-12-06T08:36:59Z</time>
      </trkpt>
      <trkpt lat="48.59314" lon="1.96862">
        <ele>165.48</ele>
        <time>2018-12-06T08:37:03Z</time>
      </trkpt>
      <trkpt lat="48.59318" lon="1.96854">
        <ele>166.45</ele>
        <time>2018-12-06T08:37:07Z</time>
      </trkpt>
      <trkpt lat="48.59323" lon="1.96843">
        <ele>167.89</ele>
        <time>2018-12-06T08:37:13Z</time>
      </trkpt>
      <trkpt lat="48.59326" lon="1.96841">
        <ele>168.37</ele>
        <time>2018-12-06T08:37:17Z</time>
      </trkpt>
      <trkpt lat="48.59334" lon="1.96828">
        <ele>169.33</ele>
        <time>2018-12-06T08:37:24Z</time>
      </trkpt>
      <trkpt lat="48.59335" lon="1.96826">
        <ele>169.81</ele>
        <time>2018-12-06T08:37:25Z</time>
      </trkpt>
      <trkpt lat="48.59344" lon="1.96812">
        <ele>170.29</ele>
        <time>2018-12-06T08:37:31Z</time>
      </trkpt>
      <trkpt lat="48.59349" lon="1.968">
        <ele>170.29</ele>
        <time>2018-12-06T08:37:37Z</time>
      </trkpt>
      <trkpt lat="48.59352" lon="1.96796">
        <ele>170.29</ele>
        <time>2018-12-06T08:37:40Z</time>
      </trkpt>
      <trkpt lat="48.59355" lon="1.96791">
        <ele>170.29</ele>
        <time>2018-12-06T08:37:43Z</time>
      </trkpt>
      <trkpt lat="48.59357" lon="1.96787">
        <ele>170.29</ele>
        <time>2018-12-06T08:37:46Z</time>
      </trkpt>
      <trkpt lat="48.59363" lon="1.96775">
        <ele>169.81</ele>
        <time>2018-12-06T08:37:52Z</time>
      </trkpt>
      <trkpt lat="48.59366" lon="1.96764">
        <ele>169.33</ele>
        <time>2018-12-06T08:37:57Z</time>
      </trkpt>
      <trkpt lat="48.59374" lon="1.96749">
        <ele>169.33</ele>
        <time>2018-12-06T08:38:05Z</time>
      </trkpt>
      <trkpt lat="48.59377" lon="1.9674">
        <ele>168.85</ele>
        <time>2018-12-06T08:38:09Z</time>
      </trkpt>
      <trkpt lat="48.59382" lon="1.96729">
        <ele>168.37</ele>
        <time>2018-12-06T08:38:15Z</time>
      </trkpt>
      <trkpt lat="48.59387" lon="1.96717">
        <ele>168.85</ele>
        <time>2018-12-06T08:38:21Z</time>
      </trkpt>
      <trkpt lat="48.59396" lon="1.96703">
        <ele>168.85</ele>
        <time>2018-12-06T08:38:28Z</time>
      </trkpt>
      <trkpt lat="48.59401" lon="1.96688">
        <ele>168.37</ele>
        <time>2018-12-06T08:38:34Z</time>
      </trkpt>
      <trkpt lat="48.59403" lon="1.96683">
        <ele>168.37</ele>
        <time>2018-12-06T08:38:36Z</time>
      </trkpt>
      <trkpt lat="48.59412" lon="1.96668">
        <ele>167.89</ele>
        <time>2018-12-06T08:38:43Z</time>
      </trkpt>
      <trkpt lat="48.59419" lon="1.96656">
        <ele>167.89</ele>
        <time>2018-12-06T08:38:50Z</time>
      </trkpt>
      <trkpt lat="48.59422" lon="1.96649">
        <ele>167.89</ele>
        <time>2018-12-06T08:38:53Z</time>
      </trkpt>
      <trkpt lat="48.59428" lon="1.96639">
        <ele>168.37</ele>
        <time>2018-12-06T08:38:59Z</time>
      </trkpt>
      <trkpt lat="48.59431" lon="1.96635">
        <ele>168.37</ele>
        <time>2018-12-06T08:39:02Z</time>
      </trkpt>
      <trkpt lat="48.59431" lon="1.96631">
        <ele>168.37</ele>
        <time>2018-12-06T08:39:05Z</time>
      </trkpt>
      <trkpt lat="48.59433" lon="1.96626">
        <ele>168.37</ele>
        <time>2018-12-06T08:39:08Z</time>
      </trkpt>
      <trkpt lat="48.59436" lon="1.96614">
        <ele>167.89</ele>
        <time>2018-12-06T08:39:14Z</time>
      </trkpt>
      <trkpt lat="48.59442" lon="1.966">
        <ele>167.89</ele>
        <time>2018-12-06T08:39:22Z</time>
      </trkpt>
      <trkpt lat="48.59443" lon="1.96599">
        <ele>167.89</ele>
        <time>2018-12-06T08:39:23Z</time>
      </trkpt>
      <trkpt lat="48.59444" lon="1.96595">
        <ele>167.89</ele>
        <time>2018-12-06T08:39:25Z</time>
      </trkpt>
      <trkpt lat="48.59449" lon="1.96586">
        <ele>167.89</ele>
        <time>2018-12-06T08:39:31Z</time>
      </trkpt>
      <trkpt lat="48.59454" lon="1.96573">
        <ele>167.89</ele>
        <time>2018-12-06T08:39:37Z</time>
      </trkpt>
      <trkpt lat="48.59459" lon="1.96561">
        <ele>168.37</ele>
        <time>2018-12-06T08:39:43Z</time>
      </trkpt>
      <trkpt lat="48.59464" lon="1.9655">
        <ele>168.85</ele>
        <time>2018-12-06T08:39:49Z</time>
      </trkpt>
      <trkpt lat="48.59467" lon="1.96544">
        <ele>169.33</ele>
        <time>2018-12-06T08:39:54Z</time>
      </trkpt>
      <trkpt lat="48.59474" lon="1.96528">
        <ele>170.29</ele>
        <time>2018-12-06T08:40:01Z</time>
      </trkpt>
      <trkpt lat="48.59479" lon="1.96515">
        <ele>171.25</ele>
        <time>2018-12-06T08:40:08Z</time>
      </trkpt>
      <trkpt lat="48.59483" lon="1.96508">
        <ele>172.21</ele>
        <time>2018-12-06T08:40:11Z</time>
      </trkpt>
      <trkpt lat="48.59484" lon="1.96504">
        <ele>172.21</ele>
        <time>2018-12-06T08:40:13Z</time>
      </trkpt>
      <trkpt lat="48.59486" lon="1.96501">
        <ele>172.21</ele>
        <time>2018-12-06T08:40:15Z</time>
      </trkpt>
      <trkpt lat="48.59487" lon="1.96496">
        <ele>172.21</ele>
        <time>2018-12-06T08:40:17Z</time>
      </trkpt>
      <trkpt lat="48.59494" lon="1.96485">
        <ele>172.69</ele>
        <time>2018-12-06T08:40:23Z</time>
      </trkpt>
      <trkpt lat="48.59496" lon="1.96482">
        <ele>172.69</ele>
        <time>2018-12-06T08:40:25Z</time>
      </trkpt>
      <trkpt lat="48.595" lon="1.96473">
        <ele>173.17</ele>
        <time>2018-12-06T08:40:29Z</time>
      </trkpt>
      <trkpt lat="48.59504" lon="1.96463">
        <ele>174.14</ele>
        <time>2018-12-06T08:40:35Z</time>
      </trkpt>
      <trkpt lat="48.5951" lon="1.9645">
        <ele>175.1</ele>
        <time>2018-12-06T08:40:41Z</time>
      </trkpt>
      <trkpt lat="48.59518" lon="1.96435">
        <ele>175.58</ele>
        <time>2018-12-06T08:40:48Z</time>
      </trkpt>
      <trkpt lat="48.59525" lon="1.9642">
        <ele>176.06</ele>
        <time>2018-12-06T08:40:54Z</time>
      </trkpt>
      <trkpt lat="48.59532" lon="1.96406">
        <ele>177.5</ele>
        <time>2018-12-06T08:41:01Z</time>
      </trkpt>
      <trkpt lat="48.59533" lon="1.96404">
        <ele>177.5</ele>
        <time>2018-12-06T08:41:02Z</time>
      </trkpt>
      <trkpt lat="48.59534" lon="1.964">
        <ele>177.5</ele>
        <time>2018-12-06T08:41:04Z</time>
      </trkpt>
      <trkpt lat="48.5954" lon="1.96387">
        <ele>177.98</ele>
        <time>2018-12-06T08:41:11Z</time>
      </trkpt>
      <trkpt lat="48.59542" lon="1.96382">
        <ele>178.46</ele>
        <time>2018-12-06T08:41:14Z</time>
      </trkpt>
      <trkpt lat="48.59546" lon="1.96372">
        <ele>178.46</ele>
        <time>2018-12-06T08:41:19Z</time>
      </trkpt>
      <trkpt lat="48.59553" lon="1.9636">
        <ele>178.94</ele>
        <time>2018-12-06T08:41:27Z</time>
      </trkpt>
      <trkpt lat="48.59559" lon="1.96344">
        <ele>178.46</ele>
        <time>2018-12-06T08:41:34Z</time>
      </trkpt>
      <trkpt lat="48.59566" lon="1.96328">
        <ele>178.94</ele>
        <time>2018-12-06T08:41:41Z</time>
      </trkpt>
      <trkpt lat="48.59568" lon="1.96322">
        <ele>178.94</ele>
        <time>2018-12-06T08:41:46Z</time>
      </trkpt>
      <trkpt lat="48.59573" lon="1.9631">
        <ele>178.94</ele>
        <time>2018-12-06T08:41:53Z</time>
      </trkpt>
      <trkpt lat="48.59577" lon="1.96306">
        <ele>178.94</ele>
        <time>2018-12-06T08:42:00Z</time>
      </trkpt>
      <trkpt lat="48.59578" lon="1.96306">
        <ele>177.5</ele>
        <time>2018-12-06T08:42:10Z</time>
      </trkpt>
      <trkpt lat="48.59578" lon="1.96306">
        <ele>177.5</ele>
        <time>2018-12-06T08:42:24Z</time>
      </trkpt>
      <trkpt lat="48.59578" lon="1.96306">
        <ele>177.5</ele>
        <time>2018-12-06T08:42:34Z</time>
      </trkpt>
      <trkpt lat="48.59579" lon="1.96306">
        <ele>177.98</ele>
        <time>2018-12-06T08:42:40Z</time>
      </trkpt>
      <trkpt lat="48.59579" lon="1.96305">
        <ele>177.98</ele>
        <time>2018-12-06T08:42:46Z</time>
      </trkpt>
      <trkpt lat="48.59579" lon="1.96304">
        <ele>177.5</ele>
        <time>2018-12-06T08:42:52Z</time>
      </trkpt>
      <trkpt lat="48.5958" lon="1.96303">
        <ele>177.5</ele>
        <time>2018-12-06T08:42:58Z</time>
      </trkpt>
      <trkpt lat="48.59581" lon="1.96299">
        <ele>177.02</ele>
        <time>2018-12-06T08:43:02Z</time>
      </trkpt>
      <trkpt lat="48.59583" lon="1.96292">
        <ele>176.06</ele>
        <time>2018-12-06T08:43:06Z</time>
      </trkpt>
      <trkpt lat="48.59588" lon="1.96284">
        <ele>175.58</ele>
        <time>2018-12-06T08:43:10Z</time>
      </trkpt>
      <trkpt lat="48.59593" lon="1.96273">
        <ele>174.62</ele>
        <time>2018-12-06T08:43:16Z</time>
      </trkpt>
      <trkpt lat="48.59598" lon="1.9626">
        <ele>173.17</ele>
        <time>2018-12-06T08:43:24Z</time>
      </trkpt>
      <trkpt lat="48.59601" lon="1.96253">
        <ele>171.25</ele>
        <time>2018-12-06T08:43:31Z</time>
      </trkpt>
      <trkpt lat="48.59601" lon="1.9625">
        <ele>170.29</ele>
        <time>2018-12-06T08:43:33Z</time>
      </trkpt>
      <trkpt lat="48.59608" lon="1.9624">
        <ele>168.37</ele>
        <time>2018-12-06T08:43:39Z</time>
      </trkpt>
      <trkpt lat="48.59613" lon="1.96231">
        <ele>166.93</ele>
        <time>2018-12-06T08:43:45Z</time>
      </trkpt>
      <trkpt lat="48.59618" lon="1.9622">
        <ele>165.96</ele>
        <time>2018-12-06T08:43:50Z</time>
      </trkpt>
      <trkpt lat="48.5962" lon="1.96214">
        <ele>165</ele>
        <time>2018-12-06T08:43:55Z</time>
      </trkpt>
      <trkpt lat="48.5962" lon="1.96213">
        <ele>164.52</ele>
        <time>2018-12-06T08:43:56Z</time>
      </trkpt>
      <trkpt lat="48.59622" lon="1.96207">
        <ele>164.04</ele>
        <time>2018-12-06T08:43:59Z</time>
      </trkpt>
      <trkpt lat="48.59625" lon="1.962">
        <ele>163.08</ele>
        <time>2018-12-06T08:44:02Z</time>
      </trkpt>
      <trkpt lat="48.59631" lon="1.96188">
        <ele>161.64</ele>
        <time>2018-12-06T08:44:08Z</time>
      </trkpt>
      <trkpt lat="48.59635" lon="1.9618">
        <ele>160.68</ele>
        <time>2018-12-06T08:44:14Z</time>
      </trkpt>
      <trkpt lat="48.59637" lon="1.96176">
        <ele>160.2</ele>
        <time>2018-12-06T08:44:17Z</time>
      </trkpt>
      <trkpt lat="48.59642" lon="1.96168">
        <ele>159.72</ele>
        <time>2018-12-06T08:44:22Z</time>
      </trkpt>
      <trkpt lat="48.59643" lon="1.96166">
        <ele>159.24</ele>
        <time>2018-12-06T08:44:23Z</time>
      </trkpt>
      <trkpt lat="48.59649" lon="1.96157">
        <ele>158.75</ele>
        <time>2018-12-06T08:44:28Z</time>
      </trkpt>
      <trkpt lat="48.59651" lon="1.96153">
        <ele>158.75</ele>
        <time>2018-12-06T08:44:30Z</time>
      </trkpt>
      <trkpt lat="48.59652" lon="1.96147">
        <ele>158.27</ele>
        <time>2018-12-06T08:44:32Z</time>
      </trkpt>
      <trkpt lat="48.59659" lon="1.96132">
        <ele>157.31</ele>
        <time>2018-12-06T08:44:39Z</time>
      </trkpt>
      <trkpt lat="48.59661" lon="1.9613">
        <ele>156.83</ele>
        <time>2018-12-06T08:44:41Z</time>
      </trkpt>
      <trkpt lat="48.59667" lon="1.96116">
        <ele>155.87</ele>
        <time>2018-12-06T08:44:48Z</time>
      </trkpt>
      <trkpt lat="48.59668" lon="1.96115">
        <ele>155.39</ele>
        <time>2018-12-06T08:44:49Z</time>
      </trkpt>
      <trkpt lat="48.59672" lon="1.96104">
        <ele>154.43</ele>
        <time>2018-12-06T08:44:55Z</time>
      </trkpt>
      <trkpt lat="48.59675" lon="1.96097">
        <ele>153.95</ele>
        <time>2018-12-06T08:45:00Z</time>
      </trkpt>
      <trkpt lat="48.59679" lon="1.96086">
        <ele>153.47</ele>
        <time>2018-12-06T08:45:04Z</time>
      </trkpt>
      <trkpt lat="48.59683" lon="1.96078">
        <ele>152.99</ele>
        <time>2018-12-06T08:45:08Z</time>
      </trkpt>
      <trkpt lat="48.59689" lon="1.9607">
        <ele>152.51</ele>
        <time>2018-12-06T08:45:14Z</time>
      </trkpt>
      <trkpt lat="48.59692" lon="1.96062">
        <ele>152.51</ele>
        <time>2018-12-06T08:45:19Z</time>
      </trkpt>
      <trkpt lat="48.59694" lon="1.96052">
        <ele>152.51</ele>
        <time>2018-12-06T08:45:22Z</time>
      </trkpt>
      <trkpt lat="48.597" lon="1.96041">
        <ele>152.51</ele>
        <time>2018-12-06T08:45:29Z</time>
      </trkpt>
      <trkpt lat="48.59702" lon="1.96032">
        <ele>152.03</ele>
        <time>2018-12-06T08:45:32Z</time>
      </trkpt>
      <trkpt lat="48.59705" lon="1.96023">
        <ele>151.54</ele>
        <time>2018-12-06T08:45:36Z</time>
      </trkpt>
      <trkpt lat="48.59706" lon="1.96016">
        <ele>151.54</ele>
        <time>2018-12-06T08:45:39Z</time>
      </trkpt>
      <trkpt lat="48.59708" lon="1.96008">
        <ele>151.54</ele>
        <time>2018-12-06T08:45:43Z</time>
      </trkpt>
      <trkpt lat="48.59716" lon="1.96001">
        <ele>151.06</ele>
        <time>2018-12-06T08:45:48Z</time>
      </trkpt>
      <trkpt lat="48.59721" lon="1.95994">
        <ele>151.06</ele>
        <time>2018-12-06T08:45:52Z</time>
      </trkpt>
      <trkpt lat="48.59723" lon="1.95991">
        <ele>150.58</ele>
        <time>2018-12-06T08:45:54Z</time>
      </trkpt>
      <trkpt lat="48.59729" lon="1.95978">
        <ele>150.1</ele>
        <time>2018-12-06T08:46:00Z</time>
      </trkpt>
      <trkpt lat="48.59734" lon="1.95964">
        <ele>150.1</ele>
        <time>2018-12-06T08:46:06Z</time>
      </trkpt>
      <trkpt lat="48.59739" lon="1.95959">
        <ele>149.62</ele>
        <time>2018-12-06T08:46:12Z</time>
      </trkpt>
      <trkpt lat="48.59744" lon="1.95948">
        <ele>149.14</ele>
        <time>2018-12-06T08:46:18Z</time>
      </trkpt>
      <trkpt lat="48.59746" lon="1.95945">
        <ele>149.14</ele>
        <time>2018-12-06T08:46:19Z</time>
      </trkpt>
      <trkpt lat="48.59754" lon="1.95928">
        <ele>149.14</ele>
        <time>2018-12-06T08:46:24Z</time>
      </trkpt>
      <trkpt lat="48.59759" lon="1.95919">
        <ele>149.14</ele>
        <time>2018-12-06T08:46:27Z</time>
      </trkpt>
      <trkpt lat="48.59768" lon="1.95903">
        <ele>148.18</ele>
        <time>2018-12-06T08:46:33Z</time>
      </trkpt>
      <trkpt lat="48.59769" lon="1.95901">
        <ele>148.66</ele>
        <time>2018-12-06T08:46:35Z</time>
      </trkpt>
      <trkpt lat="48.59773" lon="1.95892">
        <ele>148.18</ele>
        <time>2018-12-06T08:46:42Z</time>
      </trkpt>
      <trkpt lat="48.59774" lon="1.9589">
        <ele>148.18</ele>
        <time>2018-12-06T08:46:43Z</time>
      </trkpt>
      <trkpt lat="48.59778" lon="1.95877">
        <ele>148.18</ele>
        <time>2018-12-06T08:46:47Z</time>
      </trkpt>
      <trkpt lat="48.59784" lon="1.9586">
        <ele>148.18</ele>
        <time>2018-12-06T08:46:53Z</time>
      </trkpt>
      <trkpt lat="48.59786" lon="1.9585">
        <ele>147.7</ele>
        <time>2018-12-06T08:46:59Z</time>
      </trkpt>
      <trkpt lat="48.59788" lon="1.95848">
        <ele>147.7</ele>
        <time>2018-12-06T08:47:02Z</time>
      </trkpt>
      <trkpt lat="48.59792" lon="1.95837">
        <ele>147.7</ele>
        <time>2018-12-06T08:47:08Z</time>
      </trkpt>
      <trkpt lat="48.59793" lon="1.95835">
        <ele>147.7</ele>
        <time>2018-12-06T08:47:12Z</time>
      </trkpt>
      <trkpt lat="48.59794" lon="1.95827">
        <ele>147.22</ele>
        <time>2018-12-06T08:47:16Z</time>
      </trkpt>
      <trkpt lat="48.59798" lon="1.95819">
        <ele>147.22</ele>
        <time>2018-12-06T08:47:19Z</time>
      </trkpt>
      <trkpt lat="48.59803" lon="1.95809">
        <ele>147.22</ele>
        <time>2018-12-06T08:47:25Z</time>
      </trkpt>
      <trkpt lat="48.59807" lon="1.95804">
        <ele>146.74</ele>
        <time>2018-12-06T08:47:29Z</time>
      </trkpt>
      <trkpt lat="48.59818" lon="1.95788">
        <ele>146.74</ele>
        <time>2018-12-06T08:47:36Z</time>
      </trkpt>
      <trkpt lat="48.59823" lon="1.95781">
        <ele>146.74</ele>
        <time>2018-12-06T08:47:42Z</time>
      </trkpt>
      <trkpt lat="48.59827" lon="1.95774">
        <ele>146.26</ele>
        <time>2018-12-06T08:47:47Z</time>
      </trkpt>
      <trkpt lat="48.59832" lon="1.95764">
        <ele>146.74</ele>
        <time>2018-12-06T08:47:53Z</time>
      </trkpt>
      <trkpt lat="48.59838" lon="1.95755">
        <ele>146.26</ele>
        <time>2018-12-06T08:47:59Z</time>
      </trkpt>
      <trkpt lat="48.59841" lon="1.95744">
        <ele>146.26</ele>
        <time>2018-12-06T08:48:06Z</time>
      </trkpt>
      <trkpt lat="48.59843" lon="1.95736">
        <ele>145.78</ele>
        <time>2018-12-06T08:48:11Z</time>
      </trkpt>
      <trkpt lat="48.59849" lon="1.95716">
        <ele>145.78</ele>
        <time>2018-12-06T08:48:24Z</time>
      </trkpt>
      <trkpt lat="48.59853" lon="1.95707">
        <ele>145.78</ele>
        <time>2018-12-06T08:48:35Z</time>
      </trkpt>
      <trkpt lat="48.59853" lon="1.95704">
        <ele>145.78</ele>
        <time>2018-12-06T08:48:42Z</time>
      </trkpt>
      <trkpt lat="48.59859" lon="1.95692">
        <ele>145.78</ele>
        <time>2018-12-06T08:48:57Z</time>
      </trkpt>
      <trkpt lat="48.59862" lon="1.95687">
        <ele>145.78</ele>
        <time>2018-12-06T08:49:15Z</time>
      </trkpt>
      <trkpt lat="48.59864" lon="1.95683">
        <ele>145.78</ele>
        <time>2018-12-06T08:49:23Z</time>
      </trkpt>
      <trkpt lat="48.59865" lon="1.95681">
        <ele>145.78</ele>
        <time>2018-12-06T08:49:40Z</time>
      </trkpt>
      <trkpt lat="48.59865" lon="1.95681">
        <ele>145.78</ele>
        <time>2018-12-06T08:49:54Z</time>
      </trkpt>
      <trkpt lat="48.59866" lon="1.95681">
        <ele>145.78</ele>
        <time>2018-12-06T08:50:04Z</time>
      </trkpt>
      <trkpt lat="48.59869" lon="1.95681">
        <ele>145.78</ele>
        <time>2018-12-06T08:50:11Z</time>
      </trkpt>
      <trkpt lat="48.5987" lon="1.95681">
        <ele>146.26</ele>
        <time>2018-12-06T08:50:13Z</time>
      </trkpt>
      <trkpt lat="48.59876" lon="1.95683">
        <ele>146.74</ele>
        <time>2018-12-06T08:50:19Z</time>
      </trkpt>
      <trkpt lat="48.59881" lon="1.95687">
        <ele>146.74</ele>
        <time>2018-12-06T08:50:24Z</time>
      </trkpt>
      <trkpt lat="48.59885" lon="1.95687">
        <ele>147.22</ele>
        <time>2018-12-06T08:50:27Z</time>
      </trkpt>
      <trkpt lat="48.59893" lon="1.95687">
        <ele>147.7</ele>
        <time>2018-12-06T08:50:33Z</time>
      </trkpt>
      <trkpt lat="48.59902" lon="1.95686">
        <ele>148.18</ele>
        <time>2018-12-06T08:50:38Z</time>
      </trkpt>
      <trkpt lat="48.5991" lon="1.9569">
        <ele>148.66</ele>
        <time>2018-12-06T08:50:44Z</time>
      </trkpt>
      <trkpt lat="48.59913" lon="1.95688">
        <ele>149.14</ele>
        <time>2018-12-06T08:50:46Z</time>
      </trkpt>
      <trkpt lat="48.59916" lon="1.95688">
        <ele>149.14</ele>
        <time>2018-12-06T08:50:48Z</time>
      </trkpt>
      <trkpt lat="48.59918" lon="1.95691">
        <ele>149.14</ele>
        <time>2018-12-06T08:50:50Z</time>
      </trkpt>
      <trkpt lat="48.59922" lon="1.95692">
        <ele>149.14</ele>
        <time>2018-12-06T08:50:53Z</time>
      </trkpt>
      <trkpt lat="48.5993" lon="1.9569">
        <ele>149.14</ele>
        <time>2018-12-06T08:50:58Z</time>
      </trkpt>
      <trkpt lat="48.59931" lon="1.95689">
        <ele>149.14</ele>
        <time>2018-12-06T08:50:59Z</time>
      </trkpt>
      <trkpt lat="48.59944" lon="1.95686">
        <ele>147.7</ele>
        <time>2018-12-06T08:51:07Z</time>
      </trkpt>
      <trkpt lat="48.59958" lon="1.95682">
        <ele>146.74</ele>
        <time>2018-12-06T08:51:13Z</time>
      </trkpt>
      <trkpt lat="48.59966" lon="1.95679">
        <ele>146.26</ele>
        <time>2018-12-06T08:51:18Z</time>
      </trkpt>
      <trkpt lat="48.59974" lon="1.95677">
        <ele>146.26</ele>
        <time>2018-12-06T08:51:23Z</time>
      </trkpt>
      <trkpt lat="48.5998" lon="1.95678">
        <ele>145.78</ele>
        <time>2018-12-06T08:51:29Z</time>
      </trkpt>
      <trkpt lat="48.59985" lon="1.95683">
        <ele>145.3</ele>
        <time>2018-12-06T08:51:34Z</time>
      </trkpt>
      <trkpt lat="48.5999" lon="1.95687">
        <ele>144.34</ele>
        <time>2018-12-06T08:51:38Z</time>
      </trkpt>
      <trkpt lat="48.59998" lon="1.95694">
        <ele>143.85</ele>
        <time>2018-12-06T08:51:45Z</time>
      </trkpt>
      <trkpt lat="48.60005" lon="1.95705">
        <ele>143.85</ele>
        <time>2018-12-06T08:51:52Z</time>
      </trkpt>
      <trkpt lat="48.60009" lon="1.95716">
        <ele>143.85</ele>
        <time>2018-12-06T08:51:57Z</time>
      </trkpt>
      <trkpt lat="48.60015" lon="1.95727">
        <ele>143.37</ele>
        <time>2018-12-06T08:52:04Z</time>
      </trkpt>
      <trkpt lat="48.6002" lon="1.95736">
        <ele>142.89</ele>
        <time>2018-12-06T08:52:10Z</time>
      </trkpt>
      <trkpt lat="48.60027" lon="1.95753">
        <ele>142.89</ele>
        <time>2018-12-06T08:52:18Z</time>
      </trkpt>
      <trkpt lat="48.60032" lon="1.95764">
        <ele>142.41</ele>
        <time>2018-12-06T08:52:24Z</time>
      </trkpt>
      <trkpt lat="48.60035" lon="1.95771">
        <ele>142.41</ele>
        <time>2018-12-06T08:52:28Z</time>
      </trkpt>
      <trkpt lat="48.60042" lon="1.95783">
        <ele>142.41</ele>
        <time>2018-12-06T08:52:35Z</time>
      </trkpt>
      <trkpt lat="48.60046" lon="1.95792">
        <ele>142.41</ele>
        <time>2018-12-06T08:52:41Z</time>
      </trkpt>
      <trkpt lat="48.60052" lon="1.95804">
        <ele>141.93</ele>
        <time>2018-12-06T08:52:47Z</time>
      </trkpt>
      <trkpt lat="48.60057" lon="1.95813">
        <ele>141.93</ele>
        <time>2018-12-06T08:52:53Z</time>
      </trkpt>
      <trkpt lat="48.60064" lon="1.95825">
        <ele>141.93</ele>
        <time>2018-12-06T08:52:58Z</time>
      </trkpt>
      <trkpt lat="48.60072" lon="1.9584">
        <ele>141.45</ele>
        <time>2018-12-06T08:53:02Z</time>
      </trkpt>
      <trkpt lat="48.60084" lon="1.95851">
        <ele>141.45</ele>
        <time>2018-12-06T08:53:09Z</time>
      </trkpt>
      <trkpt lat="48.60086" lon="1.95853">
        <ele>141.45</ele>
        <time>2018-12-06T08:53:10Z</time>
      </trkpt>
      <trkpt lat="48.60093" lon="1.95861">
        <ele>141.45</ele>
        <time>2018-12-06T08:53:15Z</time>
      </trkpt>
      <trkpt lat="48.60105" lon="1.95864">
        <ele>140.97</ele>
        <time>2018-12-06T08:53:22Z</time>
      </trkpt>
      <trkpt lat="48.60115" lon="1.95864">
        <ele>140.97</ele>
        <time>2018-12-06T08:53:27Z</time>
      </trkpt>
      <trkpt lat="48.60129" lon="1.95866">
        <ele>140.97</ele>
        <time>2018-12-06T08:53:33Z</time>
      </trkpt>
      <trkpt lat="48.60141" lon="1.95865">
        <ele>140.97</ele>
        <time>2018-12-06T08:53:40Z</time>
      </trkpt>
      <trkpt lat="48.6015" lon="1.95862">
        <ele>140.49</ele>
        <time>2018-12-06T08:53:47Z</time>
      </trkpt>
      <trkpt lat="48.60159" lon="1.95863">
        <ele>140.01</ele>
        <time>2018-12-06T08:53:52Z</time>
      </trkpt>
      <trkpt lat="48.60165" lon="1.95865">
        <ele>140.01</ele>
        <time>2018-12-06T08:53:55Z</time>
      </trkpt>
      <trkpt lat="48.60176" lon="1.95868">
        <ele>139.53</ele>
        <time>2018-12-06T08:54:01Z</time>
      </trkpt>
      <trkpt lat="48.6018" lon="1.95868">
        <ele>139.53</ele>
        <time>2018-12-06T08:54:03Z</time>
      </trkpt>
      <trkpt lat="48.60184" lon="1.9587">
        <ele>139.05</ele>
        <time>2018-12-06T08:54:07Z</time>
      </trkpt>
      <trkpt lat="48.60195" lon="1.95868">
        <ele>139.05</ele>
        <time>2018-12-06T08:54:14Z</time>
      </trkpt>
      <trkpt lat="48.60205" lon="1.95866">
        <ele>140.01</ele>
        <time>2018-12-06T08:54:20Z</time>
      </trkpt>
      <trkpt lat="48.60214" lon="1.95863">
        <ele>139.05</ele>
        <time>2018-12-06T08:54:26Z</time>
      </trkpt>
      <trkpt lat="48.60214" lon="1.95863">
        <ele>139.05</ele>
        <time>2018-12-06T08:54:27Z</time>
      </trkpt>
      <trkpt lat="48.60223" lon="1.95859">
        <ele>139.05</ele>
        <time>2018-12-06T08:54:35Z</time>
      </trkpt>
      <trkpt lat="48.60232" lon="1.95855">
        <ele>140.01</ele>
        <time>2018-12-06T08:54:43Z</time>
      </trkpt>
      <trkpt lat="48.60233" lon="1.95858">
        <ele>140.01</ele>
        <time>2018-12-06T08:54:45Z</time>
      </trkpt>
      <trkpt lat="48.60236" lon="1.95862">
        <ele>140.49</ele>
        <time>2018-12-06T08:54:50Z</time>
      </trkpt>
      <trkpt lat="48.60241" lon="1.95872">
        <ele>140.97</ele>
        <time>2018-12-06T08:54:56Z</time>
      </trkpt>
      <trkpt lat="48.60242" lon="1.95876">
        <ele>142.41</ele>
        <time>2018-12-06T08:55:00Z</time>
      </trkpt>
      <trkpt lat="48.60242" lon="1.95883">
        <ele>143.85</ele>
        <time>2018-12-06T08:55:05Z</time>
      </trkpt>
      <trkpt lat="48.60243" lon="1.95893">
        <ele>145.3</ele>
        <time>2018-12-06T08:55:11Z</time>
      </trkpt>
      <trkpt lat="48.60242" lon="1.95906">
        <ele>146.26</ele>
        <time>2018-12-06T08:55:16Z</time>
      </trkpt>
      <trkpt lat="48.60239" lon="1.95919">
        <ele>148.18</ele>
        <time>2018-12-06T08:55:23Z</time>
      </trkpt>
      <trkpt lat="48.60236" lon="1.95926">
        <ele>149.62</ele>
        <time>2018-12-06T08:55:29Z</time>
      </trkpt>
      <trkpt lat="48.60235" lon="1.95937">
        <ele>151.06</ele>
        <time>2018-12-06T08:55:35Z</time>
      </trkpt>
      <trkpt lat="48.60236" lon="1.95942">
        <ele>151.06</ele>
        <time>2018-12-06T08:55:37Z</time>
      </trkpt>
      <trkpt lat="48.60238" lon="1.95948">
        <ele>152.03</ele>
        <time>2018-12-06T08:55:40Z</time>
      </trkpt>
      <trkpt lat="48.6024" lon="1.95951">
        <ele>152.03</ele>
        <time>2018-12-06T08:55:42Z</time>
      </trkpt>
      <trkpt lat="48.60246" lon="1.95957">
        <ele>154.43</ele>
        <time>2018-12-06T08:55:49Z</time>
      </trkpt>
      <trkpt lat="48.60246" lon="1.9597">
        <ele>156.35</ele>
        <time>2018-12-06T08:55:55Z</time>
      </trkpt>
      <trkpt lat="48.60242" lon="1.95988">
        <ele>157.31</ele>
        <time>2018-12-06T08:56:01Z</time>
      </trkpt>
      <trkpt lat="48.60242" lon="1.95992">
        <ele>158.27</ele>
        <time>2018-12-06T08:56:05Z</time>
      </trkpt>
      <trkpt lat="48.60239" lon="1.95996">
        <ele>158.75</ele>
        <time>2018-12-06T08:56:08Z</time>
      </trkpt>
      <trkpt lat="48.60237" lon="1.96004">
        <ele>159.72</ele>
        <time>2018-12-06T08:56:12Z</time>
      </trkpt>
      <trkpt lat="48.60235" lon="1.96019">
        <ele>160.68</ele>
        <time>2018-12-06T08:56:18Z</time>
      </trkpt>
      <trkpt lat="48.60232" lon="1.96034">
        <ele>162.12</ele>
        <time>2018-12-06T08:56:23Z</time>
      </trkpt>
      <trkpt lat="48.60231" lon="1.96043">
        <ele>162.6</ele>
        <time>2018-12-06T08:56:27Z</time>
      </trkpt>
      <trkpt lat="48.6023" lon="1.96053">
        <ele>164.04</ele>
        <time>2018-12-06T08:56:32Z</time>
      </trkpt>
      <trkpt lat="48.60232" lon="1.96062">
        <ele>165.48</ele>
        <time>2018-12-06T08:56:38Z</time>
      </trkpt>
      <trkpt lat="48.60234" lon="1.9607">
        <ele>166.93</ele>
        <time>2018-12-06T08:56:43Z</time>
      </trkpt>
      <trkpt lat="48.60229" lon="1.96083">
        <ele>168.85</ele>
        <time>2018-12-06T08:56:49Z</time>
      </trkpt>
      <trkpt lat="48.60223" lon="1.96088">
        <ele>169.81</ele>
        <time>2018-12-06T08:56:55Z</time>
      </trkpt>
      <trkpt lat="48.60223" lon="1.96091">
        <ele>169.81</ele>
        <time>2018-12-06T08:57:01Z</time>
      </trkpt>
      <trkpt lat="48.60223" lon="1.96092">
        <ele>169.81</ele>
        <time>2018-12-06T08:57:05Z</time>
      </trkpt>
      <trkpt lat="48.60224" lon="1.96096">
        <ele>170.29</ele>
        <time>2018-12-06T08:57:09Z</time>
      </trkpt>
      <trkpt lat="48.60228" lon="1.96101">
        <ele>169.81</ele>
        <time>2018-12-06T08:57:15Z</time>
      </trkpt>
      <trkpt lat="48.60233" lon="1.96111">
        <ele>169.81</ele>
        <time>2018-12-06T08:57:20Z</time>
      </trkpt>
      <trkpt lat="48.60241" lon="1.96125">
        <ele>169.81</ele>
        <time>2018-12-06T08:57:25Z</time>
      </trkpt>
      <trkpt lat="48.60245" lon="1.96139">
        <ele>169.81</ele>
        <time>2018-12-06T08:57:31Z</time>
      </trkpt>
      <trkpt lat="48.60246" lon="1.96142">
        <ele>169.81</ele>
        <time>2018-12-06T08:57:32Z</time>
      </trkpt>
      <trkpt lat="48.60245" lon="1.96153">
        <ele>169.33</ele>
        <time>2018-12-06T08:57:39Z</time>
      </trkpt>
      <trkpt lat="48.60248" lon="1.96165">
        <ele>169.33</ele>
        <time>2018-12-06T08:57:45Z</time>
      </trkpt>
      <trkpt lat="48.60253" lon="1.96177">
        <ele>168.85</ele>
        <time>2018-12-06T08:57:51Z</time>
      </trkpt>
      <trkpt lat="48.60253" lon="1.96188">
        <ele>168.85</ele>
        <time>2018-12-06T08:57:57Z</time>
      </trkpt>
      <trkpt lat="48.60257" lon="1.96198">
        <ele>168.37</ele>
        <time>2018-12-06T08:58:02Z</time>
      </trkpt>
      <trkpt lat="48.60261" lon="1.96209">
        <ele>168.85</ele>
        <time>2018-12-06T08:58:07Z</time>
      </trkpt>
      <trkpt lat="48.60263" lon="1.96214">
        <ele>168.37</ele>
        <time>2018-12-06T08:58:11Z</time>
      </trkpt>
      <trkpt lat="48.60268" lon="1.96226">
        <ele>168.37</ele>
        <time>2018-12-06T08:58:17Z</time>
      </trkpt>
      <trkpt lat="48.60273" lon="1.96239">
        <ele>168.37</ele>
        <time>2018-12-06T08:58:25Z</time>
      </trkpt>
      <trkpt lat="48.60281" lon="1.96249">
        <ele>168.37</ele>
        <time>2018-12-06T08:58:33Z</time>
      </trkpt>
      <trkpt lat="48.60289" lon="1.96262">
        <ele>168.37</ele>
        <time>2018-12-06T08:58:39Z</time>
      </trkpt>
      <trkpt lat="48.60291" lon="1.96267">
        <ele>168.37</ele>
        <time>2018-12-06T08:58:41Z</time>
      </trkpt>
      <trkpt lat="48.60292" lon="1.96269">
        <ele>168.37</ele>
        <time>2018-12-06T08:58:43Z</time>
      </trkpt>
      <trkpt lat="48.60294" lon="1.96276">
        <ele>168.37</ele>
        <time>2018-12-06T08:58:48Z</time>
      </trkpt>
      <trkpt lat="48.60297" lon="1.96284">
        <ele>168.37</ele>
        <time>2018-12-06T08:58:53Z</time>
      </trkpt>
      <trkpt lat="48.60298" lon="1.96289">
        <ele>168.85</ele>
        <time>2018-12-06T08:58:55Z</time>
      </trkpt>
      <trkpt lat="48.60303" lon="1.963">
        <ele>168.85</ele>
        <time>2018-12-06T08:59:00Z</time>
      </trkpt>
      <trkpt lat="48.60303" lon="1.96301">
        <ele>168.85</ele>
        <time>2018-12-06T08:59:01Z</time>
      </trkpt>
      <trkpt lat="48.603" lon="1.9631">
        <ele>168.37</ele>
        <time>2018-12-06T08:59:08Z</time>
      </trkpt>
      <trkpt lat="48.603" lon="1.96322">
        <ele>168.37</ele>
        <time>2018-12-06T08:59:16Z</time>
      </trkpt>
      <trkpt lat="48.603" lon="1.96341">
        <ele>168.37</ele>
        <time>2018-12-06T08:59:26Z</time>
      </trkpt>
      <trkpt lat="48.60299" lon="1.96348">
        <ele>168.37</ele>
        <time>2018-12-06T08:59:36Z</time>
      </trkpt>
      <trkpt lat="48.60298" lon="1.96355">
        <ele>168.85</ele>
        <time>2018-12-06T08:59:51Z</time>
      </trkpt>
      <trkpt lat="48.60299" lon="1.96357">
        <ele>168.37</ele>
        <time>2018-12-06T09:00:02Z</time>
      </trkpt>
      <trkpt lat="48.60299" lon="1.9636">
        <ele>168.37</ele>
        <time>2018-12-06T09:00:16Z</time>
      </trkpt>
      <trkpt lat="48.60302" lon="1.96366">
        <ele>168.37</ele>
        <time>2018-12-06T09:00:27Z</time>
      </trkpt>
      <trkpt lat="48.60303" lon="1.96368">
        <ele>168.37</ele>
        <time>2018-12-06T09:00:35Z</time>
      </trkpt>
      <trkpt lat="48.60303" lon="1.9637">
        <ele>168.37</ele>
        <time>2018-12-06T09:00:46Z</time>
      </trkpt>
      <trkpt lat="48.60304" lon="1.96369">
        <ele>167.89</ele>
        <time>2018-12-06T09:00:55Z</time>
      </trkpt>
      <trkpt lat="48.60305" lon="1.96369">
        <ele>167.41</ele>
        <time>2018-12-06T09:01:04Z</time>
      </trkpt>
      <trkpt lat="48.60305" lon="1.96369">
        <ele>167.41</ele>
        <time>2018-12-06T09:01:05Z</time>
      </trkpt>
      <trkpt lat="48.60304" lon="1.96369">
        <ele>166.93</ele>
        <time>2018-12-06T09:01:09Z</time>
      </trkpt>
      <trkpt lat="48.60302" lon="1.96371">
        <ele>166.45</ele>
        <time>2018-12-06T09:01:17Z</time>
      </trkpt>
      <trkpt lat="48.603" lon="1.96371">
        <ele>166.45</ele>
        <time>2018-12-06T09:01:22Z</time>
      </trkpt>
      <trkpt lat="48.60297" lon="1.96371">
        <ele>166.45</ele>
        <time>2018-12-06T09:01:26Z</time>
      </trkpt>
      <trkpt lat="48.60292" lon="1.96363">
        <ele>166.45</ele>
        <time>2018-12-06T09:01:33Z</time>
      </trkpt>
      <trkpt lat="48.60286" lon="1.96356">
        <ele>167.41</ele>
        <time>2018-12-06T09:01:38Z</time>
      </trkpt>
      <trkpt lat="48.60277" lon="1.9635">
        <ele>167.41</ele>
        <time>2018-12-06T09:01:43Z</time>
      </trkpt>
      <trkpt lat="48.60271" lon="1.9634">
        <ele>167.41</ele>
        <time>2018-12-06T09:01:48Z</time>
      </trkpt>
      <trkpt lat="48.60261" lon="1.96333">
        <ele>167.89</ele>
        <time>2018-12-06T09:01:54Z</time>
      </trkpt>
      <trkpt lat="48.60254" lon="1.96329">
        <ele>167.89</ele>
        <time>2018-12-06T09:02:00Z</time>
      </trkpt>
      <trkpt lat="48.60252" lon="1.96328">
        <ele>167.89</ele>
        <time>2018-12-06T09:02:01Z</time>
      </trkpt>
      <trkpt lat="48.60238" lon="1.96322">
        <ele>166.93</ele>
        <time>2018-12-06T09:02:08Z</time>
      </trkpt>
      <trkpt lat="48.60227" lon="1.96313">
        <ele>165.96</ele>
        <time>2018-12-06T09:02:14Z</time>
      </trkpt>
      <trkpt lat="48.60216" lon="1.96303">
        <ele>165.96</ele>
        <time>2018-12-06T09:02:21Z</time>
      </trkpt>
      <trkpt lat="48.60213" lon="1.96298">
        <ele>164.52</ele>
        <time>2018-12-06T09:02:25Z</time>
      </trkpt>
      <trkpt lat="48.60205" lon="1.9629">
        <ele>163.56</ele>
        <time>2018-12-06T09:02:32Z</time>
      </trkpt>
      <trkpt lat="48.60202" lon="1.9628">
        <ele>163.08</ele>
        <time>2018-12-06T09:02:38Z</time>
      </trkpt>
      <trkpt lat="48.60197" lon="1.96273">
        <ele>162.12</ele>
        <time>2018-12-06T09:02:43Z</time>
      </trkpt>
      <trkpt lat="48.60193" lon="1.96268">
        <ele>160.2</ele>
        <time>2018-12-06T09:02:50Z</time>
      </trkpt>
      <trkpt lat="48.60187" lon="1.96259">
        <ele>158.75</ele>
        <time>2018-12-06T09:02:56Z</time>
      </trkpt>
      <trkpt lat="48.60178" lon="1.96248">
        <ele>156.83</ele>
        <time>2018-12-06T09:03:03Z</time>
      </trkpt>
      <trkpt lat="48.60172" lon="1.96234">
        <ele>157.79</ele>
        <time>2018-12-06T09:03:08Z</time>
      </trkpt>
      <trkpt lat="48.60172" lon="1.96232">
        <ele>157.79</ele>
        <time>2018-12-06T09:03:09Z</time>
      </trkpt>
      <trkpt lat="48.60165" lon="1.96233">
        <ele>158.75</ele>
        <time>2018-12-06T09:03:16Z</time>
      </trkpt>
      <trkpt lat="48.60162" lon="1.96236">
        <ele>159.24</ele>
        <time>2018-12-06T09:03:20Z</time>
      </trkpt>
      <trkpt lat="48.60158" lon="1.9624">
        <ele>160.68</ele>
        <time>2018-12-06T09:03:27Z</time>
      </trkpt>
      <trkpt lat="48.60155" lon="1.96244">
        <ele>161.64</ele>
        <time>2018-12-06T09:03:33Z</time>
      </trkpt>
      <trkpt lat="48.60156" lon="1.96252">
        <ele>162.6</ele>
        <time>2018-12-06T09:03:40Z</time>
      </trkpt>
      <trkpt lat="48.60158" lon="1.96259">
        <ele>163.56</ele>
        <time>2018-12-06T09:03:45Z</time>
      </trkpt>
      <trkpt lat="48.60159" lon="1.96266">
        <ele>163.56</ele>
        <time>2018-12-06T09:03:48Z</time>
      </trkpt>
      <trkpt lat="48.60164" lon="1.96286">
        <ele>165</ele>
        <time>2018-12-06T09:03:55Z</time>
      </trkpt>
      <trkpt lat="48.60165" lon="1.96298">
        <ele>165.48</ele>
        <time>2018-12-06T09:04:00Z</time>
      </trkpt>
      <trkpt lat="48.60168" lon="1.96313">
        <ele>166.45</ele>
        <time>2018-12-06T09:04:07Z</time>
      </trkpt>
      <trkpt lat="48.60169" lon="1.96324">
        <ele>166.93</ele>
        <time>2018-12-06T09:04:12Z</time>
      </trkpt>
      <trkpt lat="48.60173" lon="1.9634">
        <ele>166.93</ele>
        <time>2018-12-06T09:04:19Z</time>
      </trkpt>
      <trkpt lat="48.60174" lon="1.96345">
        <ele>166.93</ele>
        <time>2018-12-06T09:04:22Z</time>
      </trkpt>
      <trkpt lat="48.60176" lon="1.96355">
        <ele>166.45</ele>
        <time>2018-12-06T09:04:26Z</time>
      </trkpt>
      <trkpt lat="48.60181" lon="1.96381">
        <ele>166.45</ele>
        <time>2018-12-06T09:04:34Z</time>
      </trkpt>
      <trkpt lat="48.60188" lon="1.964">
        <ele>165.96</ele>
        <time>2018-12-06T09:04:40Z</time>
      </trkpt>
      <trkpt lat="48.60191" lon="1.96413">
        <ele>165.48</ele>
        <time>2018-12-06T09:04:46Z</time>
      </trkpt>
      <trkpt lat="48.60196" lon="1.96429">
        <ele>165</ele>
        <time>2018-12-06T09:04:52Z</time>
      </trkpt>
      <trkpt lat="48.60197" lon="1.96436">
        <ele>164.52</ele>
        <time>2018-12-06T09:04:56Z</time>
      </trkpt>
      <trkpt lat="48.60198" lon="1.96448">
        <ele>164.04</ele>
        <time>2018-12-06T09:05:03Z</time>
      </trkpt>
      <trkpt lat="48.60199" lon="1.96453">
        <ele>163.56</ele>
        <time>2018-12-06T09:05:06Z</time>
      </trkpt>
      <trkpt lat="48.602" lon="1.96459">
        <ele>163.56</ele>
        <time>2018-12-06T09:05:09Z</time>
      </trkpt>
      <trkpt lat="48.60205" lon="1.96477">
        <ele>163.08</ele>
        <time>2018-12-06T09:05:16Z</time>
      </trkpt>
      <trkpt lat="48.60208" lon="1.9649">
        <ele>162.6</ele>
        <time>2018-12-06T09:05:22Z</time>
      </trkpt>
      <trkpt lat="48.60208" lon="1.965">
        <ele>162.6</ele>
        <time>2018-12-06T09:05:26Z</time>
      </trkpt>
      <trkpt lat="48.60208" lon="1.96506">
        <ele>162.6</ele>
        <time>2018-12-06T09:05:28Z</time>
      </trkpt>
      <trkpt lat="48.60207" lon="1.96527">
        <ele>162.12</ele>
        <time>2018-12-06T09:05:34Z</time>
      </trkpt>
      <trkpt lat="48.60209" lon="1.96536">
        <ele>161.64</ele>
        <time>2018-12-06T09:05:38Z</time>
      </trkpt>
      <trkpt lat="48.60209" lon="1.96539">
        <ele>161.64</ele>
        <time>2018-12-06T09:05:41Z</time>
      </trkpt>
      <trkpt lat="48.60209" lon="1.96548">
        <ele>161.16</ele>
        <time>2018-12-06T09:05:44Z</time>
      </trkpt>
      <trkpt lat="48.60209" lon="1.96556">
        <ele>160.68</ele>
        <time>2018-12-06T09:05:48Z</time>
      </trkpt>
      <trkpt lat="48.60209" lon="1.96569">
        <ele>160.2</ele>
        <time>2018-12-06T09:05:55Z</time>
      </trkpt>
      <trkpt lat="48.60209" lon="1.96572">
        <ele>159.72</ele>
        <time>2018-12-06T09:05:57Z</time>
      </trkpt>
      <trkpt lat="48.6021" lon="1.96584">
        <ele>159.72</ele>
        <time>2018-12-06T09:06:00Z</time>
      </trkpt>
      <trkpt lat="48.6021" lon="1.96596">
        <ele>159.72</ele>
        <time>2018-12-06T09:06:03Z</time>
      </trkpt>
      <trkpt lat="48.60208" lon="1.96607">
        <ele>159.72</ele>
        <time>2018-12-06T09:06:07Z</time>
      </trkpt>
      <trkpt lat="48.60207" lon="1.96616">
        <ele>159.24</ele>
        <time>2018-12-06T09:06:12Z</time>
      </trkpt>
      <trkpt lat="48.60205" lon="1.96624">
        <ele>158.75</ele>
        <time>2018-12-06T09:06:17Z</time>
      </trkpt>
      <trkpt lat="48.60203" lon="1.96632">
        <ele>158.27</ele>
        <time>2018-12-06T09:06:24Z</time>
      </trkpt>
      <trkpt lat="48.60202" lon="1.96652">
        <ele>158.27</ele>
        <time>2018-12-06T09:06:30Z</time>
      </trkpt>
      <trkpt lat="48.60201" lon="1.96664">
        <ele>158.27</ele>
        <time>2018-12-06T09:06:34Z</time>
      </trkpt>
      <trkpt lat="48.60201" lon="1.96668">
        <ele>157.79</ele>
        <time>2018-12-06T09:06:36Z</time>
      </trkpt>
      <trkpt lat="48.60201" lon="1.96686">
        <ele>157.79</ele>
        <time>2018-12-06T09:06:43Z</time>
      </trkpt>
      <trkpt lat="48.60203" lon="1.96699">
        <ele>157.31</ele>
        <time>2018-12-06T09:06:50Z</time>
      </trkpt>
      <trkpt lat="48.60204" lon="1.96708">
        <ele>157.31</ele>
        <time>2018-12-06T09:06:54Z</time>
      </trkpt>
      <trkpt lat="48.60205" lon="1.96714">
        <ele>157.31</ele>
        <time>2018-12-06T09:06:56Z</time>
      </trkpt>
      <trkpt lat="48.60208" lon="1.96726">
        <ele>157.31</ele>
        <time>2018-12-06T09:07:00Z</time>
      </trkpt>
      <trkpt lat="48.60208" lon="1.96738">
        <ele>156.83</ele>
        <time>2018-12-06T09:07:07Z</time>
      </trkpt>
      <trkpt lat="48.60211" lon="1.96751">
        <ele>156.35</ele>
        <time>2018-12-06T09:07:12Z</time>
      </trkpt>
      <trkpt lat="48.60214" lon="1.96764">
        <ele>155.87</ele>
        <time>2018-12-06T09:07:16Z</time>
      </trkpt>
      <trkpt lat="48.6022" lon="1.96785">
        <ele>155.39</ele>
        <time>2018-12-06T09:07:23Z</time>
      </trkpt>
      <trkpt lat="48.60225" lon="1.96802">
        <ele>154.43</ele>
        <time>2018-12-06T09:07:31Z</time>
      </trkpt>
      <trkpt lat="48.60228" lon="1.96823">
        <ele>153.95</ele>
        <time>2018-12-06T09:07:39Z</time>
      </trkpt>
      <trkpt lat="48.6023" lon="1.96831">
        <ele>153.47</ele>
        <time>2018-12-06T09:07:44Z</time>
      </trkpt>
      <trkpt lat="48.60235" lon="1.96843">
        <ele>152.99</ele>
        <time>2018-12-06T09:07:51Z</time>
      </trkpt>
      <trkpt lat="48.6024" lon="1.96854">
        <ele>152.99</ele>
        <time>2018-12-06T09:07:55Z</time>
      </trkpt>
      <trkpt lat="48.60245" lon="1.96868">
        <ele>152.51</ele>
        <time>2018-12-06T09:07:59Z</time>
      </trkpt>
      <trkpt lat="48.60248" lon="1.96884">
        <ele>152.03</ele>
        <time>2018-12-06T09:08:06Z</time>
      </trkpt>
      <trkpt lat="48.6025" lon="1.96887">
        <ele>152.51</ele>
        <time>2018-12-06T09:08:08Z</time>
      </trkpt>
      <trkpt lat="48.60256" lon="1.96905">
        <ele>151.54</ele>
        <time>2018-12-06T09:08:14Z</time>
      </trkpt>
      <trkpt lat="48.60258" lon="1.96909">
        <ele>151.54</ele>
        <time>2018-12-06T09:08:15Z</time>
      </trkpt>
      <trkpt lat="48.60261" lon="1.96916">
        <ele>151.54</ele>
        <time>2018-12-06T09:08:18Z</time>
      </trkpt>
      <trkpt lat="48.60265" lon="1.96927">
        <ele>151.06</ele>
        <time>2018-12-06T09:08:25Z</time>
      </trkpt>
      <trkpt lat="48.6027" lon="1.96936">
        <ele>150.58</ele>
        <time>2018-12-06T09:08:31Z</time>
      </trkpt>
      <trkpt lat="48.60275" lon="1.9695">
        <ele>150.1</ele>
        <time>2018-12-06T09:08:37Z</time>
      </trkpt>
      <trkpt lat="48.60279" lon="1.96973">
        <ele>150.1</ele>
        <time>2018-12-06T09:08:44Z</time>
      </trkpt>
      <trkpt lat="48.60282" lon="1.96984">
        <ele>150.1</ele>
        <time>2018-12-06T09:08:50Z</time>
      </trkpt>
      <trkpt lat="48.60285" lon="1.96997">
        <ele>150.1</ele>
        <time>2018-12-06T09:08:56Z</time>
      </trkpt>
      <trkpt lat="48.60285" lon="1.97003">
        <ele>150.1</ele>
        <time>2018-12-06T09:08:58Z</time>
      </trkpt>
      <trkpt lat="48.60286" lon="1.97008">
        <ele>150.58</ele>
        <time>2018-12-06T09:09:00Z</time>
      </trkpt>
      <trkpt lat="48.60284" lon="1.9702">
        <ele>151.06</ele>
        <time>2018-12-06T09:09:06Z</time>
      </trkpt>
      <trkpt lat="48.6028" lon="1.97031">
        <ele>152.03</ele>
        <time>2018-12-06T09:09:12Z</time>
      </trkpt>
      <trkpt lat="48.60278" lon="1.97047">
        <ele>152.51</ele>
        <time>2018-12-06T09:09:18Z</time>
      </trkpt>
      <trkpt lat="48.60277" lon="1.97052">
        <ele>152.51</ele>
        <time>2018-12-06T09:09:20Z</time>
      </trkpt>
      <trkpt lat="48.60271" lon="1.97066">
        <ele>152.99</ele>
        <time>2018-12-06T09:09:26Z</time>
      </trkpt>
      <trkpt lat="48.6027" lon="1.97071">
        <ele>153.47</ele>
        <time>2018-12-06T09:09:28Z</time>
      </trkpt>
      <trkpt lat="48.6026" lon="1.97081">
        <ele>153.95</ele>
        <time>2018-12-06T09:09:34Z</time>
      </trkpt>
      <trkpt lat="48.60249" lon="1.97088">
        <ele>154.43</ele>
        <time>2018-12-06T09:09:38Z</time>
      </trkpt>
      <trkpt lat="48.60249" lon="1.97092">
        <ele>154.91</ele>
        <time>2018-12-06T09:09:43Z</time>
      </trkpt>
      <trkpt lat="48.60247" lon="1.97097">
        <ele>155.87</ele>
        <time>2018-12-06T09:09:50Z</time>
      </trkpt>
      <trkpt lat="48.60246" lon="1.971">
        <ele>156.35</ele>
        <time>2018-12-06T09:09:56Z</time>
      </trkpt>
      <trkpt lat="48.60244" lon="1.971">
        <ele>156.83</ele>
        <time>2018-12-06T09:10:02Z</time>
      </trkpt>
      <trkpt lat="48.60243" lon="1.97097">
        <ele>157.79</ele>
        <time>2018-12-06T09:10:08Z</time>
      </trkpt>
      <trkpt lat="48.6024" lon="1.97091">
        <ele>158.75</ele>
        <time>2018-12-06T09:10:13Z</time>
      </trkpt>
      <trkpt lat="48.60236" lon="1.97086">
        <ele>159.24</ele>
        <time>2018-12-06T09:10:19Z</time>
      </trkpt>
      <trkpt lat="48.60234" lon="1.97083">
        <ele>160.2</ele>
        <time>2018-12-06T09:10:24Z</time>
      </trkpt>
      <trkpt lat="48.60229" lon="1.97083">
        <ele>160.68</ele>
        <time>2018-12-06T09:10:29Z</time>
      </trkpt>
      <trkpt lat="48.60224" lon="1.97085">
        <ele>161.16</ele>
        <time>2018-12-06T09:10:35Z</time>
      </trkpt>
      <trkpt lat="48.60218" lon="1.97085">
        <ele>162.12</ele>
        <time>2018-12-06T09:10:40Z</time>
      </trkpt>
      <trkpt lat="48.60211" lon="1.97082">
        <ele>163.08</ele>
        <time>2018-12-06T09:10:46Z</time>
      </trkpt>
      <trkpt lat="48.60205" lon="1.97081">
        <ele>164.52</ele>
        <time>2018-12-06T09:10:53Z</time>
      </trkpt>
      <trkpt lat="48.602" lon="1.97081">
        <ele>165.48</ele>
        <time>2018-12-06T09:10:58Z</time>
      </trkpt>
      <trkpt lat="48.60196" lon="1.97082">
        <ele>166.45</ele>
        <time>2018-12-06T09:11:04Z</time>
      </trkpt>
      <trkpt lat="48.60192" lon="1.97082">
        <ele>166.45</ele>
        <time>2018-12-06T09:11:06Z</time>
      </trkpt>
      <trkpt lat="48.60186" lon="1.97084">
        <ele>167.41</ele>
        <time>2018-12-06T09:11:09Z</time>
      </trkpt>
      <trkpt lat="48.60175" lon="1.97084">
        <ele>168.37</ele>
        <time>2018-12-06T09:11:16Z</time>
      </trkpt>
      <trkpt lat="48.60161" lon="1.97084">
        <ele>168.85</ele>
        <time>2018-12-06T09:11:23Z</time>
      </trkpt>
      <trkpt lat="48.60147" lon="1.97084">
        <ele>169.33</ele>
        <time>2018-12-06T09:11:30Z</time>
      </trkpt>
      <trkpt lat="48.60119" lon="1.97074">
        <ele>169.33</ele>
        <time>2018-12-06T09:11:36Z</time>
      </trkpt>
      <trkpt lat="48.60107" lon="1.9708">
        <ele>169.81</ele>
        <time>2018-12-06T09:11:42Z</time>
      </trkpt>
      <trkpt lat="48.60096" lon="1.97085">
        <ele>169.81</ele>
        <time>2018-12-06T09:11:48Z</time>
      </trkpt>
      <trkpt lat="48.60086" lon="1.97092">
        <ele>170.29</ele>
        <time>2018-12-06T09:11:53Z</time>
      </trkpt>
      <trkpt lat="48.60082" lon="1.97097">
        <ele>170.29</ele>
        <time>2018-12-06T09:11:59Z</time>
      </trkpt>
      <trkpt lat="48.60079" lon="1.97105">
        <ele>170.77</ele>
        <time>2018-12-06T09:12:05Z</time>
      </trkpt>
      <trkpt lat="48.60076" lon="1.97111">
        <ele>170.77</ele>
        <time>2018-12-06T09:12:10Z</time>
      </trkpt>
      <trkpt lat="48.6007" lon="1.97121">
        <ele>171.25</ele>
        <time>2018-12-06T09:12:17Z</time>
      </trkpt>
      <trkpt lat="48.60064" lon="1.97126">
        <ele>171.25</ele>
        <time>2018-12-06T09:12:23Z</time>
      </trkpt>
      <trkpt lat="48.60056" lon="1.97127">
        <ele>171.25</ele>
        <time>2018-12-06T09:12:31Z</time>
      </trkpt>
      <trkpt lat="48.6005" lon="1.97132">
        <ele>171.25</ele>
        <time>2018-12-06T09:12:37Z</time>
      </trkpt>
      <trkpt lat="48.60033" lon="1.97132">
        <ele>171.73</ele>
        <time>2018-12-06T09:12:43Z</time>
      </trkpt>
      <trkpt lat="48.60005" lon="1.97132">
        <ele>171.73</ele>
        <time>2018-12-06T09:12:54Z</time>
      </trkpt>
      <trkpt lat="48.59977" lon="1.97132">
        <ele>172.21</ele>
        <time>2018-12-06T09:13:08Z</time>
      </trkpt>
      <trkpt lat="48.59968" lon="1.9713">
        <ele>172.21</ele>
        <time>2018-12-06T09:13:21Z</time>
      </trkpt>
      <trkpt lat="48.59967" lon="1.9713">
        <ele>172.21</ele>
        <time>2018-12-06T09:13:27Z</time>
      </trkpt>
      <trkpt lat="48.59965" lon="1.97129">
        <ele>172.21</ele>
        <time>2018-12-06T09:13:39Z</time>
      </trkpt>
      <trkpt lat="48.59964" lon="1.97129">
        <ele>172.21</ele>
        <time>2018-12-06T09:13:49Z</time>
      </trkpt>
      <trkpt lat="48.59963" lon="1.97129">
        <ele>171.73</ele>
        <time>2018-12-06T09:14:02Z</time>
      </trkpt>
      <trkpt lat="48.59963" lon="1.97129">
        <ele>172.21</ele>
        <time>2018-12-06T09:14:15Z</time>
      </trkpt>
      <trkpt lat="48.59963" lon="1.97132">
        <ele>172.21</ele>
        <time>2018-12-06T09:14:27Z</time>
      </trkpt>
      <trkpt lat="48.59963" lon="1.97133">
        <ele>171.73</ele>
        <time>2018-12-06T09:14:34Z</time>
      </trkpt>
      <trkpt lat="48.59963" lon="1.97134">
        <ele>171.73</ele>
        <time>2018-12-06T09:14:44Z</time>
      </trkpt>
      <trkpt lat="48.59963" lon="1.97135">
        <ele>171.73</ele>
        <time>2018-12-06T09:14:51Z</time>
      </trkpt>
      <trkpt lat="48.59963" lon="1.97135">
        <ele>171.73</ele>
        <time>2018-12-06T09:14:54Z</time>
      </trkpt>
      <trkpt lat="48.59962" lon="1.97136">
        <ele>171.73</ele>
        <time>2018-12-06T09:15:02Z</time>
      </trkpt>
      <trkpt lat="48.59962" lon="1.97137">
        <ele>172.21</ele>
        <time>2018-12-06T09:15:04Z</time>
      </trkpt>
      <trkpt lat="48.59963" lon="1.97139">
        <ele>171.25</ele>
        <time>2018-12-06T09:15:10Z</time>
      </trkpt>
      <trkpt lat="48.59964" lon="1.97139">
        <ele>171.25</ele>
        <time>2018-12-06T09:15:20Z</time>
      </trkpt>
      <trkpt lat="48.59964" lon="1.9714">
        <ele>170.77</ele>
        <time>2018-12-06T09:15:33Z</time>
      </trkpt>
      <trkpt lat="48.59964" lon="1.9714">
        <ele>170.77</ele>
        <time>2018-12-06T09:15:47Z</time>
      </trkpt>
      <trkpt lat="48.59964" lon="1.97141">
        <ele>170.77</ele>
        <time>2018-12-06T09:15:59Z</time>
      </trkpt>
      <trkpt lat="48.59965" lon="1.97142">
        <ele>170.77</ele>
        <time>2018-12-06T09:16:10Z</time>
      </trkpt>
      <trkpt lat="48.59965" lon="1.97142">
        <ele>170.77</ele>
        <time>2018-12-06T09:16:23Z</time>
      </trkpt>
      <trkpt lat="48.59965" lon="1.97142">
        <ele>170.29</ele>
        <time>2018-12-06T09:16:32Z</time>
      </trkpt>
      <trkpt lat="48.59966" lon="1.97143">
        <ele>170.29</ele>
        <time>2018-12-06T09:16:47Z</time>
      </trkpt>
      <trkpt lat="48.59967" lon="1.97143">
        <ele>170.29</ele>
        <time>2018-12-06T09:17:02Z</time>
      </trkpt>
      <trkpt lat="48.59965" lon="1.97143">
        <ele>170.29</ele>
        <time>2018-12-06T09:17:13Z</time>
      </trkpt>
      <trkpt lat="48.59965" lon="1.97142">
        <ele>170.77</ele>
        <time>2018-12-06T09:17:14Z</time>
      </trkpt>
      <trkpt lat="48.59963" lon="1.97145">
        <ele>169.81</ele>
        <time>2018-12-06T09:17:16Z</time>
      </trkpt>
      <trkpt lat="48.59953" lon="1.97146">
        <ele>169.33</ele>
        <time>2018-12-06T09:17:23Z</time>
      </trkpt>
      <trkpt lat="48.59952" lon="1.97145">
        <ele>168.85</ele>
        <time>2018-12-06T09:17:25Z</time>
      </trkpt>
      <trkpt lat="48.59941" lon="1.9715">
        <ele>167.89</ele>
        <time>2018-12-06T09:17:34Z</time>
      </trkpt>
      <trkpt lat="48.59932" lon="1.97153">
        <ele>166.93</ele>
        <time>2018-12-06T09:17:40Z</time>
      </trkpt>
      <trkpt lat="48.59924" lon="1.97156">
        <ele>166.45</ele>
        <time>2018-12-06T09:17:45Z</time>
      </trkpt>
      <trkpt lat="48.59909" lon="1.97161">
        <ele>165.48</ele>
        <time>2018-12-06T09:17:53Z</time>
      </trkpt>
      <trkpt lat="48.59898" lon="1.97166">
        <ele>165</ele>
        <time>2018-12-06T09:18:00Z</time>
      </trkpt>
      <trkpt lat="48.59886" lon="1.9717">
        <ele>165</ele>
        <time>2018-12-06T09:18:06Z</time>
      </trkpt>
      <trkpt lat="48.59874" lon="1.97177">
        <ele>164.52</ele>
        <time>2018-12-06T09:18:12Z</time>
      </trkpt>
      <trkpt lat="48.59871" lon="1.97178">
        <ele>164.04</ele>
        <time>2018-12-06T09:18:14Z</time>
      </trkpt>
      <trkpt lat="48.59866" lon="1.97179">
        <ele>164.04</ele>
        <time>2018-12-06T09:18:18Z</time>
      </trkpt>
      <trkpt lat="48.59858" lon="1.9718">
        <ele>164.52</ele>
        <time>2018-12-06T09:18:23Z</time>
      </trkpt>
      <trkpt lat="48.5985" lon="1.9718">
        <ele>163.08</ele>
        <time>2018-12-06T09:18:28Z</time>
      </trkpt>
      <trkpt lat="48.59842" lon="1.97186">
        <ele>163.08</ele>
        <time>2018-12-06T09:18:35Z</time>
      </trkpt>
      <trkpt lat="48.59836" lon="1.97191">
        <ele>163.08</ele>
        <time>2018-12-06T09:18:44Z</time>
      </trkpt>
      <trkpt lat="48.59827" lon="1.97197">
        <ele>162.6</ele>
        <time>2018-12-06T09:18:51Z</time>
      </trkpt>
      <trkpt lat="48.5982" lon="1.972">
        <ele>162.6</ele>
        <time>2018-12-06T09:18:57Z</time>
      </trkpt>
      <trkpt lat="48.59813" lon="1.97203">
        <ele>162.6</ele>
        <time>2018-12-06T09:19:01Z</time>
      </trkpt>
      <trkpt lat="48.59804" lon="1.97207">
        <ele>162.12</ele>
        <time>2018-12-06T09:19:05Z</time>
      </trkpt>
      <trkpt lat="48.59796" lon="1.9721">
        <ele>162.12</ele>
        <time>2018-12-06T09:19:09Z</time>
      </trkpt>
      <trkpt lat="48.59779" lon="1.97216">
        <ele>163.08</ele>
        <time>2018-12-06T09:19:18Z</time>
      </trkpt>
      <trkpt lat="48.59767" lon="1.9722">
        <ele>163.08</ele>
        <time>2018-12-06T09:19:23Z</time>
      </trkpt>
      <trkpt lat="48.59758" lon="1.97223">
        <ele>162.6</ele>
        <time>2018-12-06T09:19:27Z</time>
      </trkpt>
      <trkpt lat="48.59751" lon="1.97228">
        <ele>162.6</ele>
        <time>2018-12-06T09:19:32Z</time>
      </trkpt>
      <trkpt lat="48.59743" lon="1.97234">
        <ele>162.12</ele>
        <time>2018-12-06T09:19:37Z</time>
      </trkpt>
      <trkpt lat="48.59735" lon="1.97236">
        <ele>162.12</ele>
        <time>2018-12-06T09:19:42Z</time>
      </trkpt>
      <trkpt lat="48.59726" lon="1.97238">
        <ele>161.64</ele>
        <time>2018-12-06T09:19:50Z</time>
      </trkpt>
      <trkpt lat="48.59717" lon="1.97241">
        <ele>161.16</ele>
        <time>2018-12-06T09:19:58Z</time>
      </trkpt>
      <trkpt lat="48.59709" lon="1.97245">
        <ele>159.72</ele>
        <time>2018-12-06T09:20:08Z</time>
      </trkpt>
      <trkpt lat="48.59701" lon="1.97249">
        <ele>159.24</ele>
        <time>2018-12-06T09:20:15Z</time>
      </trkpt>
      <trkpt lat="48.59695" lon="1.97252">
        <ele>160.2</ele>
        <time>2018-12-06T09:20:24Z</time>
      </trkpt>
      <trkpt lat="48.59684" lon="1.97258">
        <ele>159.72</ele>
        <time>2018-12-06T09:20:31Z</time>
      </trkpt>
      <trkpt lat="48.59673" lon="1.97263">
        <ele>160.68</ele>
        <time>2018-12-06T09:20:38Z</time>
      </trkpt>
      <trkpt lat="48.59659" lon="1.97277">
        <ele>160.68</ele>
        <time>2018-12-06T09:20:47Z</time>
      </trkpt>
      <trkpt lat="48.59646" lon="1.97285">
        <ele>161.64</ele>
        <time>2018-12-06T09:20:55Z</time>
      </trkpt>
      <trkpt lat="48.59644" lon="1.97286">
        <ele>161.64</ele>
        <time>2018-12-06T09:20:56Z</time>
      </trkpt>
      <trkpt lat="48.59629" lon="1.97295">
        <ele>162.6</ele>
        <time>2018-12-06T09:21:02Z</time>
      </trkpt>
      <trkpt lat="48.59622" lon="1.973">
        <ele>163.08</ele>
        <time>2018-12-06T09:21:08Z</time>
      </trkpt>
      <trkpt lat="48.5961" lon="1.97308">
        <ele>163.56</ele>
        <time>2018-12-06T09:21:14Z</time>
      </trkpt>
      <trkpt lat="48.59609" lon="1.97309">
        <ele>163.56</ele>
        <time>2018-12-06T09:21:15Z</time>
      </trkpt>
      <trkpt lat="48.596" lon="1.97316">
        <ele>164.04</ele>
        <time>2018-12-06T09:21:23Z</time>
      </trkpt>
      <trkpt lat="48.59592" lon="1.97319">
        <ele>164.52</ele>
        <time>2018-12-06T09:21:32Z</time>
      </trkpt>
      <trkpt lat="48.59583" lon="1.97322">
        <ele>165</ele>
        <time>2018-12-06T09:21:36Z</time>
      </trkpt>
      <trkpt lat="48.59579" lon="1.97324">
        <ele>165</ele>
        <time>2018-12-06T09:21:38Z</time>
      </trkpt>
      <trkpt lat="48.59563" lon="1.97329">
        <ele>164.52</ele>
        <time>2018-12-06T09:21:47Z</time>
      </trkpt>
      <trkpt lat="48.59554" lon="1.97333">
        <ele>164.04</ele>
        <time>2018-12-06T09:21:54Z</time>
      </trkpt>
      <trkpt lat="48.59549" lon="1.97339">
        <ele>163.56</ele>
        <time>2018-12-06T09:22:00Z</time>
      </trkpt>
      <trkpt lat="48.59541" lon="1.97346">
        <ele>164.04</ele>
        <time>2018-12-06T09:22:07Z</time>
      </trkpt>
      <trkpt lat="48.59531" lon="1.97354">
        <ele>163.56</ele>
        <time>2018-12-06T09:22:13Z</time>
      </trkpt>
      <trkpt lat="48.59528" lon="1.97357">
        <ele>164.04</ele>
        <time>2018-12-06T09:22:15Z</time>
      </trkpt>
      <trkpt lat="48.59521" lon="1.97364">
        <ele>164.04</ele>
        <time>2018-12-06T09:22:19Z</time>
      </trkpt>
      <trkpt lat="48.59507" lon="1.97373">
        <ele>165</ele>
        <time>2018-12-06T09:22:26Z</time>
      </trkpt>
      <trkpt lat="48.59504" lon="1.97383">
        <ele>165.96</ele>
        <time>2018-12-06T09:22:33Z</time>
      </trkpt>
      <trkpt lat="48.59496" lon="1.97396">
        <ele>165.48</ele>
        <time>2018-12-06T09:22:40Z</time>
      </trkpt>
      <trkpt lat="48.5949" lon="1.97404">
        <ele>165.48</ele>
        <time>2018-12-06T09:22:44Z</time>
      </trkpt>
      <trkpt lat="48.59485" lon="1.97412">
        <ele>165</ele>
        <time>2018-12-06T09:22:51Z</time>
      </trkpt>
      <trkpt lat="48.59485" lon="1.97414">
        <ele>165</ele>
        <time>2018-12-06T09:22:52Z</time>
      </trkpt>
      <trkpt lat="48.59485" lon="1.9742">
        <ele>165</ele>
        <time>2018-12-06T09:22:55Z</time>
      </trkpt>
      <trkpt lat="48.59497" lon="1.9743">
        <ele>165</ele>
        <time>2018-12-06T09:23:02Z</time>
      </trkpt>
      <trkpt lat="48.59505" lon="1.97434">
        <ele>165</ele>
        <time>2018-12-06T09:23:06Z</time>
      </trkpt>
      <trkpt lat="48.59513" lon="1.97449">
        <ele>164.04</ele>
        <time>2018-12-06T09:23:14Z</time>
      </trkpt>
      <trkpt lat="48.59522" lon="1.9746">
        <ele>162.12</ele>
        <time>2018-12-06T09:23:20Z</time>
      </trkpt>
      <trkpt lat="48.59525" lon="1.97462">
        <ele>161.64</ele>
        <time>2018-12-06T09:23:22Z</time>
      </trkpt>
      <trkpt lat="48.59532" lon="1.97465">
        <ele>161.16</ele>
        <time>2018-12-06T09:23:27Z</time>
      </trkpt>
      <trkpt lat="48.5954" lon="1.97471">
        <ele>159.72</ele>
        <time>2018-12-06T09:23:33Z</time>
      </trkpt>
      <trkpt lat="48.59541" lon="1.97472">
        <ele>159.24</ele>
        <time>2018-12-06T09:23:34Z</time>
      </trkpt>
      <trkpt lat="48.59545" lon="1.97474">
        <ele>158.75</ele>
        <time>2018-12-06T09:23:38Z</time>
      </trkpt>
      <trkpt lat="48.59552" lon="1.97478">
        <ele>157.31</ele>
        <time>2018-12-06T09:23:46Z</time>
      </trkpt>
      <trkpt lat="48.59558" lon="1.97481">
        <ele>156.83</ele>
        <time>2018-12-06T09:23:52Z</time>
      </trkpt>
      <trkpt lat="48.59563" lon="1.97486">
        <ele>156.35</ele>
        <time>2018-12-06T09:23:56Z</time>
      </trkpt>
      <trkpt lat="48.5958" lon="1.97493">
        <ele>155.39</ele>
        <time>2018-12-06T09:24:03Z</time>
      </trkpt>
      <trkpt lat="48.59595" lon="1.97502">
        <ele>154.91</ele>
        <time>2018-12-06T09:24:09Z</time>
      </trkpt>
      <trkpt lat="48.59599" lon="1.97503">
        <ele>154.91</ele>
        <time>2018-12-06T09:24:11Z</time>
      </trkpt>
      <trkpt lat="48.59609" lon="1.97511">
        <ele>154.43</ele>
        <time>2018-12-06T09:24:18Z</time>
      </trkpt>
      <trkpt lat="48.59611" lon="1.97513">
        <ele>154.43</ele>
        <time>2018-12-06T09:24:20Z</time>
      </trkpt>
      <trkpt lat="48.59617" lon="1.97519">
        <ele>153.95</ele>
        <time>2018-12-06T09:24:25Z</time>
      </trkpt>
      <trkpt lat="48.59629" lon="1.97524">
        <ele>153.95</ele>
        <time>2018-12-06T09:24:33Z</time>
      </trkpt>
      <trkpt lat="48.59639" lon="1.97533">
        <ele>153.47</ele>
        <time>2018-12-06T09:24:41Z</time>
      </trkpt>
      <trkpt lat="48.59645" lon="1.97537">
        <ele>153.47</ele>
        <time>2018-12-06T09:24:45Z</time>
      </trkpt>
      <trkpt lat="48.59659" lon="1.97544">
        <ele>152.99</ele>
        <time>2018-12-06T09:24:54Z</time>
      </trkpt>
      <trkpt lat="48.59667" lon="1.97549">
        <ele>152.51</ele>
        <time>2018-12-06T09:24:59Z</time>
      </trkpt>
      <trkpt lat="48.59677" lon="1.97557">
        <ele>151.54</ele>
        <time>2018-12-06T09:25:06Z</time>
      </trkpt>
      <trkpt lat="48.59679" lon="1.9756">
        <ele>151.06</ele>
        <time>2018-12-06T09:25:08Z</time>
      </trkpt>
      <trkpt lat="48.59687" lon="1.97567">
        <ele>149.62</ele>
        <time>2018-12-06T09:25:15Z</time>
      </trkpt>
      <trkpt lat="48.5969" lon="1.97569">
        <ele>149.14</ele>
        <time>2018-12-06T09:25:17Z</time>
      </trkpt>
      <trkpt lat="48.59703" lon="1.97578">
        <ele>148.18</ele>
        <time>2018-12-06T09:25:25Z</time>
      </trkpt>
      <trkpt lat="48.59712" lon="1.97587">
        <ele>147.7</ele>
        <time>2018-12-06T09:25:33Z</time>
      </trkpt>
      <trkpt lat="48.59718" lon="1.97587">
        <ele>147.22</ele>
        <time>2018-12-06T09:25:41Z</time>
      </trkpt>
      <trkpt lat="48.59722" lon="1.97591">
        <ele>146.26</ele>
        <time>2018-12-06T09:25:45Z</time>
      </trkpt>
      <trkpt lat="48.59726" lon="1.97593">
        <ele>146.26</ele>
        <time>2018-12-06T09:25:47Z</time>
      </trkpt>
      <trkpt lat="48.59737" lon="1.97601">
        <ele>146.26</ele>
        <time>2018-12-06T09:25:53Z</time>
      </trkpt>
      <trkpt lat="48.59754" lon="1.97612">
        <ele>146.26</ele>
        <time>2018-12-06T09:26:00Z</time>
      </trkpt>
      <trkpt lat="48.59767" lon="1.97615">
        <ele>146.26</ele>
        <time>2018-12-06T09:26:05Z</time>
      </trkpt>
      <trkpt lat="48.5978" lon="1.9762">
        <ele>146.74</ele>
        <time>2018-12-06T09:26:12Z</time>
      </trkpt>
      <trkpt lat="48.59783" lon="1.9762">
        <ele>146.74</ele>
        <time>2018-12-06T09:26:13Z</time>
      </trkpt>
      <trkpt lat="48.59789" lon="1.9763">
        <ele>145.78</ele>
        <time>2018-12-06T09:26:18Z</time>
      </trkpt>
      <trkpt lat="48.59794" lon="1.97636">
        <ele>145.3</ele>
        <time>2018-12-06T09:26:22Z</time>
      </trkpt>
      <trkpt lat="48.59805" lon="1.97642">
        <ele>144.34</ele>
        <time>2018-12-06T09:26:30Z</time>
      </trkpt>
      <trkpt lat="48.59814" lon="1.97651">
        <ele>143.37</ele>
        <time>2018-12-06T09:26:35Z</time>
      </trkpt>
      <trkpt lat="48.59828" lon="1.97653">
        <ele>142.89</ele>
        <time>2018-12-06T09:26:41Z</time>
      </trkpt>
      <trkpt lat="48.5984" lon="1.97655">
        <ele>141.93</ele>
        <time>2018-12-06T09:26:48Z</time>
      </trkpt>
      <trkpt lat="48.59853" lon="1.9766">
        <ele>140.97</ele>
        <time>2018-12-06T09:26:57Z</time>
      </trkpt>
      <trkpt lat="48.59855" lon="1.97663">
        <ele>140.49</ele>
        <time>2018-12-06T09:27:01Z</time>
      </trkpt>
      <trkpt lat="48.59859" lon="1.97673">
        <ele>140.49</ele>
        <time>2018-12-06T09:27:08Z</time>
      </trkpt>
      <trkpt lat="48.59866" lon="1.97686">
        <ele>139.53</ele>
        <time>2018-12-06T09:27:14Z</time>
      </trkpt>
      <trkpt lat="48.59878" lon="1.9769">
        <ele>139.53</ele>
        <time>2018-12-06T09:27:22Z</time>
      </trkpt>
      <trkpt lat="48.5988" lon="1.97692">
        <ele>140.01</ele>
        <time>2018-12-06T09:27:24Z</time>
      </trkpt>
      <trkpt lat="48.59883" lon="1.97695">
        <ele>140.01</ele>
        <time>2018-12-06T09:27:27Z</time>
      </trkpt>
      <trkpt lat="48.59895" lon="1.97704">
        <ele>140.01</ele>
        <time>2018-12-06T09:27:37Z</time>
      </trkpt>
      <trkpt lat="48.59904" lon="1.97712">
        <ele>141.45</ele>
        <time>2018-12-06T09:27:45Z</time>
      </trkpt>
      <trkpt lat="48.59912" lon="1.97716">
        <ele>141.93</ele>
        <time>2018-12-06T09:27:53Z</time>
      </trkpt>
      <trkpt lat="48.59925" lon="1.97723">
        <ele>141.93</ele>
        <time>2018-12-06T09:28:01Z</time>
      </trkpt>
      <trkpt lat="48.59935" lon="1.97727">
        <ele>141.93</ele>
        <time>2018-12-06T09:28:08Z</time>
      </trkpt>
      <trkpt lat="48.59943" lon="1.97731">
        <ele>141.93</ele>
        <time>2018-12-06T09:28:14Z</time>
      </trkpt>
      <trkpt lat="48.59956" lon="1.9774">
        <ele>142.41</ele>
        <time>2018-12-06T09:28:22Z</time>
      </trkpt>
      <trkpt lat="48.59957" lon="1.97751">
        <ele>141.93</ele>
        <time>2018-12-06T09:28:30Z</time>
      </trkpt>
      <trkpt lat="48.59956" lon="1.97753">
        <ele>142.41</ele>
        <time>2018-12-06T09:28:32Z</time>
      </trkpt>
      <trkpt lat="48.59955" lon="1.97756">
        <ele>142.41</ele>
        <time>2018-12-06T09:28:34Z</time>
      </trkpt>
      <trkpt lat="48.59952" lon="1.97764">
        <ele>142.41</ele>
        <time>2018-12-06T09:28:38Z</time>
      </trkpt>
      <trkpt lat="48.59948" lon="1.97772">
        <ele>142.41</ele>
        <time>2018-12-06T09:28:44Z</time>
      </trkpt>
      <trkpt lat="48.5994" lon="1.97791">
        <ele>142.89</ele>
        <time>2018-12-06T09:28:52Z</time>
      </trkpt>
      <trkpt lat="48.59936" lon="1.97797">
        <ele>142.89</ele>
        <time>2018-12-06T09:28:56Z</time>
      </trkpt>
      <trkpt lat="48.59936" lon="1.97802">
        <ele>143.37</ele>
        <time>2018-12-06T09:29:02Z</time>
      </trkpt>
      <trkpt lat="48.59935" lon="1.97806">
        <ele>143.85</ele>
        <time>2018-12-06T09:29:04Z</time>
      </trkpt>
      <trkpt lat="48.59932" lon="1.97814">
        <ele>143.85</ele>
        <time>2018-12-06T09:29:08Z</time>
      </trkpt>
      <trkpt lat="48.59923" lon="1.97835">
        <ele>144.34</ele>
        <time>2018-12-06T09:29:16Z</time>
      </trkpt>
      <trkpt lat="48.59919" lon="1.9784">
        <ele>144.82</ele>
        <time>2018-12-06T09:29:22Z</time>
      </trkpt>
      <trkpt lat="48.59917" lon="1.9785">
        <ele>146.26</ele>
        <time>2018-12-06T09:29:30Z</time>
      </trkpt>
      <trkpt lat="48.59913" lon="1.97863">
        <ele>147.7</ele>
        <time>2018-12-06T09:29:38Z</time>
      </trkpt>
      <trkpt lat="48.59904" lon="1.97883">
        <ele>149.62</ele>
        <time>2018-12-06T09:29:47Z</time>
      </trkpt>
      <trkpt lat="48.59897" lon="1.97897">
        <ele>151.54</ele>
        <time>2018-12-06T09:29:54Z</time>
      </trkpt>
      <trkpt lat="48.59894" lon="1.97906">
        <ele>153.47</ele>
        <time>2018-12-06T09:30:02Z</time>
      </trkpt>
      <trkpt lat="48.59889" lon="1.97918">
        <ele>155.39</ele>
        <time>2018-12-06T09:30:11Z</time>
      </trkpt>
      <trkpt lat="48.59885" lon="1.97932">
        <ele>157.79</ele>
        <time>2018-12-06T09:30:18Z</time>
      </trkpt>
      <trkpt lat="48.59882" lon="1.97937">
        <ele>157.79</ele>
        <time>2018-12-06T09:30:20Z</time>
      </trkpt>
      <trkpt lat="48.59875" lon="1.97953">
        <ele>159.72</ele>
        <time>2018-12-06T09:30:28Z</time>
      </trkpt>
      <trkpt lat="48.59874" lon="1.97955">
        <ele>160.2</ele>
        <time>2018-12-06T09:30:30Z</time>
      </trkpt>
      <trkpt lat="48.5987" lon="1.97962">
        <ele>161.16</ele>
        <time>2018-12-06T09:30:34Z</time>
      </trkpt>
      <trkpt lat="48.59866" lon="1.97977">
        <ele>161.64</ele>
        <time>2018-12-06T09:30:41Z</time>
      </trkpt>
      <trkpt lat="48.59866" lon="1.97977">
        <ele>162.12</ele>
        <time>2018-12-06T09:30:44Z</time>
      </trkpt>
      <trkpt lat="48.59862" lon="1.97976">
        <ele>161.16</ele>
        <time>2018-12-06T09:30:51Z</time>
      </trkpt>
      <trkpt lat="48.59858" lon="1.97972">
        <ele>160.2</ele>
        <time>2018-12-06T09:30:57Z</time>
      </trkpt>
      <trkpt lat="48.59852" lon="1.97966">
        <ele>158.27</ele>
        <time>2018-12-06T09:31:05Z</time>
      </trkpt>
      <trkpt lat="48.59848" lon="1.97959">
        <ele>156.35</ele>
        <time>2018-12-06T09:31:12Z</time>
      </trkpt>
      <trkpt lat="48.59846" lon="1.97954">
        <ele>154.91</ele>
        <time>2018-12-06T09:31:18Z</time>
      </trkpt>
      <trkpt lat="48.59841" lon="1.97948">
        <ele>152.99</ele>
        <time>2018-12-06T09:31:26Z</time>
      </trkpt>
      <trkpt lat="48.59839" lon="1.97946">
        <ele>152.51</ele>
        <time>2018-12-06T09:31:27Z</time>
      </trkpt>
      <trkpt lat="48.59826" lon="1.97933">
        <ele>151.54</ele>
        <time>2018-12-06T09:31:34Z</time>
      </trkpt>
      <trkpt lat="48.59814" lon="1.9792">
        <ele>149.62</ele>
        <time>2018-12-06T09:31:41Z</time>
      </trkpt>
      <trkpt lat="48.59808" lon="1.97914">
        <ele>148.66</ele>
        <time>2018-12-06T09:31:46Z</time>
      </trkpt>
      <trkpt lat="48.59799" lon="1.97903">
        <ele>146.26</ele>
        <time>2018-12-06T09:31:53Z</time>
      </trkpt>
      <trkpt lat="48.59791" lon="1.97896">
        <ele>145.3</ele>
        <time>2018-12-06T09:32:01Z</time>
      </trkpt>
      <trkpt lat="48.59787" lon="1.97893">
        <ele>145.3</ele>
        <time>2018-12-06T09:32:11Z</time>
      </trkpt>
      <trkpt lat="48.59785" lon="1.97887">
        <ele>147.22</ele>
        <time>2018-12-06T09:32:19Z</time>
      </trkpt>
      <trkpt lat="48.59783" lon="1.97886">
        <ele>147.22</ele>
        <time>2018-12-06T09:32:27Z</time>
      </trkpt>
      <trkpt lat="48.59779" lon="1.97883">
        <ele>146.74</ele>
        <time>2018-12-06T09:32:31Z</time>
      </trkpt>
      <trkpt lat="48.59765" lon="1.97871">
        <ele>146.74</ele>
        <time>2018-12-06T09:32:37Z</time>
      </trkpt>
      <trkpt lat="48.59737" lon="1.97848">
        <ele>145.78</ele>
        <time>2018-12-06T09:32:45Z</time>
      </trkpt>
      <trkpt lat="48.59725" lon="1.97844">
        <ele>145.3</ele>
        <time>2018-12-06T09:32:51Z</time>
      </trkpt>
      <trkpt lat="48.59719" lon="1.9784">
        <ele>145.3</ele>
        <time>2018-12-06T09:32:57Z</time>
      </trkpt>
      <trkpt lat="48.59718" lon="1.97839">
        <ele>145.78</ele>
        <time>2018-12-06T09:32:59Z</time>
      </trkpt>
      <trkpt lat="48.59708" lon="1.9783">
        <ele>146.26</ele>
        <time>2018-12-06T09:33:06Z</time>
      </trkpt>
      <trkpt lat="48.59706" lon="1.97823">
        <ele>147.22</ele>
        <time>2018-12-06T09:33:13Z</time>
      </trkpt>
      <trkpt lat="48.59707" lon="1.97822">
        <ele>147.22</ele>
        <time>2018-12-06T09:33:14Z</time>
      </trkpt>
      <trkpt lat="48.59702" lon="1.97798">
        <ele>145.78</ele>
        <time>2018-12-06T09:33:23Z</time>
      </trkpt>
      <trkpt lat="48.59696" lon="1.97787">
        <ele>145.78</ele>
        <time>2018-12-06T09:33:31Z</time>
      </trkpt>
      <trkpt lat="48.59692" lon="1.97785">
        <ele>147.7</ele>
        <time>2018-12-06T09:33:40Z</time>
      </trkpt>
      <trkpt lat="48.59691" lon="1.97784">
        <ele>147.7</ele>
        <time>2018-12-06T09:33:41Z</time>
      </trkpt>
      <trkpt lat="48.59678" lon="1.97772">
        <ele>149.14</ele>
        <time>2018-12-06T09:33:48Z</time>
      </trkpt>
      <trkpt lat="48.59672" lon="1.97767">
        <ele>150.58</ele>
        <time>2018-12-06T09:33:54Z</time>
      </trkpt>
      <trkpt lat="48.59662" lon="1.97756">
        <ele>152.99</ele>
        <time>2018-12-06T09:34:02Z</time>
      </trkpt>
      <trkpt lat="48.59651" lon="1.97751">
        <ele>153.95</ele>
        <time>2018-12-06T09:34:09Z</time>
      </trkpt>
      <trkpt lat="48.59632" lon="1.97741">
        <ele>154.43</ele>
        <time>2018-12-06T09:34:17Z</time>
      </trkpt>
      <trkpt lat="48.59624" lon="1.97738">
        <ele>155.87</ele>
        <time>2018-12-06T09:34:26Z</time>
      </trkpt>
      <trkpt lat="48.59623" lon="1.97738">
        <ele>155.87</ele>
        <time>2018-12-06T09:34:28Z</time>
      </trkpt>
      <trkpt lat="48.59606" lon="1.97735">
        <ele>157.31</ele>
        <time>2018-12-06T09:34:36Z</time>
      </trkpt>
      <trkpt lat="48.59606" lon="1.97735">
        <ele>157.31</ele>
        <time>2018-12-06T09:34:37Z</time>
      </trkpt>
      <trkpt lat="48.596" lon="1.97732">
        <ele>157.79</ele>
        <time>2018-12-06T09:34:40Z</time>
      </trkpt>
      <trkpt lat="48.5959" lon="1.97728">
        <ele>157.79</ele>
        <time>2018-12-06T09:34:46Z</time>
      </trkpt>
      <trkpt lat="48.5958" lon="1.97724">
        <ele>159.24</ele>
        <time>2018-12-06T09:34:53Z</time>
      </trkpt>
      <trkpt lat="48.59575" lon="1.9772">
        <ele>159.72</ele>
        <time>2018-12-06T09:35:00Z</time>
      </trkpt>
      <trkpt lat="48.59571" lon="1.97719">
        <ele>159.72</ele>
        <time>2018-12-06T09:35:02Z</time>
      </trkpt>
      <trkpt lat="48.59555" lon="1.97711">
        <ele>160.2</ele>
        <time>2018-12-06T09:35:11Z</time>
      </trkpt>
      <trkpt lat="48.59544" lon="1.97706">
        <ele>161.16</ele>
        <time>2018-12-06T09:35:17Z</time>
      </trkpt>
      <trkpt lat="48.5954" lon="1.97704">
        <ele>161.64</ele>
        <time>2018-12-06T09:35:24Z</time>
      </trkpt>
      <trkpt lat="48.59537" lon="1.97702">
        <ele>162.12</ele>
        <time>2018-12-06T09:35:28Z</time>
      </trkpt>
      <trkpt lat="48.5953" lon="1.97697">
        <ele>162.6</ele>
        <time>2018-12-06T09:35:33Z</time>
      </trkpt>
      <trkpt lat="48.59522" lon="1.9769">
        <ele>162.6</ele>
        <time>2018-12-06T09:35:38Z</time>
      </trkpt>
      <trkpt lat="48.59507" lon="1.97678">
        <ele>163.08</ele>
        <time>2018-12-06T09:35:45Z</time>
      </trkpt>
      <trkpt lat="48.59493" lon="1.97673">
        <ele>163.08</ele>
        <time>2018-12-06T09:35:51Z</time>
      </trkpt>
      <trkpt lat="48.59486" lon="1.97668">
        <ele>162.6</ele>
        <time>2018-12-06T09:35:57Z</time>
      </trkpt>
      <trkpt lat="48.5948" lon="1.97661">
        <ele>162.6</ele>
        <time>2018-12-06T09:36:03Z</time>
      </trkpt>
      <trkpt lat="48.59476" lon="1.9766">
        <ele>162.12</ele>
        <time>2018-12-06T09:36:09Z</time>
      </trkpt>
      <trkpt lat="48.59473" lon="1.97658">
        <ele>162.6</ele>
        <time>2018-12-06T09:36:16Z</time>
      </trkpt>
      <trkpt lat="48.59467" lon="1.97655">
        <ele>163.56</ele>
        <time>2018-12-06T09:36:24Z</time>
      </trkpt>
      <trkpt lat="48.59466" lon="1.97654">
        <ele>164.04</ele>
        <time>2018-12-06T09:36:25Z</time>
      </trkpt>
      <trkpt lat="48.59457" lon="1.97649">
        <ele>163.08</ele>
        <time>2018-12-06T09:36:28Z</time>
      </trkpt>
      <trkpt lat="48.59443" lon="1.9764">
        <ele>163.56</ele>
        <time>2018-12-06T09:36:35Z</time>
      </trkpt>
      <trkpt lat="48.59438" lon="1.97642">
        <ele>163.56</ele>
        <time>2018-12-06T09:36:40Z</time>
      </trkpt>
      <trkpt lat="48.59436" lon="1.9765">
        <ele>164.52</ele>
        <time>2018-12-06T09:36:43Z</time>
      </trkpt>
      <trkpt lat="48.59431" lon="1.97671">
        <ele>165</ele>
        <time>2018-12-06T09:36:50Z</time>
      </trkpt>
      <trkpt lat="48.59429" lon="1.97678">
        <ele>166.45</ele>
        <time>2018-12-06T09:36:56Z</time>
      </trkpt>
      <trkpt lat="48.59429" lon="1.97687">
        <ele>167.89</ele>
        <time>2018-12-06T09:37:02Z</time>
      </trkpt>
      <trkpt lat="48.5943" lon="1.97695">
        <ele>168.37</ele>
        <time>2018-12-06T09:37:07Z</time>
      </trkpt>
      <trkpt lat="48.5943" lon="1.97698">
        <ele>168.37</ele>
        <time>2018-12-06T09:37:08Z</time>
      </trkpt>
      <trkpt lat="48.59433" lon="1.97715">
        <ele>169.81</ele>
        <time>2018-12-06T09:37:16Z</time>
      </trkpt>
      <trkpt lat="48.59434" lon="1.97725">
        <ele>170.77</ele>
        <time>2018-12-06T09:37:22Z</time>
      </trkpt>
      <trkpt lat="48.59437" lon="1.97737">
        <ele>171.73</ele>
        <time>2018-12-06T09:37:29Z</time>
      </trkpt>
      <trkpt lat="48.59437" lon="1.97741">
        <ele>172.21</ele>
        <time>2018-12-06T09:37:31Z</time>
      </trkpt>
      <trkpt lat="48.59442" lon="1.97756">
        <ele>172.69</ele>
        <time>2018-12-06T09:37:37Z</time>
      </trkpt>
      <trkpt lat="48.59442" lon="1.97759">
        <ele>172.69</ele>
        <time>2018-12-06T09:37:38Z</time>
      </trkpt>
      <trkpt lat="48.59445" lon="1.97778">
        <ele>173.17</ele>
        <time>2018-12-06T09:37:44Z</time>
      </trkpt>
      <trkpt lat="48.59449" lon="1.97796">
        <ele>173.66</ele>
        <time>2018-12-06T09:37:50Z</time>
      </trkpt>
      <trkpt lat="48.59453" lon="1.97812">
        <ele>173.66</ele>
        <time>2018-12-06T09:37:55Z</time>
      </trkpt>
      <trkpt lat="48.5946" lon="1.97828">
        <ele>173.66</ele>
        <time>2018-12-06T09:38:01Z</time>
      </trkpt>
      <trkpt lat="48.59467" lon="1.9784">
        <ele>173.66</ele>
        <time>2018-12-06T09:38:07Z</time>
      </trkpt>
      <trkpt lat="48.59471" lon="1.97847">
        <ele>173.17</ele>
        <time>2018-12-06T09:38:11Z</time>
      </trkpt>
      <trkpt lat="48.59479" lon="1.97867">
        <ele>173.66</ele>
        <time>2018-12-06T09:38:19Z</time>
      </trkpt>
      <trkpt lat="48.59484" lon="1.97879">
        <ele>174.14</ele>
        <time>2018-12-06T09:38:25Z</time>
      </trkpt>
      <trkpt lat="48.59489" lon="1.97889">
        <ele>173.17</ele>
        <time>2018-12-06T09:38:31Z</time>
      </trkpt>
      <trkpt lat="48.59493" lon="1.979">
        <ele>172.69</ele>
        <time>2018-12-06T09:38:37Z</time>
      </trkpt>
      <trkpt lat="48.59495" lon="1.97917">
        <ele>172.69</ele>
        <time>2018-12-06T09:38:44Z</time>
      </trkpt>
      <trkpt lat="48.59497" lon="1.97924">
        <ele>172.69</ele>
        <time>2018-12-06T09:38:51Z</time>
      </trkpt>
      <trkpt lat="48.59498" lon="1.97927">
        <ele>172.21</ele>
        <time>2018-12-06T09:38:53Z</time>
      </trkpt>
      <trkpt lat="48.59499" lon="1.97936">
        <ele>172.21</ele>
        <time>2018-12-06T09:38:57Z</time>
      </trkpt>
      <trkpt lat="48.59501" lon="1.97955">
        <ele>172.21</ele>
        <time>2018-12-06T09:39:03Z</time>
      </trkpt>
      <trkpt lat="48.59503" lon="1.97961">
        <ele>172.21</ele>
        <time>2018-12-06T09:39:08Z</time>
      </trkpt>
      <trkpt lat="48.59502" lon="1.97965">
        <ele>172.21</ele>
        <time>2018-12-06T09:39:11Z</time>
      </trkpt>
      <trkpt lat="48.59505" lon="1.97974">
        <ele>172.21</ele>
        <time>2018-12-06T09:39:17Z</time>
      </trkpt>
      <trkpt lat="48.59508" lon="1.97981">
        <ele>172.21</ele>
        <time>2018-12-06T09:39:25Z</time>
      </trkpt>
      <trkpt lat="48.59511" lon="1.97982">
        <ele>171.73</ele>
        <time>2018-12-06T09:39:44Z</time>
      </trkpt>
      <trkpt lat="48.59512" lon="1.97982">
        <ele>171.73</ele>
        <time>2018-12-06T09:39:59Z</time>
      </trkpt>
      <trkpt lat="48.59512" lon="1.97982">
        <ele>171.73</ele>
        <time>2018-12-06T09:40:15Z</time>
      </trkpt>
      <trkpt lat="48.59513" lon="1.97981">
        <ele>171.25</ele>
        <time>2018-12-06T09:40:32Z</time>
      </trkpt>
      <trkpt lat="48.59513" lon="1.9798">
        <ele>171.25</ele>
        <time>2018-12-06T09:40:49Z</time>
      </trkpt>
      <trkpt lat="48.59513" lon="1.9798">
        <ele>171.25</ele>
        <time>2018-12-06T09:41:05Z</time>
      </trkpt>
      <trkpt lat="48.59513" lon="1.97981">
        <ele>170.77</ele>
        <time>2018-12-06T09:41:15Z</time>
      </trkpt>
      <trkpt lat="48.59513" lon="1.97981">
        <ele>171.25</ele>
        <time>2018-12-06T09:41:19Z</time>
      </trkpt>
      <trkpt lat="48.59511" lon="1.97975">
        <ele>171.25</ele>
        <time>2018-12-06T09:41:23Z</time>
      </trkpt>
      <trkpt lat="48.59512" lon="1.97968">
        <ele>171.25</ele>
        <time>2018-12-06T09:41:27Z</time>
      </trkpt>
      <trkpt lat="48.59511" lon="1.9795">
        <ele>171.25</ele>
        <time>2018-12-06T09:41:35Z</time>
      </trkpt>
      <trkpt lat="48.5951" lon="1.9794">
        <ele>171.25</ele>
        <time>2018-12-06T09:41:42Z</time>
      </trkpt>
      <trkpt lat="48.59509" lon="1.97932">
        <ele>171.73</ele>
        <time>2018-12-06T09:41:47Z</time>
      </trkpt>
      <trkpt lat="48.59502" lon="1.97909">
        <ele>171.73</ele>
        <time>2018-12-06T09:41:55Z</time>
      </trkpt>
      <trkpt lat="48.595" lon="1.97901">
        <ele>171.73</ele>
        <time>2018-12-06T09:41:57Z</time>
      </trkpt>
      <trkpt lat="48.59494" lon="1.97876">
        <ele>171.73</ele>
        <time>2018-12-06T09:42:06Z</time>
      </trkpt>
      <trkpt lat="48.59488" lon="1.97861">
        <ele>171.73</ele>
        <time>2018-12-06T09:42:14Z</time>
      </trkpt>
      <trkpt lat="48.59483" lon="1.97852">
        <ele>171.73</ele>
        <time>2018-12-06T09:42:23Z</time>
      </trkpt>
      <trkpt lat="48.59482" lon="1.97848">
        <ele>171.73</ele>
        <time>2018-12-06T09:42:27Z</time>
      </trkpt>
      <trkpt lat="48.59478" lon="1.97838">
        <ele>171.73</ele>
        <time>2018-12-06T09:42:31Z</time>
      </trkpt>
      <trkpt lat="48.59474" lon="1.97827">
        <ele>171.73</ele>
        <time>2018-12-06T09:42:36Z</time>
      </trkpt>
      <trkpt lat="48.59468" lon="1.97814">
        <ele>171.73</ele>
        <time>2018-12-06T09:42:43Z</time>
      </trkpt>
      <trkpt lat="48.59468" lon="1.97812">
        <ele>171.73</ele>
        <time>2018-12-06T09:42:44Z</time>
      </trkpt>
      <trkpt lat="48.59462" lon="1.97794">
        <ele>171.25</ele>
        <time>2018-12-06T09:42:51Z</time>
      </trkpt>
      <trkpt lat="48.59462" lon="1.97793">
        <ele>171.25</ele>
        <time>2018-12-06T09:42:52Z</time>
      </trkpt>
      <trkpt lat="48.5946" lon="1.97784">
        <ele>170.77</ele>
        <time>2018-12-06T09:42:59Z</time>
      </trkpt>
      <trkpt lat="48.59458" lon="1.97776">
        <ele>170.77</ele>
        <time>2018-12-06T09:43:03Z</time>
      </trkpt>
      <trkpt lat="48.59453" lon="1.97761">
        <ele>170.29</ele>
        <time>2018-12-06T09:43:08Z</time>
      </trkpt>
      <trkpt lat="48.59452" lon="1.97756">
        <ele>170.29</ele>
        <time>2018-12-06T09:43:12Z</time>
      </trkpt>
      <trkpt lat="48.59452" lon="1.97753">
        <ele>169.81</ele>
        <time>2018-12-06T09:43:14Z</time>
      </trkpt>
      <trkpt lat="48.59449" lon="1.97748">
        <ele>169.81</ele>
        <time>2018-12-06T09:43:18Z</time>
      </trkpt>
      <trkpt lat="48.59448" lon="1.97741">
        <ele>168.85</ele>
        <time>2018-12-06T09:43:25Z</time>
      </trkpt>
      <trkpt lat="48.59447" lon="1.97738">
        <ele>168.85</ele>
        <time>2018-12-06T09:43:32Z</time>
      </trkpt>
      <trkpt lat="48.59445" lon="1.97735">
        <ele>168.37</ele>
        <time>2018-12-06T09:43:37Z</time>
      </trkpt>
      <trkpt lat="48.59445" lon="1.97734">
        <ele>168.37</ele>
        <time>2018-12-06T09:43:47Z</time>
      </trkpt>
      <trkpt lat="48.59444" lon="1.97733">
        <ele>168.37</ele>
        <time>2018-12-06T09:43:57Z</time>
      </trkpt>
      <trkpt lat="48.59444" lon="1.97734">
        <ele>168.37</ele>
        <time>2018-12-06T09:44:07Z</time>
      </trkpt>
      <trkpt lat="48.59444" lon="1.97735">
        <ele>168.37</ele>
        <time>2018-12-06T09:44:08Z</time>
      </trkpt>
      <trkpt lat="48.59446" lon="1.97742">
        <ele>168.85</ele>
        <time>2018-12-06T09:44:13Z</time>
      </trkpt>
      <trkpt lat="48.59447" lon="1.97748">
        <ele>168.85</ele>
        <time>2018-12-06T09:44:17Z</time>
      </trkpt>
      <trkpt lat="48.59447" lon="1.97752">
        <ele>169.33</ele>
        <time>2018-12-06T09:44:19Z</time>
      </trkpt>
      <trkpt lat="48.5945" lon="1.9777">
        <ele>169.81</ele>
        <time>2018-12-06T09:44:25Z</time>
      </trkpt>
      <trkpt lat="48.59451" lon="1.97781">
        <ele>169.81</ele>
        <time>2018-12-06T09:44:30Z</time>
      </trkpt>
      <trkpt lat="48.59451" lon="1.97785">
        <ele>170.29</ele>
        <time>2018-12-06T09:44:36Z</time>
      </trkpt>
      <trkpt lat="48.59452" lon="1.97789">
        <ele>170.29</ele>
        <time>2018-12-06T09:44:38Z</time>
      </trkpt>
      <trkpt lat="48.59455" lon="1.97803">
        <ele>170.29</ele>
        <time>2018-12-06T09:44:43Z</time>
      </trkpt>
      <trkpt lat="48.59457" lon="1.97815">
        <ele>170.29</ele>
        <time>2018-12-06T09:44:51Z</time>
      </trkpt>
      <trkpt lat="48.59462" lon="1.97826">
        <ele>170.29</ele>
        <time>2018-12-06T09:44:58Z</time>
      </trkpt>
      <trkpt lat="48.59464" lon="1.97831">
        <ele>170.29</ele>
        <time>2018-12-06T09:45:00Z</time>
      </trkpt>
      <trkpt lat="48.5947" lon="1.97841">
        <ele>170.29</ele>
        <time>2018-12-06T09:45:04Z</time>
      </trkpt>
      <trkpt lat="48.59476" lon="1.97857">
        <ele>170.29</ele>
        <time>2018-12-06T09:45:11Z</time>
      </trkpt>
      <trkpt lat="48.59476" lon="1.9786">
        <ele>170.29</ele>
        <time>2018-12-06T09:45:12Z</time>
      </trkpt>
      <trkpt lat="48.5948" lon="1.97875">
        <ele>170.29</ele>
        <time>2018-12-06T09:45:18Z</time>
      </trkpt>
      <trkpt lat="48.59487" lon="1.97888">
        <ele>169.81</ele>
        <time>2018-12-06T09:45:25Z</time>
      </trkpt>
      <trkpt lat="48.5949" lon="1.97898">
        <ele>169.81</ele>
        <time>2018-12-06T09:45:32Z</time>
      </trkpt>
      <trkpt lat="48.59496" lon="1.97916">
        <ele>169.33</ele>
        <time>2018-12-06T09:45:40Z</time>
      </trkpt>
      <trkpt lat="48.59502" lon="1.97933">
        <ele>169.33</ele>
        <time>2018-12-06T09:45:45Z</time>
      </trkpt>
      <trkpt lat="48.59503" lon="1.97938">
        <ele>169.33</ele>
        <time>2018-12-06T09:45:47Z</time>
      </trkpt>
      <trkpt lat="48.59505" lon="1.97949">
        <ele>169.33</ele>
        <time>2018-12-06T09:45:51Z</time>
      </trkpt>
      <trkpt lat="48.59503" lon="1.97956">
        <ele>168.85</ele>
        <time>2018-12-06T09:45:55Z</time>
      </trkpt>
      <trkpt lat="48.59503" lon="1.97958">
        <ele>169.33</ele>
        <time>2018-12-06T09:45:57Z</time>
      </trkpt>
      <trkpt lat="48.59503" lon="1.97966">
        <ele>168.85</ele>
        <time>2018-12-06T09:46:02Z</time>
      </trkpt>
      <trkpt lat="48.59503" lon="1.97967">
        <ele>168.85</ele>
        <time>2018-12-06T09:46:04Z</time>
      </trkpt>
      <trkpt lat="48.59503" lon="1.97969">
        <ele>168.85</ele>
        <time>2018-12-06T09:46:06Z</time>
      </trkpt>
      <trkpt lat="48.59504" lon="1.97982">
        <ele>168.85</ele>
        <time>2018-12-06T09:46:13Z</time>
      </trkpt>
      <trkpt lat="48.59506" lon="1.97982">
        <ele>168.37</ele>
        <time>2018-12-06T09:46:18Z</time>
      </trkpt>
      <trkpt lat="48.59507" lon="1.97984">
        <ele>168.37</ele>
        <time>2018-12-06T09:46:23Z</time>
      </trkpt>
      <trkpt lat="48.59509" lon="1.97984">
        <ele>168.37</ele>
        <time>2018-12-06T09:46:35Z</time>
      </trkpt>
      <trkpt lat="48.5951" lon="1.97983">
        <ele>168.37</ele>
        <time>2018-12-06T09:46:49Z</time>
      </trkpt>
      <trkpt lat="48.59512" lon="1.97983">
        <ele>168.37</ele>
        <time>2018-12-06T09:46:56Z</time>
      </trkpt>
      <trkpt lat="48.59514" lon="1.97982">
        <ele>167.89</ele>
        <time>2018-12-06T09:47:06Z</time>
      </trkpt>
      <trkpt lat="48.59514" lon="1.97982">
        <ele>167.89</ele>
        <time>2018-12-06T09:47:20Z</time>
      </trkpt>
      <trkpt lat="48.59514" lon="1.97984">
        <ele>167.89</ele>
        <time>2018-12-06T09:47:28Z</time>
      </trkpt>
      <trkpt lat="48.59514" lon="1.97985">
        <ele>167.89</ele>
        <time>2018-12-06T09:47:33Z</time>
      </trkpt>
      <trkpt lat="48.59522" lon="1.97992">
        <ele>167.89</ele>
        <time>2018-12-06T09:47:40Z</time>
      </trkpt>
      <trkpt lat="48.59526" lon="1.97994">
        <ele>167.89</ele>
        <time>2018-12-06T09:47:43Z</time>
      </trkpt>
      <trkpt lat="48.59531" lon="1.98002">
        <ele>167.41</ele>
        <time>2018-12-06T09:47:47Z</time>
      </trkpt>
      <trkpt lat="48.59539" lon="1.98011">
        <ele>166.93</ele>
        <time>2018-12-06T09:47:53Z</time>
      </trkpt>
      <trkpt lat="48.59542" lon="1.98013">
        <ele>166.45</ele>
        <time>2018-12-06T09:47:56Z</time>
      </trkpt>
      <trkpt lat="48.59549" lon="1.98019">
        <ele>166.45</ele>
        <time>2018-12-06T09:48:01Z</time>
      </trkpt>
      <trkpt lat="48.59552" lon="1.98022">
        <ele>166.45</ele>
        <time>2018-12-06T09:48:03Z</time>
      </trkpt>
      <trkpt lat="48.59559" lon="1.98029">
        <ele>165.96</ele>
        <time>2018-12-06T09:48:07Z</time>
      </trkpt>
      <trkpt lat="48.59571" lon="1.98041">
        <ele>165</ele>
        <time>2018-12-06T09:48:14Z</time>
      </trkpt>
      <trkpt lat="48.59574" lon="1.98043">
        <ele>165</ele>
        <time>2018-12-06T09:48:19Z</time>
      </trkpt>
      <trkpt lat="48.59578" lon="1.98047">
        <ele>164.04</ele>
        <time>2018-12-06T09:48:25Z</time>
      </trkpt>
      <trkpt lat="48.59581" lon="1.98048">
        <ele>163.56</ele>
        <time>2018-12-06T09:48:28Z</time>
      </trkpt>
      <trkpt lat="48.59586" lon="1.98053">
        <ele>163.56</ele>
        <time>2018-12-06T09:48:31Z</time>
      </trkpt>
      <trkpt lat="48.59598" lon="1.98063">
        <ele>162.6</ele>
        <time>2018-12-06T09:48:39Z</time>
      </trkpt>
      <trkpt lat="48.596" lon="1.98065">
        <ele>162.6</ele>
        <time>2018-12-06T09:48:40Z</time>
      </trkpt>
      <trkpt lat="48.59608" lon="1.98077">
        <ele>161.64</ele>
        <time>2018-12-06T09:48:48Z</time>
      </trkpt>
      <trkpt lat="48.59619" lon="1.98094">
        <ele>161.16</ele>
        <time>2018-12-06T09:48:57Z</time>
      </trkpt>
      <trkpt lat="48.59632" lon="1.98106">
        <ele>160.68</ele>
        <time>2018-12-06T09:49:05Z</time>
      </trkpt>
      <trkpt lat="48.59641" lon="1.98117">
        <ele>160.68</ele>
        <time>2018-12-06T09:49:13Z</time>
      </trkpt>
      <trkpt lat="48.59646" lon="1.98125">
        <ele>160.2</ele>
        <time>2018-12-06T09:49:20Z</time>
      </trkpt>
      <trkpt lat="48.59653" lon="1.98136">
        <ele>159.72</ele>
        <time>2018-12-06T09:49:29Z</time>
      </trkpt>
      <trkpt lat="48.59658" lon="1.98147">
        <ele>159.24</ele>
        <time>2018-12-06T09:49:36Z</time>
      </trkpt>
      <trkpt lat="48.59662" lon="1.98154">
        <ele>158.27</ele>
        <time>2018-12-06T09:49:40Z</time>
      </trkpt>
      <trkpt lat="48.59669" lon="1.98162">
        <ele>157.79</ele>
        <time>2018-12-06T09:49:46Z</time>
      </trkpt>
      <trkpt lat="48.59677" lon="1.9817">
        <ele>156.83</ele>
        <time>2018-12-06T09:49:52Z</time>
      </trkpt>
      <trkpt lat="48.59685" lon="1.98176">
        <ele>156.35</ele>
        <time>2018-12-06T09:49:58Z</time>
      </trkpt>
      <trkpt lat="48.59687" lon="1.98177">
        <ele>156.35</ele>
        <time>2018-12-06T09:49:59Z</time>
      </trkpt>
      <trkpt lat="48.59693" lon="1.98181">
        <ele>155.39</ele>
        <time>2018-12-06T09:50:03Z</time>
      </trkpt>
      <trkpt lat="48.59696" lon="1.98183">
        <ele>155.39</ele>
        <time>2018-12-06T09:50:05Z</time>
      </trkpt>
      <trkpt lat="48.59703" lon="1.98191">
        <ele>153.95</ele>
        <time>2018-12-06T09:50:10Z</time>
      </trkpt>
      <trkpt lat="48.59722" lon="1.98202">
        <ele>152.99</ele>
        <time>2018-12-06T09:50:18Z</time>
      </trkpt>
      <trkpt lat="48.59738" lon="1.98213">
        <ele>151.54</ele>
        <time>2018-12-06T09:50:25Z</time>
      </trkpt>
      <trkpt lat="48.59753" lon="1.9822">
        <ele>150.58</ele>
        <time>2018-12-06T09:50:31Z</time>
      </trkpt>
      <trkpt lat="48.59762" lon="1.98225">
        <ele>149.62</ele>
        <time>2018-12-06T09:50:36Z</time>
      </trkpt>
      <trkpt lat="48.59772" lon="1.98227">
        <ele>148.18</ele>
        <time>2018-12-06T09:50:42Z</time>
      </trkpt>
      <trkpt lat="48.59782" lon="1.98233">
        <ele>148.18</ele>
        <time>2018-12-06T09:50:48Z</time>
      </trkpt>
      <trkpt lat="48.59789" lon="1.9825">
        <ele>146.74</ele>
        <time>2018-12-06T09:50:56Z</time>
      </trkpt>
      <trkpt lat="48.59796" lon="1.98255">
        <ele>144.82</ele>
        <time>2018-12-06T09:51:04Z</time>
      </trkpt>
      <trkpt lat="48.59804" lon="1.98255">
        <ele>143.37</ele>
        <time>2018-12-06T09:51:09Z</time>
      </trkpt>
      <trkpt lat="48.59812" lon="1.98257">
        <ele>141.93</ele>
        <time>2018-12-06T09:51:15Z</time>
      </trkpt>
      <trkpt lat="48.59818" lon="1.98259">
        <ele>140.97</ele>
        <time>2018-12-06T09:51:19Z</time>
      </trkpt>
      <trkpt lat="48.59825" lon="1.98261">
        <ele>139.05</ele>
        <time>2018-12-06T09:51:26Z</time>
      </trkpt>
      <trkpt lat="48.5983" lon="1.98261">
        <ele>137.61</ele>
        <time>2018-12-06T09:51:32Z</time>
      </trkpt>
      <trkpt lat="48.59836" lon="1.98265">
        <ele>136.64</ele>
        <time>2018-12-06T09:51:36Z</time>
      </trkpt>
      <trkpt lat="48.59839" lon="1.98268">
        <ele>136.16</ele>
        <time>2018-12-06T09:51:39Z</time>
      </trkpt>
      <trkpt lat="48.59847" lon="1.98271">
        <ele>135.2</ele>
        <time>2018-12-06T09:51:46Z</time>
      </trkpt>
      <trkpt lat="48.5985" lon="1.98273">
        <ele>134.24</ele>
        <time>2018-12-06T09:51:51Z</time>
      </trkpt>
      <trkpt lat="48.59858" lon="1.9828">
        <ele>133.28</ele>
        <time>2018-12-06T09:51:58Z</time>
      </trkpt>
      <trkpt lat="48.59863" lon="1.98287">
        <ele>132.32</ele>
        <time>2018-12-06T09:52:05Z</time>
      </trkpt>
      <trkpt lat="48.59871" lon="1.98293">
        <ele>131.36</ele>
        <time>2018-12-06T09:52:13Z</time>
      </trkpt>
      <trkpt lat="48.59875" lon="1.983">
        <ele>131.36</ele>
        <time>2018-12-06T09:52:19Z</time>
      </trkpt>
      <trkpt lat="48.5987" lon="1.98316">
        <ele>131.84</ele>
        <time>2018-12-06T09:52:29Z</time>
      </trkpt>
      <trkpt lat="48.59869" lon="1.9833">
        <ele>131.84</ele>
        <time>2018-12-06T09:52:37Z</time>
      </trkpt>
      <trkpt lat="48.59867" lon="1.98341">
        <ele>131.84</ele>
        <time>2018-12-06T09:52:44Z</time>
      </trkpt>
      <trkpt lat="48.59865" lon="1.98346">
        <ele>131.84</ele>
        <time>2018-12-06T09:52:48Z</time>
      </trkpt>
      <trkpt lat="48.5986" lon="1.98354">
        <ele>131.36</ele>
        <time>2018-12-06T09:52:52Z</time>
      </trkpt>
      <trkpt lat="48.59853" lon="1.98377">
        <ele>130.88</ele>
        <time>2018-12-06T09:53:00Z</time>
      </trkpt>
      <trkpt lat="48.59845" lon="1.98396">
        <ele>129.92</ele>
        <time>2018-12-06T09:53:07Z</time>
      </trkpt>
      <trkpt lat="48.59841" lon="1.98404">
        <ele>131.36</ele>
        <time>2018-12-06T09:53:14Z</time>
      </trkpt>
      <trkpt lat="48.5984" lon="1.98411">
        <ele>131.84</ele>
        <time>2018-12-06T09:53:18Z</time>
      </trkpt>
      <trkpt lat="48.5984" lon="1.98422">
        <ele>132.32</ele>
        <time>2018-12-06T09:53:22Z</time>
      </trkpt>
      <trkpt lat="48.59846" lon="1.98447">
        <ele>132.8</ele>
        <time>2018-12-06T09:53:30Z</time>
      </trkpt>
      <trkpt lat="48.59847" lon="1.98458">
        <ele>132.8</ele>
        <time>2018-12-06T09:53:36Z</time>
      </trkpt>
      <trkpt lat="48.59848" lon="1.98461">
        <ele>133.28</ele>
        <time>2018-12-06T09:53:40Z</time>
      </trkpt>
      <trkpt lat="48.59848" lon="1.98466">
        <ele>133.28</ele>
        <time>2018-12-06T09:53:42Z</time>
      </trkpt>
      <trkpt lat="48.59846" lon="1.98472">
        <ele>133.76</ele>
        <time>2018-12-06T09:53:47Z</time>
      </trkpt>
      <trkpt lat="48.59844" lon="1.98475">
        <ele>134.24</ele>
        <time>2018-12-06T09:53:49Z</time>
      </trkpt>
      <trkpt lat="48.59842" lon="1.98477">
        <ele>134.72</ele>
        <time>2018-12-06T09:53:51Z</time>
      </trkpt>
      <trkpt lat="48.59841" lon="1.98486">
        <ele>135.68</ele>
        <time>2018-12-06T09:53:59Z</time>
      </trkpt>
      <trkpt lat="48.59841" lon="1.98487">
        <ele>136.16</ele>
        <time>2018-12-06T09:54:00Z</time>
      </trkpt>
      <trkpt lat="48.59836" lon="1.98494">
        <ele>137.61</ele>
        <time>2018-12-06T09:54:06Z</time>
      </trkpt>
      <trkpt lat="48.59835" lon="1.98495">
        <ele>137.61</ele>
        <time>2018-12-06T09:54:07Z</time>
      </trkpt>
      <trkpt lat="48.5983" lon="1.98497">
        <ele>138.57</ele>
        <time>2018-12-06T09:54:11Z</time>
      </trkpt>
      <trkpt lat="48.59816" lon="1.98498">
        <ele>140.49</ele>
        <time>2018-12-06T09:54:19Z</time>
      </trkpt>
      <trkpt lat="48.59815" lon="1.98503">
        <ele>142.89</ele>
        <time>2018-12-06T09:54:26Z</time>
      </trkpt>
      <trkpt lat="48.59812" lon="1.98504">
        <ele>144.82</ele>
        <time>2018-12-06T09:54:33Z</time>
      </trkpt>
      <trkpt lat="48.5981" lon="1.98505">
        <ele>145.78</ele>
        <time>2018-12-06T09:54:35Z</time>
      </trkpt>
      <trkpt lat="48.59802" lon="1.98506">
        <ele>146.74</ele>
        <time>2018-12-06T09:54:42Z</time>
      </trkpt>
      <trkpt lat="48.59801" lon="1.98506">
        <ele>146.74</ele>
        <time>2018-12-06T09:54:43Z</time>
      </trkpt>
      <trkpt lat="48.59791" lon="1.9851">
        <ele>148.18</ele>
        <time>2018-12-06T09:54:51Z</time>
      </trkpt>
      <trkpt lat="48.5978" lon="1.98515">
        <ele>149.14</ele>
        <time>2018-12-06T09:54:58Z</time>
      </trkpt>
      <trkpt lat="48.59771" lon="1.98519">
        <ele>149.62</ele>
        <time>2018-12-06T09:55:04Z</time>
      </trkpt>
      <trkpt lat="48.59763" lon="1.98526">
        <ele>149.62</ele>
        <time>2018-12-06T09:55:11Z</time>
      </trkpt>
      <trkpt lat="48.59752" lon="1.9853">
        <ele>149.62</ele>
        <time>2018-12-06T09:55:20Z</time>
      </trkpt>
      <trkpt lat="48.59742" lon="1.98535">
        <ele>150.1</ele>
        <time>2018-12-06T09:55:28Z</time>
      </trkpt>
      <trkpt lat="48.59733" lon="1.98541">
        <ele>149.62</ele>
        <time>2018-12-06T09:55:35Z</time>
      </trkpt>
      <trkpt lat="48.59731" lon="1.98541">
        <ele>150.1</ele>
        <time>2018-12-06T09:55:36Z</time>
      </trkpt>
      <trkpt lat="48.59724" lon="1.98546">
        <ele>149.62</ele>
        <time>2018-12-06T09:55:43Z</time>
      </trkpt>
      <trkpt lat="48.59716" lon="1.98559">
        <ele>149.14</ele>
        <time>2018-12-06T09:55:52Z</time>
      </trkpt>
      <trkpt lat="48.59716" lon="1.98569">
        <ele>148.66</ele>
        <time>2018-12-06T09:56:00Z</time>
      </trkpt>
      <trkpt lat="48.59713" lon="1.9857">
        <ele>148.66</ele>
        <time>2018-12-06T09:56:03Z</time>
      </trkpt>
      <trkpt lat="48.59708" lon="1.98572">
        <ele>148.66</ele>
        <time>2018-12-06T09:56:07Z</time>
      </trkpt>
      <trkpt lat="48.59701" lon="1.98577">
        <ele>147.22</ele>
        <time>2018-12-06T09:56:15Z</time>
      </trkpt>
      <trkpt lat="48.59697" lon="1.98582">
        <ele>146.26</ele>
        <time>2018-12-06T09:56:21Z</time>
      </trkpt>
      <trkpt lat="48.59697" lon="1.9859">
        <ele>144.82</ele>
        <time>2018-12-06T09:56:28Z</time>
      </trkpt>
      <trkpt lat="48.59699" lon="1.98598">
        <ele>142.41</ele>
        <time>2018-12-06T09:56:35Z</time>
      </trkpt>
      <trkpt lat="48.59696" lon="1.98608">
        <ele>140.01</ele>
        <time>2018-12-06T09:56:43Z</time>
      </trkpt>
      <trkpt lat="48.59694" lon="1.98618">
        <ele>138.09</ele>
        <time>2018-12-06T09:56:50Z</time>
      </trkpt>
      <trkpt lat="48.59692" lon="1.98632">
        <ele>135.2</ele>
        <time>2018-12-06T09:56:59Z</time>
      </trkpt>
      <trkpt lat="48.59691" lon="1.98635">
        <ele>134.24</ele>
        <time>2018-12-06T09:57:02Z</time>
      </trkpt>
      <trkpt lat="48.59689" lon="1.98639">
        <ele>133.28</ele>
        <time>2018-12-06T09:57:06Z</time>
      </trkpt>
      <trkpt lat="48.59688" lon="1.98643">
        <ele>132.8</ele>
        <time>2018-12-06T09:57:08Z</time>
      </trkpt>
      <trkpt lat="48.59687" lon="1.98646">
        <ele>132.32</ele>
        <time>2018-12-06T09:57:10Z</time>
      </trkpt>
      <trkpt lat="48.59685" lon="1.98648">
        <ele>131.84</ele>
        <time>2018-12-06T09:57:12Z</time>
      </trkpt>
      <trkpt lat="48.59682" lon="1.98658">
        <ele>129.92</ele>
        <time>2018-12-06T09:57:19Z</time>
      </trkpt>
      <trkpt lat="48.59682" lon="1.98669">
        <ele>129.92</ele>
        <time>2018-12-06T09:57:25Z</time>
      </trkpt>
      <trkpt lat="48.59679" lon="1.98676">
        <ele>128.95</ele>
        <time>2018-12-06T09:57:32Z</time>
      </trkpt>
      <trkpt lat="48.59677" lon="1.98678">
        <ele>128.95</ele>
        <time>2018-12-06T09:57:36Z</time>
      </trkpt>
      <trkpt lat="48.59675" lon="1.98678">
        <ele>128.95</ele>
        <time>2018-12-06T09:57:38Z</time>
      </trkpt>
      <trkpt lat="48.59665" lon="1.98679">
        <ele>128.47</ele>
        <time>2018-12-06T09:57:45Z</time>
      </trkpt>
      <trkpt lat="48.59659" lon="1.98676">
        <ele>128.95</ele>
        <time>2018-12-06T09:57:50Z</time>
      </trkpt>
      <trkpt lat="48.59649" lon="1.98677">
        <ele>128.95</ele>
        <time>2018-12-06T09:57:58Z</time>
      </trkpt>
      <trkpt lat="48.59644" lon="1.98677">
        <ele>128.95</ele>
        <time>2018-12-06T09:58:01Z</time>
      </trkpt>
      <trkpt lat="48.59635" lon="1.98684">
        <ele>128.47</ele>
        <time>2018-12-06T09:58:08Z</time>
      </trkpt>
      <trkpt lat="48.59626" lon="1.98693">
        <ele>127.99</ele>
        <time>2018-12-06T09:58:15Z</time>
      </trkpt>
      <trkpt lat="48.59619" lon="1.98702">
        <ele>127.51</ele>
        <time>2018-12-06T09:58:22Z</time>
      </trkpt>
      <trkpt lat="48.59614" lon="1.9871">
        <ele>127.03</ele>
        <time>2018-12-06T09:58:30Z</time>
      </trkpt>
      <trkpt lat="48.59609" lon="1.98717">
        <ele>126.55</ele>
        <time>2018-12-06T09:58:33Z</time>
      </trkpt>
      <trkpt lat="48.59599" lon="1.9873">
        <ele>126.55</ele>
        <time>2018-12-06T09:58:39Z</time>
      </trkpt>
      <trkpt lat="48.59594" lon="1.98737">
        <ele>126.55</ele>
        <time>2018-12-06T09:58:43Z</time>
      </trkpt>
      <trkpt lat="48.59585" lon="1.98745">
        <ele>127.03</ele>
        <time>2018-12-06T09:58:48Z</time>
      </trkpt>
      <trkpt lat="48.59576" lon="1.98751">
        <ele>127.99</ele>
        <time>2018-12-06T09:58:54Z</time>
      </trkpt>
      <trkpt lat="48.59573" lon="1.98756">
        <ele>128.47</ele>
        <time>2018-12-06T09:58:58Z</time>
      </trkpt>
      <trkpt lat="48.59568" lon="1.98757">
        <ele>128.95</ele>
        <time>2018-12-06T09:59:02Z</time>
      </trkpt>
      <trkpt lat="48.59563" lon="1.98759">
        <ele>128.47</ele>
        <time>2018-12-06T09:59:07Z</time>
      </trkpt>
      <trkpt lat="48.59562" lon="1.98762">
        <ele>128.95</ele>
        <time>2018-12-06T09:59:09Z</time>
      </trkpt>
      <trkpt lat="48.59555" lon="1.98775">
        <ele>127.99</ele>
        <time>2018-12-06T09:59:16Z</time>
      </trkpt>
      <trkpt lat="48.59553" lon="1.9878">
        <ele>128.47</ele>
        <time>2018-12-06T09:59:19Z</time>
      </trkpt>
      <trkpt lat="48.59552" lon="1.98784">
        <ele>128.47</ele>
        <time>2018-12-06T09:59:21Z</time>
      </trkpt>
      <trkpt lat="48.59552" lon="1.98789">
        <ele>127.99</ele>
        <time>2018-12-06T09:59:23Z</time>
      </trkpt>
      <trkpt lat="48.59552" lon="1.98795">
        <ele>127.51</ele>
        <time>2018-12-06T09:59:26Z</time>
      </trkpt>
      <trkpt lat="48.59554" lon="1.98797">
        <ele>128.47</ele>
        <time>2018-12-06T09:59:28Z</time>
      </trkpt>
      <trkpt lat="48.59562" lon="1.98803">
        <ele>127.99</ele>
        <time>2018-12-06T09:59:35Z</time>
      </trkpt>
      <trkpt lat="48.59564" lon="1.98803">
        <ele>127.99</ele>
        <time>2018-12-06T09:59:37Z</time>
      </trkpt>
      <trkpt lat="48.59574" lon="1.98803">
        <ele>128.47</ele>
        <time>2018-12-06T09:59:43Z</time>
      </trkpt>
      <trkpt lat="48.59585" lon="1.98803">
        <ele>127.99</ele>
        <time>2018-12-06T09:59:50Z</time>
      </trkpt>
      <trkpt lat="48.59593" lon="1.98804">
        <ele>127.99</ele>
        <time>2018-12-06T09:59:56Z</time>
      </trkpt>
      <trkpt lat="48.59595" lon="1.98804">
        <ele>127.99</ele>
        <time>2018-12-06T09:59:57Z</time>
      </trkpt>
      <trkpt lat="48.59607" lon="1.98803">
        <ele>127.03</ele>
        <time>2018-12-06T10:00:06Z</time>
      </trkpt>
      <trkpt lat="48.59613" lon="1.98803">
        <ele>126.55</ele>
        <time>2018-12-06T10:00:10Z</time>
      </trkpt>
      <trkpt lat="48.59617" lon="1.98804">
        <ele>126.55</ele>
        <time>2018-12-06T10:00:14Z</time>
      </trkpt>
      <trkpt lat="48.59627" lon="1.98802">
        <ele>125.11</ele>
        <time>2018-12-06T10:00:21Z</time>
      </trkpt>
      <trkpt lat="48.59641" lon="1.98798">
        <ele>124.63</ele>
        <time>2018-12-06T10:00:29Z</time>
      </trkpt>
      <trkpt lat="48.59651" lon="1.98799">
        <ele>123.67</ele>
        <time>2018-12-06T10:00:36Z</time>
      </trkpt>
      <trkpt lat="48.59654" lon="1.98799">
        <ele>123.67</ele>
        <time>2018-12-06T10:00:38Z</time>
      </trkpt>
      <trkpt lat="48.5967" lon="1.98802">
        <ele>122.71</ele>
        <time>2018-12-06T10:00:47Z</time>
      </trkpt>
      <trkpt lat="48.59679" lon="1.98802">
        <ele>122.22</ele>
        <time>2018-12-06T10:00:53Z</time>
      </trkpt>
      <trkpt lat="48.59687" lon="1.98801">
        <ele>121.26</ele>
        <time>2018-12-06T10:01:02Z</time>
      </trkpt>
      <trkpt lat="48.59697" lon="1.98801">
        <ele>120.78</ele>
        <time>2018-12-06T10:01:10Z</time>
      </trkpt>
      <trkpt lat="48.59703" lon="1.988">
        <ele>119.82</ele>
        <time>2018-12-06T10:01:19Z</time>
      </trkpt>
      <trkpt lat="48.59705" lon="1.988">
        <ele>119.82</ele>
        <time>2018-12-06T10:01:21Z</time>
      </trkpt>
      <trkpt lat="48.59715" lon="1.98803">
        <ele>119.34</ele>
        <time>2018-12-06T10:01:27Z</time>
      </trkpt>
      <trkpt lat="48.59733" lon="1.98806">
        <ele>119.34</ele>
        <time>2018-12-06T10:01:35Z</time>
      </trkpt>
      <trkpt lat="48.59745" lon="1.98808">
        <ele>118.86</ele>
        <time>2018-12-06T10:01:41Z</time>
      </trkpt>
      <trkpt lat="48.5976" lon="1.98809">
        <ele>118.38</ele>
        <time>2018-12-06T10:01:49Z</time>
      </trkpt>
      <trkpt lat="48.59766" lon="1.98809">
        <ele>117.9</ele>
        <time>2018-12-06T10:01:53Z</time>
      </trkpt>
      <trkpt lat="48.59777" lon="1.9881">
        <ele>117.9</ele>
        <time>2018-12-06T10:02:00Z</time>
      </trkpt>
      <trkpt lat="48.59788" lon="1.98807">
        <ele>117.42</ele>
        <time>2018-12-06T10:02:07Z</time>
      </trkpt>
      <trkpt lat="48.59793" lon="1.98808">
        <ele>116.94</ele>
        <time>2018-12-06T10:02:11Z</time>
      </trkpt>
      <trkpt lat="48.59804" lon="1.98805">
        <ele>116.46</ele>
        <time>2018-12-06T10:02:18Z</time>
      </trkpt>
      <trkpt lat="48.59809" lon="1.98805">
        <ele>115.98</ele>
        <time>2018-12-06T10:02:24Z</time>
      </trkpt>
      <trkpt lat="48.5982" lon="1.98805">
        <ele>115.98</ele>
        <time>2018-12-06T10:02:31Z</time>
      </trkpt>
      <trkpt lat="48.59833" lon="1.98801">
        <ele>115.01</ele>
        <time>2018-12-06T10:02:37Z</time>
      </trkpt>
      <trkpt lat="48.59849" lon="1.98796">
        <ele>115.01</ele>
        <time>2018-12-06T10:02:45Z</time>
      </trkpt>
      <trkpt lat="48.59851" lon="1.98796">
        <ele>115.01</ele>
        <time>2018-12-06T10:02:46Z</time>
      </trkpt>
      <trkpt lat="48.59863" lon="1.98793">
        <ele>114.53</ele>
        <time>2018-12-06T10:02:53Z</time>
      </trkpt>
      <trkpt lat="48.59872" lon="1.98796">
        <ele>114.05</ele>
        <time>2018-12-06T10:02:59Z</time>
      </trkpt>
      <trkpt lat="48.59887" lon="1.98794">
        <ele>113.57</ele>
        <time>2018-12-06T10:03:07Z</time>
      </trkpt>
      <trkpt lat="48.599" lon="1.98792">
        <ele>113.09</ele>
        <time>2018-12-06T10:03:15Z</time>
      </trkpt>
      <trkpt lat="48.59908" lon="1.98792">
        <ele>112.61</ele>
        <time>2018-12-06T10:03:22Z</time>
      </trkpt>
      <trkpt lat="48.59918" lon="1.9879">
        <ele>112.61</ele>
        <time>2018-12-06T10:03:29Z</time>
      </trkpt>
      <trkpt lat="48.59928" lon="1.98785">
        <ele>112.13</ele>
        <time>2018-12-06T10:03:36Z</time>
      </trkpt>
      <trkpt lat="48.59939" lon="1.98779">
        <ele>111.65</ele>
        <time>2018-12-06T10:03:44Z</time>
      </trkpt>
      <trkpt lat="48.59943" lon="1.98775">
        <ele>111.65</ele>
        <time>2018-12-06T10:03:49Z</time>
      </trkpt>
      <trkpt lat="48.59956" lon="1.98772">
        <ele>111.17</ele>
        <time>2018-12-06T10:03:55Z</time>
      </trkpt>
      <trkpt lat="48.59971" lon="1.98766">
        <ele>111.17</ele>
        <time>2018-12-06T10:04:03Z</time>
      </trkpt>
      <trkpt lat="48.59974" lon="1.98765">
        <ele>111.17</ele>
        <time>2018-12-06T10:04:05Z</time>
      </trkpt>
      <trkpt lat="48.59988" lon="1.98761">
        <ele>111.17</ele>
        <time>2018-12-06T10:04:13Z</time>
      </trkpt>
      <trkpt lat="48.60001" lon="1.98758">
        <ele>111.17</ele>
        <time>2018-12-06T10:04:20Z</time>
      </trkpt>
      <trkpt lat="48.60002" lon="1.98758">
        <ele>110.69</ele>
        <time>2018-12-06T10:04:21Z</time>
      </trkpt>
      <trkpt lat="48.60014" lon="1.98755">
        <ele>111.65</ele>
        <time>2018-12-06T10:04:28Z</time>
      </trkpt>
      <trkpt lat="48.60019" lon="1.98751">
        <ele>110.69</ele>
        <time>2018-12-06T10:04:35Z</time>
      </trkpt>
      <trkpt lat="48.60026" lon="1.98751">
        <ele>111.17</ele>
        <time>2018-12-06T10:04:42Z</time>
      </trkpt>
      <trkpt lat="48.60029" lon="1.98751">
        <ele>111.65</ele>
        <time>2018-12-06T10:04:50Z</time>
      </trkpt>
      <trkpt lat="48.60037" lon="1.98751">
        <ele>112.13</ele>
        <time>2018-12-06T10:04:58Z</time>
      </trkpt>
      <trkpt lat="48.60043" lon="1.98748">
        <ele>113.09</ele>
        <time>2018-12-06T10:05:07Z</time>
      </trkpt>
      <trkpt lat="48.60054" lon="1.98746">
        <ele>113.09</ele>
        <time>2018-12-06T10:05:14Z</time>
      </trkpt>
      <trkpt lat="48.60056" lon="1.98745">
        <ele>113.57</ele>
        <time>2018-12-06T10:05:15Z</time>
      </trkpt>
      <trkpt lat="48.60076" lon="1.98731">
        <ele>113.57</ele>
        <time>2018-12-06T10:05:22Z</time>
      </trkpt>
      <trkpt lat="48.60087" lon="1.98722">
        <ele>113.57</ele>
        <time>2018-12-06T10:05:25Z</time>
      </trkpt>
      <trkpt lat="48.60098" lon="1.98719">
        <ele>114.05</ele>
        <time>2018-12-06T10:05:29Z</time>
      </trkpt>
      <trkpt lat="48.60112" lon="1.98712">
        <ele>114.05</ele>
        <time>2018-12-06T10:05:37Z</time>
      </trkpt>
      <trkpt lat="48.60123" lon="1.98702">
        <ele>114.05</ele>
        <time>2018-12-06T10:05:44Z</time>
      </trkpt>
      <trkpt lat="48.60131" lon="1.98694">
        <ele>114.53</ele>
        <time>2018-12-06T10:05:51Z</time>
      </trkpt>
      <trkpt lat="48.60134" lon="1.98688">
        <ele>114.05</ele>
        <time>2018-12-06T10:05:57Z</time>
      </trkpt>
      <trkpt lat="48.60136" lon="1.98685">
        <ele>114.05</ele>
        <time>2018-12-06T10:06:03Z</time>
      </trkpt>
      <trkpt lat="48.60143" lon="1.98681">
        <ele>114.05</ele>
        <time>2018-12-06T10:06:07Z</time>
      </trkpt>
      <trkpt lat="48.6015" lon="1.98674">
        <ele>114.05</ele>
        <time>2018-12-06T10:06:11Z</time>
      </trkpt>
      <trkpt lat="48.60164" lon="1.9866">
        <ele>113.09</ele>
        <time>2018-12-06T10:06:19Z</time>
      </trkpt>
      <trkpt lat="48.6017" lon="1.98657">
        <ele>112.61</ele>
        <time>2018-12-06T10:06:22Z</time>
      </trkpt>
      <trkpt lat="48.60173" lon="1.98654">
        <ele>112.61</ele>
        <time>2018-12-06T10:06:24Z</time>
      </trkpt>
      <trkpt lat="48.60188" lon="1.98642">
        <ele>112.13</ele>
        <time>2018-12-06T10:06:33Z</time>
      </trkpt>
      <trkpt lat="48.60198" lon="1.9863">
        <ele>111.65</ele>
        <time>2018-12-06T10:06:40Z</time>
      </trkpt>
      <trkpt lat="48.60204" lon="1.9862">
        <ele>111.17</ele>
        <time>2018-12-06T10:06:47Z</time>
      </trkpt>
      <trkpt lat="48.60216" lon="1.98609">
        <ele>111.17</ele>
        <time>2018-12-06T10:06:56Z</time>
      </trkpt>
      <trkpt lat="48.60225" lon="1.98597">
        <ele>110.69</ele>
        <time>2018-12-06T10:07:03Z</time>
      </trkpt>
      <trkpt lat="48.60234" lon="1.98586">
        <ele>110.21</ele>
        <time>2018-12-06T10:07:10Z</time>
      </trkpt>
      <trkpt lat="48.60246" lon="1.98577">
        <ele>110.21</ele>
        <time>2018-12-06T10:07:18Z</time>
      </trkpt>
      <trkpt lat="48.60257" lon="1.98566">
        <ele>110.21</ele>
        <time>2018-12-06T10:07:25Z</time>
      </trkpt>
      <trkpt lat="48.60257" lon="1.98561">
        <ele>109.73</ele>
        <time>2018-12-06T10:07:33Z</time>
      </trkpt>
      <trkpt lat="48.60257" lon="1.98558">
        <ele>109.73</ele>
        <time>2018-12-06T10:07:50Z</time>
      </trkpt>
      <trkpt lat="48.60257" lon="1.98556">
        <ele>109.73</ele>
        <time>2018-12-06T10:08:03Z</time>
      </trkpt>
      <trkpt lat="48.60255" lon="1.98555">
        <ele>109.73</ele>
        <time>2018-12-06T10:08:24Z</time>
      </trkpt>
      <trkpt lat="48.60255" lon="1.98553">
        <ele>109.73</ele>
        <time>2018-12-06T10:08:42Z</time>
      </trkpt>
      <trkpt lat="48.60256" lon="1.98553">
        <ele>109.73</ele>
        <time>2018-12-06T10:08:47Z</time>
      </trkpt>
      <trkpt lat="48.60259" lon="1.98551">
        <ele>110.21</ele>
        <time>2018-12-06T10:08:50Z</time>
      </trkpt>
      <trkpt lat="48.60269" lon="1.98545">
        <ele>110.21</ele>
        <time>2018-12-06T10:08:56Z</time>
      </trkpt>
      <trkpt lat="48.60276" lon="1.98538">
        <ele>109.73</ele>
        <time>2018-12-06T10:09:04Z</time>
      </trkpt>
      <trkpt lat="48.60284" lon="1.98524">
        <ele>110.21</ele>
        <time>2018-12-06T10:09:13Z</time>
      </trkpt>
      <trkpt lat="48.6029" lon="1.98513">
        <ele>110.69</ele>
        <time>2018-12-06T10:09:19Z</time>
      </trkpt>
      <trkpt lat="48.60296" lon="1.98502">
        <ele>111.17</ele>
        <time>2018-12-06T10:09:26Z</time>
      </trkpt>
      <trkpt lat="48.60301" lon="1.98494">
        <ele>111.65</ele>
        <time>2018-12-06T10:09:34Z</time>
      </trkpt>
      <trkpt lat="48.60302" lon="1.98492">
        <ele>111.65</ele>
        <time>2018-12-06T10:09:36Z</time>
      </trkpt>
      <trkpt lat="48.6031" lon="1.98485">
        <ele>111.17</ele>
        <time>2018-12-06T10:09:42Z</time>
      </trkpt>
      <trkpt lat="48.60322" lon="1.98468">
        <ele>111.17</ele>
        <time>2018-12-06T10:09:48Z</time>
      </trkpt>
      <trkpt lat="48.60333" lon="1.98455">
        <ele>111.17</ele>
        <time>2018-12-06T10:09:53Z</time>
      </trkpt>
      <trkpt lat="48.60344" lon="1.98447">
        <ele>110.69</ele>
        <time>2018-12-06T10:09:59Z</time>
      </trkpt>
      <trkpt lat="48.60346" lon="1.98442">
        <ele>110.69</ele>
        <time>2018-12-06T10:10:05Z</time>
      </trkpt>
      <trkpt lat="48.6035" lon="1.98436">
        <ele>109.73</ele>
        <time>2018-12-06T10:10:12Z</time>
      </trkpt>
      <trkpt lat="48.60361" lon="1.98424">
        <ele>108.77</ele>
        <time>2018-12-06T10:10:21Z</time>
      </trkpt>
      <trkpt lat="48.60373" lon="1.98417">
        <ele>109.25</ele>
        <time>2018-12-06T10:10:29Z</time>
      </trkpt>
      <trkpt lat="48.60381" lon="1.98412">
        <ele>107.32</ele>
        <time>2018-12-06T10:10:35Z</time>
      </trkpt>
      <trkpt lat="48.60383" lon="1.98412">
        <ele>107.32</ele>
        <time>2018-12-06T10:10:36Z</time>
      </trkpt>
      <trkpt lat="48.604" lon="1.98405">
        <ele>106.84</ele>
        <time>2018-12-06T10:10:45Z</time>
      </trkpt>
      <trkpt lat="48.60415" lon="1.98398">
        <ele>106.36</ele>
        <time>2018-12-06T10:10:55Z</time>
      </trkpt>
      <trkpt lat="48.60423" lon="1.98394">
        <ele>106.36</ele>
        <time>2018-12-06T10:11:01Z</time>
      </trkpt>
      <trkpt lat="48.60431" lon="1.98392">
        <ele>106.36</ele>
        <time>2018-12-06T10:11:09Z</time>
      </trkpt>
      <trkpt lat="48.60441" lon="1.98386">
        <ele>106.36</ele>
        <time>2018-12-06T10:11:16Z</time>
      </trkpt>
      <trkpt lat="48.60446" lon="1.98385">
        <ele>106.36</ele>
        <time>2018-12-06T10:11:19Z</time>
      </trkpt>
      <trkpt lat="48.60451" lon="1.98384">
        <ele>106.36</ele>
        <time>2018-12-06T10:11:22Z</time>
      </trkpt>
      <trkpt lat="48.60468" lon="1.98382">
        <ele>106.84</ele>
        <time>2018-12-06T10:11:30Z</time>
      </trkpt>
      <trkpt lat="48.60482" lon="1.98379">
        <ele>106.84</ele>
        <time>2018-12-06T10:11:39Z</time>
      </trkpt>
      <trkpt lat="48.60492" lon="1.98377">
        <ele>106.84</ele>
        <time>2018-12-06T10:11:48Z</time>
      </trkpt>
      <trkpt lat="48.60502" lon="1.98372">
        <ele>106.84</ele>
        <time>2018-12-06T10:11:55Z</time>
      </trkpt>
      <trkpt lat="48.60519" lon="1.98373">
        <ele>107.32</ele>
        <time>2018-12-06T10:12:04Z</time>
      </trkpt>
      <trkpt lat="48.60522" lon="1.98371">
        <ele>107.32</ele>
        <time>2018-12-06T10:12:07Z</time>
      </trkpt>
      <trkpt lat="48.60533" lon="1.98368">
        <ele>107.81</ele>
        <time>2018-12-06T10:12:15Z</time>
      </trkpt>
      <trkpt lat="48.60539" lon="1.98364">
        <ele>107.81</ele>
        <time>2018-12-06T10:12:22Z</time>
      </trkpt>
      <trkpt lat="48.60556" lon="1.98352">
        <ele>109.73</ele>
        <time>2018-12-06T10:12:29Z</time>
      </trkpt>
      <trkpt lat="48.60569" lon="1.98343">
        <ele>108.77</ele>
        <time>2018-12-06T10:12:36Z</time>
      </trkpt>
      <trkpt lat="48.60577" lon="1.98341">
        <ele>108.29</ele>
        <time>2018-12-06T10:12:41Z</time>
      </trkpt>
      <trkpt lat="48.60581" lon="1.98339">
        <ele>108.77</ele>
        <time>2018-12-06T10:12:44Z</time>
      </trkpt>
      <trkpt lat="48.60595" lon="1.98334">
        <ele>108.77</ele>
        <time>2018-12-06T10:12:53Z</time>
      </trkpt>
      <trkpt lat="48.60604" lon="1.9833">
        <ele>108.29</ele>
        <time>2018-12-06T10:12:58Z</time>
      </trkpt>
      <trkpt lat="48.60606" lon="1.98328">
        <ele>107.81</ele>
        <time>2018-12-06T10:13:01Z</time>
      </trkpt>
      <trkpt lat="48.6061" lon="1.98327">
        <ele>107.81</ele>
        <time>2018-12-06T10:13:05Z</time>
      </trkpt>
      <trkpt lat="48.60624" lon="1.98327">
        <ele>107.32</ele>
        <time>2018-12-06T10:13:14Z</time>
      </trkpt>
      <trkpt lat="48.60641" lon="1.98319">
        <ele>106.84</ele>
        <time>2018-12-06T10:13:24Z</time>
      </trkpt>
      <trkpt lat="48.60658" lon="1.98312">
        <ele>106.84</ele>
        <time>2018-12-06T10:13:33Z</time>
      </trkpt>
      <trkpt lat="48.60659" lon="1.98311">
        <ele>107.32</ele>
        <time>2018-12-06T10:13:34Z</time>
      </trkpt>
      <trkpt lat="48.60678" lon="1.983">
        <ele>106.84</ele>
        <time>2018-12-06T10:13:46Z</time>
      </trkpt>
      <trkpt lat="48.60692" lon="1.98293">
        <ele>106.84</ele>
        <time>2018-12-06T10:13:56Z</time>
      </trkpt>
      <trkpt lat="48.60695" lon="1.98292">
        <ele>106.84</ele>
        <time>2018-12-06T10:13:58Z</time>
      </trkpt>
      <trkpt lat="48.60702" lon="1.98286">
        <ele>107.81</ele>
        <time>2018-12-06T10:14:05Z</time>
      </trkpt>
      <trkpt lat="48.60715" lon="1.98275">
        <ele>107.81</ele>
        <time>2018-12-06T10:14:15Z</time>
      </trkpt>
      <trkpt lat="48.60728" lon="1.98269">
        <ele>107.81</ele>
        <time>2018-12-06T10:14:25Z</time>
      </trkpt>
      <trkpt lat="48.60734" lon="1.98253">
        <ele>108.29</ele>
        <time>2018-12-06T10:14:34Z</time>
      </trkpt>
      <trkpt lat="48.6074" lon="1.98232">
        <ele>108.29</ele>
        <time>2018-12-06T10:14:44Z</time>
      </trkpt>
      <trkpt lat="48.60748" lon="1.98218">
        <ele>108.77</ele>
        <time>2018-12-06T10:14:52Z</time>
      </trkpt>
      <trkpt lat="48.60759" lon="1.98209">
        <ele>108.29</ele>
        <time>2018-12-06T10:15:01Z</time>
      </trkpt>
      <trkpt lat="48.60761" lon="1.98192">
        <ele>107.81</ele>
        <time>2018-12-06T10:15:09Z</time>
      </trkpt>
      <trkpt lat="48.60761" lon="1.98187">
        <ele>108.29</ele>
        <time>2018-12-06T10:15:11Z</time>
      </trkpt>
      <trkpt lat="48.60767" lon="1.98168">
        <ele>108.29</ele>
        <time>2018-12-06T10:15:21Z</time>
      </trkpt>
      <trkpt lat="48.60771" lon="1.98148">
        <ele>107.81</ele>
        <time>2018-12-06T10:15:30Z</time>
      </trkpt>
      <trkpt lat="48.60776" lon="1.98121">
        <ele>108.29</ele>
        <time>2018-12-06T10:15:41Z</time>
      </trkpt>
      <trkpt lat="48.60782" lon="1.98101">
        <ele>107.81</ele>
        <time>2018-12-06T10:15:50Z</time>
      </trkpt>
      <trkpt lat="48.60786" lon="1.98084">
        <ele>107.81</ele>
        <time>2018-12-06T10:15:58Z</time>
      </trkpt>
      <trkpt lat="48.6079" lon="1.98068">
        <ele>107.81</ele>
        <time>2018-12-06T10:16:06Z</time>
      </trkpt>
      <trkpt lat="48.60794" lon="1.98043">
        <ele>107.81</ele>
        <time>2018-12-06T10:16:16Z</time>
      </trkpt>
      <trkpt lat="48.60796" lon="1.98037">
        <ele>107.81</ele>
        <time>2018-12-06T10:16:19Z</time>
      </trkpt>
      <trkpt lat="48.608" lon="1.98018">
        <ele>107.81</ele>
        <time>2018-12-06T10:16:27Z</time>
      </trkpt>
      <trkpt lat="48.60801" lon="1.98013">
        <ele>108.29</ele>
        <time>2018-12-06T10:16:29Z</time>
      </trkpt>
      <trkpt lat="48.60809" lon="1.9799">
        <ele>107.32</ele>
        <time>2018-12-06T10:16:39Z</time>
      </trkpt>
      <trkpt lat="48.6081" lon="1.97978">
        <ele>107.81</ele>
        <time>2018-12-06T10:16:47Z</time>
      </trkpt>
      <trkpt lat="48.60808" lon="1.97974">
        <ele>107.81</ele>
        <time>2018-12-06T10:16:55Z</time>
      </trkpt>
      <trkpt lat="48.60807" lon="1.97972">
        <ele>107.81</ele>
        <time>2018-12-06T10:17:02Z</time>
      </trkpt>
      <trkpt lat="48.60805" lon="1.97971">
        <ele>107.32</ele>
        <time>2018-12-06T10:17:08Z</time>
      </trkpt>
      <trkpt lat="48.60798" lon="1.97967">
        <ele>107.32</ele>
        <time>2018-12-06T10:17:17Z</time>
      </trkpt>
      <trkpt lat="48.60796" lon="1.97965">
        <ele>107.32</ele>
        <time>2018-12-06T10:17:28Z</time>
      </trkpt>
      <trkpt lat="48.60791" lon="1.97962">
        <ele>107.81</ele>
        <time>2018-12-06T10:17:32Z</time>
      </trkpt>
      <trkpt lat="48.60777" lon="1.97951">
        <ele>107.81</ele>
        <time>2018-12-06T10:17:42Z</time>
      </trkpt>
      <trkpt lat="48.60768" lon="1.97943">
        <ele>108.29</ele>
        <time>2018-12-06T10:17:51Z</time>
      </trkpt>
      <trkpt lat="48.60767" lon="1.97942">
        <ele>107.81</ele>
        <time>2018-12-06T10:18:02Z</time>
      </trkpt>
      <trkpt lat="48.60767" lon="1.97942">
        <ele>108.29</ele>
        <time>2018-12-06T10:18:10Z</time>
      </trkpt>
      <trkpt lat="48.60752" lon="1.97933">
        <ele>108.29</ele>
        <time>2018-12-06T10:18:20Z</time>
      </trkpt>
      <trkpt lat="48.60746" lon="1.97925">
        <ele>108.29</ele>
        <time>2018-12-06T10:18:24Z</time>
      </trkpt>
      <trkpt lat="48.60739" lon="1.97919">
        <ele>108.29</ele>
        <time>2018-12-06T10:18:28Z</time>
      </trkpt>
      <trkpt lat="48.60726" lon="1.97906">
        <ele>108.77</ele>
        <time>2018-12-06T10:18:37Z</time>
      </trkpt>
      <trkpt lat="48.60717" lon="1.97892">
        <ele>108.77</ele>
        <time>2018-12-06T10:18:46Z</time>
      </trkpt>
      <trkpt lat="48.60704" lon="1.9788">
        <ele>109.25</ele>
        <time>2018-12-06T10:18:53Z</time>
      </trkpt>
      <trkpt lat="48.60694" lon="1.97872">
        <ele>108.77</ele>
        <time>2018-12-06T10:19:02Z</time>
      </trkpt>
      <trkpt lat="48.60685" lon="1.97862">
        <ele>108.77</ele>
        <time>2018-12-06T10:19:11Z</time>
      </trkpt>
      <trkpt lat="48.60673" lon="1.97857">
        <ele>108.29</ele>
        <time>2018-12-06T10:19:19Z</time>
      </trkpt>
      <trkpt lat="48.60668" lon="1.97851">
        <ele>107.81</ele>
        <time>2018-12-06T10:19:23Z</time>
      </trkpt>
      <trkpt lat="48.60653" lon="1.97831">
        <ele>109.25</ele>
        <time>2018-12-06T10:19:35Z</time>
      </trkpt>
      <trkpt lat="48.60642" lon="1.97822">
        <ele>109.25</ele>
        <time>2018-12-06T10:19:43Z</time>
      </trkpt>
      <trkpt lat="48.60633" lon="1.97813">
        <ele>108.77</ele>
        <time>2018-12-06T10:19:50Z</time>
      </trkpt>
      <trkpt lat="48.60621" lon="1.97798">
        <ele>108.77</ele>
        <time>2018-12-06T10:20:01Z</time>
      </trkpt>
      <trkpt lat="48.60612" lon="1.97787">
        <ele>109.25</ele>
        <time>2018-12-06T10:20:11Z</time>
      </trkpt>
      <trkpt lat="48.60603" lon="1.97779">
        <ele>109.73</ele>
        <time>2018-12-06T10:20:18Z</time>
      </trkpt>
      <trkpt lat="48.60596" lon="1.97772">
        <ele>109.73</ele>
        <time>2018-12-06T10:20:23Z</time>
      </trkpt>
      <trkpt lat="48.60582" lon="1.97758">
        <ele>109.25</ele>
        <time>2018-12-06T10:20:32Z</time>
      </trkpt>
      <trkpt lat="48.60572" lon="1.9775">
        <ele>110.69</ele>
        <time>2018-12-06T10:20:38Z</time>
      </trkpt>
      <trkpt lat="48.60566" lon="1.97745">
        <ele>110.21</ele>
        <time>2018-12-06T10:20:43Z</time>
      </trkpt>
      <trkpt lat="48.60559" lon="1.97735">
        <ele>111.17</ele>
        <time>2018-12-06T10:20:51Z</time>
      </trkpt>
      <trkpt lat="48.60544" lon="1.97725">
        <ele>111.65</ele>
        <time>2018-12-06T10:21:00Z</time>
      </trkpt>
      <trkpt lat="48.60537" lon="1.97716">
        <ele>112.61</ele>
        <time>2018-12-06T10:21:09Z</time>
      </trkpt>
      <trkpt lat="48.60536" lon="1.97716">
        <ele>112.13</ele>
        <time>2018-12-06T10:21:18Z</time>
      </trkpt>
      <trkpt lat="48.60537" lon="1.97716">
        <ele>112.13</ele>
        <time>2018-12-06T10:21:29Z</time>
      </trkpt>
      <trkpt lat="48.60538" lon="1.97716">
        <ele>112.13</ele>
        <time>2018-12-06T10:21:41Z</time>
      </trkpt>
      <trkpt lat="48.60537" lon="1.97716">
        <ele>112.61</ele>
        <time>2018-12-06T10:21:55Z</time>
      </trkpt>
      <trkpt lat="48.60537" lon="1.97716">
        <ele>112.61</ele>
        <time>2018-12-06T10:22:07Z</time>
      </trkpt>
      <trkpt lat="48.60537" lon="1.97716">
        <ele>112.61</ele>
        <time>2018-12-06T10:22:20Z</time>
      </trkpt>
      <trkpt lat="48.60538" lon="1.97717">
        <ele>112.61</ele>
        <time>2018-12-06T10:22:32Z</time>
      </trkpt>
      <trkpt lat="48.60534" lon="1.97715">
        <ele>112.61</ele>
        <time>2018-12-06T10:22:37Z</time>
      </trkpt>
      <trkpt lat="48.60531" lon="1.97713">
        <ele>112.13</ele>
        <time>2018-12-06T10:22:40Z</time>
      </trkpt>
      <trkpt lat="48.6052" lon="1.97708">
        <ele>113.57</ele>
        <time>2018-12-06T10:22:48Z</time>
      </trkpt>
      <trkpt lat="48.60514" lon="1.97699">
        <ele>115.01</ele>
        <time>2018-12-06T10:22:56Z</time>
      </trkpt>
      <trkpt lat="48.60511" lon="1.97695">
        <ele>114.53</ele>
        <time>2018-12-06T10:23:01Z</time>
      </trkpt>
      <trkpt lat="48.60496" lon="1.97686">
        <ele>115.5</ele>
        <time>2018-12-06T10:23:11Z</time>
      </trkpt>
      <trkpt lat="48.60484" lon="1.97679">
        <ele>115.5</ele>
        <time>2018-12-06T10:23:18Z</time>
      </trkpt>
      <trkpt lat="48.60475" lon="1.97669">
        <ele>115.98</ele>
        <time>2018-12-06T10:23:27Z</time>
      </trkpt>
      <trkpt lat="48.60472" lon="1.97667">
        <ele>115.5</ele>
        <time>2018-12-06T10:23:29Z</time>
      </trkpt>
      <trkpt lat="48.60466" lon="1.97661">
        <ele>116.94</ele>
        <time>2018-12-06T10:23:33Z</time>
      </trkpt>
      <trkpt lat="48.60457" lon="1.97654">
        <ele>116.46</ele>
        <time>2018-12-06T10:23:38Z</time>
      </trkpt>
      <trkpt lat="48.60451" lon="1.9765">
        <ele>116.94</ele>
        <time>2018-12-06T10:23:45Z</time>
      </trkpt>
      <trkpt lat="48.60448" lon="1.97645">
        <ele>116.94</ele>
        <time>2018-12-06T10:23:50Z</time>
      </trkpt>
      <trkpt lat="48.60445" lon="1.97642">
        <ele>116.46</ele>
        <time>2018-12-06T10:23:52Z</time>
      </trkpt>
      <trkpt lat="48.60439" lon="1.97636">
        <ele>117.42</ele>
        <time>2018-12-06T10:23:57Z</time>
      </trkpt>
      <trkpt lat="48.60426" lon="1.97626">
        <ele>117.9</ele>
        <time>2018-12-06T10:24:08Z</time>
      </trkpt>
      <trkpt lat="48.60416" lon="1.97616">
        <ele>117.42</ele>
        <time>2018-12-06T10:24:17Z</time>
      </trkpt>
      <trkpt lat="48.60404" lon="1.97607">
        <ele>117.42</ele>
        <time>2018-12-06T10:24:25Z</time>
      </trkpt>
      <trkpt lat="48.60401" lon="1.97607">
        <ele>117.42</ele>
        <time>2018-12-06T10:24:27Z</time>
      </trkpt>
      <trkpt lat="48.60396" lon="1.97605">
        <ele>117.9</ele>
        <time>2018-12-06T10:24:34Z</time>
      </trkpt>
      <trkpt lat="48.60391" lon="1.97593">
        <ele>117.9</ele>
        <time>2018-12-06T10:24:41Z</time>
      </trkpt>
      <trkpt lat="48.60387" lon="1.97586">
        <ele>117.9</ele>
        <time>2018-12-06T10:24:45Z</time>
      </trkpt>
      <trkpt lat="48.6038" lon="1.97577">
        <ele>118.86</ele>
        <time>2018-12-06T10:24:50Z</time>
      </trkpt>
      <trkpt lat="48.60367" lon="1.97563">
        <ele>118.86</ele>
        <time>2018-12-06T10:24:59Z</time>
      </trkpt>
      <trkpt lat="48.60358" lon="1.97551">
        <ele>118.86</ele>
        <time>2018-12-06T10:25:08Z</time>
      </trkpt>
      <trkpt lat="48.60346" lon="1.97538">
        <ele>119.34</ele>
        <time>2018-12-06T10:25:14Z</time>
      </trkpt>
      <trkpt lat="48.60338" lon="1.97517">
        <ele>120.78</ele>
        <time>2018-12-06T10:25:21Z</time>
      </trkpt>
      <trkpt lat="48.60327" lon="1.97503">
        <ele>120.78</ele>
        <time>2018-12-06T10:25:30Z</time>
      </trkpt>
      <trkpt lat="48.60314" lon="1.97484">
        <ele>122.22</ele>
        <time>2018-12-06T10:25:38Z</time>
      </trkpt>
      <trkpt lat="48.60305" lon="1.97474">
        <ele>122.22</ele>
        <time>2018-12-06T10:25:45Z</time>
      </trkpt>
      <trkpt lat="48.60295" lon="1.97465">
        <ele>124.63</ele>
        <time>2018-12-06T10:25:56Z</time>
      </trkpt>
      <trkpt lat="48.60284" lon="1.97457">
        <ele>126.55</ele>
        <time>2018-12-06T10:26:04Z</time>
      </trkpt>
      <trkpt lat="48.60273" lon="1.9745">
        <ele>127.99</ele>
        <time>2018-12-06T10:26:12Z</time>
      </trkpt>
      <trkpt lat="48.60272" lon="1.9745">
        <ele>127.99</ele>
        <time>2018-12-06T10:26:13Z</time>
      </trkpt>
      <trkpt lat="48.60265" lon="1.97446">
        <ele>130.4</ele>
        <time>2018-12-06T10:26:21Z</time>
      </trkpt>
      <trkpt lat="48.60257" lon="1.97437">
        <ele>133.28</ele>
        <time>2018-12-06T10:26:29Z</time>
      </trkpt>
      <trkpt lat="48.60256" lon="1.97435">
        <ele>134.72</ele>
        <time>2018-12-06T10:26:30Z</time>
      </trkpt>
      <trkpt lat="48.60248" lon="1.97425">
        <ele>135.2</ele>
        <time>2018-12-06T10:26:36Z</time>
      </trkpt>
      <trkpt lat="48.60234" lon="1.974">
        <ele>136.16</ele>
        <time>2018-12-06T10:26:46Z</time>
      </trkpt>
      <trkpt lat="48.60231" lon="1.97396">
        <ele>137.61</ele>
        <time>2018-12-06T10:26:49Z</time>
      </trkpt>
      <trkpt lat="48.60224" lon="1.97391">
        <ele>138.09</ele>
        <time>2018-12-06T10:26:57Z</time>
      </trkpt>
      <trkpt lat="48.6022" lon="1.97387">
        <ele>139.53</ele>
        <time>2018-12-06T10:27:01Z</time>
      </trkpt>
      <trkpt lat="48.60219" lon="1.97385">
        <ele>139.05</ele>
        <time>2018-12-06T10:27:03Z</time>
      </trkpt>
      <trkpt lat="48.60206" lon="1.97372">
        <ele>139.53</ele>
        <time>2018-12-06T10:27:14Z</time>
      </trkpt>
      <trkpt lat="48.60204" lon="1.97369">
        <ele>140.97</ele>
        <time>2018-12-06T10:27:16Z</time>
      </trkpt>
      <trkpt lat="48.60192" lon="1.97355">
        <ele>140.97</ele>
        <time>2018-12-06T10:27:24Z</time>
      </trkpt>
      <trkpt lat="48.60191" lon="1.97354">
        <ele>140.49</ele>
        <time>2018-12-06T10:27:25Z</time>
      </trkpt>
      <trkpt lat="48.60179" lon="1.97346">
        <ele>140.97</ele>
        <time>2018-12-06T10:27:35Z</time>
      </trkpt>
      <trkpt lat="48.60169" lon="1.97338">
        <ele>140.97</ele>
        <time>2018-12-06T10:27:45Z</time>
      </trkpt>
      <trkpt lat="48.60154" lon="1.97323">
        <ele>140.97</ele>
        <time>2018-12-06T10:27:55Z</time>
      </trkpt>
      <trkpt lat="48.6014" lon="1.97306">
        <ele>141.45</ele>
        <time>2018-12-06T10:28:03Z</time>
      </trkpt>
      <trkpt lat="48.6013" lon="1.97295">
        <ele>141.45</ele>
        <time>2018-12-06T10:28:10Z</time>
      </trkpt>
      <trkpt lat="48.60126" lon="1.97294">
        <ele>141.45</ele>
        <time>2018-12-06T10:28:12Z</time>
      </trkpt>
      <trkpt lat="48.60115" lon="1.97288">
        <ele>140.97</ele>
        <time>2018-12-06T10:28:19Z</time>
      </trkpt>
      <trkpt lat="48.60101" lon="1.97284">
        <ele>140.97</ele>
        <time>2018-12-06T10:28:28Z</time>
      </trkpt>
      <trkpt lat="48.60089" lon="1.9728">
        <ele>140.49</ele>
        <time>2018-12-06T10:28:35Z</time>
      </trkpt>
      <trkpt lat="48.60078" lon="1.97275">
        <ele>140.49</ele>
        <time>2018-12-06T10:28:43Z</time>
      </trkpt>
      <trkpt lat="48.60077" lon="1.97275">
        <ele>140.49</ele>
        <time>2018-12-06T10:28:44Z</time>
      </trkpt>
      <trkpt lat="48.60072" lon="1.97264">
        <ele>140.01</ele>
        <time>2018-12-06T10:28:50Z</time>
      </trkpt>
      <trkpt lat="48.60061" lon="1.97245">
        <ele>139.53</ele>
        <time>2018-12-06T10:28:58Z</time>
      </trkpt>
      <trkpt lat="48.60054" lon="1.9723">
        <ele>138.57</ele>
        <time>2018-12-06T10:29:06Z</time>
      </trkpt>
      <trkpt lat="48.60044" lon="1.97211">
        <ele>135.68</ele>
        <time>2018-12-06T10:29:15Z</time>
      </trkpt>
      <trkpt lat="48.60038" lon="1.97206">
        <ele>135.68</ele>
        <time>2018-12-06T10:29:22Z</time>
      </trkpt>
      <trkpt lat="48.60026" lon="1.97199">
        <ele>134.24</ele>
        <time>2018-12-06T10:29:31Z</time>
      </trkpt>
      <trkpt lat="48.60013" lon="1.97198">
        <ele>134.24</ele>
        <time>2018-12-06T10:29:38Z</time>
      </trkpt>
      <trkpt lat="48.60002" lon="1.97191">
        <ele>134.72</ele>
        <time>2018-12-06T10:29:45Z</time>
      </trkpt>
      <trkpt lat="48.60001" lon="1.9719">
        <ele>134.72</ele>
        <time>2018-12-06T10:29:46Z</time>
      </trkpt>
      <trkpt lat="48.59988" lon="1.97172">
        <ele>135.2</ele>
        <time>2018-12-06T10:29:54Z</time>
      </trkpt>
      <trkpt lat="48.59977" lon="1.97157">
        <ele>135.2</ele>
        <time>2018-12-06T10:30:01Z</time>
      </trkpt>
      <trkpt lat="48.5996" lon="1.97142">
        <ele>135.68</ele>
        <time>2018-12-06T10:30:11Z</time>
      </trkpt>
      <trkpt lat="48.59946" lon="1.97129">
        <ele>135.68</ele>
        <time>2018-12-06T10:30:20Z</time>
      </trkpt>
      <trkpt lat="48.59941" lon="1.97115">
        <ele>135.68</ele>
        <time>2018-12-06T10:30:28Z</time>
      </trkpt>
      <trkpt lat="48.59926" lon="1.97097">
        <ele>135.68</ele>
        <time>2018-12-06T10:30:36Z</time>
      </trkpt>
      <trkpt lat="48.59916" lon="1.97087">
        <ele>135.68</ele>
        <time>2018-12-06T10:30:42Z</time>
      </trkpt>
      <trkpt lat="48.59904" lon="1.97076">
        <ele>136.16</ele>
        <time>2018-12-06T10:30:51Z</time>
      </trkpt>
      <trkpt lat="48.59903" lon="1.97075">
        <ele>136.16</ele>
        <time>2018-12-06T10:30:52Z</time>
      </trkpt>
      <trkpt lat="48.59886" lon="1.97061">
        <ele>136.64</ele>
        <time>2018-12-06T10:31:02Z</time>
      </trkpt>
      <trkpt lat="48.59877" lon="1.97054">
        <ele>136.64</ele>
        <time>2018-12-06T10:31:09Z</time>
      </trkpt>
      <trkpt lat="48.59866" lon="1.97044">
        <ele>136.64</ele>
        <time>2018-12-06T10:31:17Z</time>
      </trkpt>
      <trkpt lat="48.59854" lon="1.97032">
        <ele>136.64</ele>
        <time>2018-12-06T10:31:26Z</time>
      </trkpt>
      <trkpt lat="48.59845" lon="1.97022">
        <ele>137.13</ele>
        <time>2018-12-06T10:31:34Z</time>
      </trkpt>
      <trkpt lat="48.59839" lon="1.97008">
        <ele>137.13</ele>
        <time>2018-12-06T10:31:41Z</time>
      </trkpt>
      <trkpt lat="48.59832" lon="1.96998">
        <ele>136.16</ele>
        <time>2018-12-06T10:31:50Z</time>
      </trkpt>
      <trkpt lat="48.59827" lon="1.96991">
        <ele>136.16</ele>
        <time>2018-12-06T10:31:57Z</time>
      </trkpt>
      <trkpt lat="48.5982" lon="1.96981">
        <ele>137.61</ele>
        <time>2018-12-06T10:32:02Z</time>
      </trkpt>
      <trkpt lat="48.59809" lon="1.9697">
        <ele>137.61</ele>
        <time>2018-12-06T10:32:09Z</time>
      </trkpt>
      <trkpt lat="48.59806" lon="1.96967">
        <ele>137.61</ele>
        <time>2018-12-06T10:32:11Z</time>
      </trkpt>
      <trkpt lat="48.59791" lon="1.96955">
        <ele>138.09</ele>
        <time>2018-12-06T10:32:19Z</time>
      </trkpt>
      <trkpt lat="48.59779" lon="1.96943">
        <ele>138.09</ele>
        <time>2018-12-06T10:32:27Z</time>
      </trkpt>
      <trkpt lat="48.5977" lon="1.96934">
        <ele>138.57</ele>
        <time>2018-12-06T10:32:35Z</time>
      </trkpt>
      <trkpt lat="48.59754" lon="1.9692">
        <ele>138.57</ele>
        <time>2018-12-06T10:32:44Z</time>
      </trkpt>
      <trkpt lat="48.59739" lon="1.96908">
        <ele>138.57</ele>
        <time>2018-12-06T10:32:53Z</time>
      </trkpt>
      <trkpt lat="48.59731" lon="1.96892">
        <ele>138.09</ele>
        <time>2018-12-06T10:33:01Z</time>
      </trkpt>
      <trkpt lat="48.59725" lon="1.96887">
        <ele>137.61</ele>
        <time>2018-12-06T10:33:06Z</time>
      </trkpt>
      <trkpt lat="48.59716" lon="1.96877">
        <ele>136.16</ele>
        <time>2018-12-06T10:33:15Z</time>
      </trkpt>
      <trkpt lat="48.597" lon="1.96863">
        <ele>135.2</ele>
        <time>2018-12-06T10:33:23Z</time>
      </trkpt>
      <trkpt lat="48.59691" lon="1.96855">
        <ele>135.2</ele>
        <time>2018-12-06T10:33:28Z</time>
      </trkpt>
      <trkpt lat="48.59682" lon="1.96846">
        <ele>135.2</ele>
        <time>2018-12-06T10:33:36Z</time>
      </trkpt>
      <trkpt lat="48.59678" lon="1.96842">
        <ele>135.68</ele>
        <time>2018-12-06T10:33:39Z</time>
      </trkpt>
      <trkpt lat="48.59669" lon="1.96833">
        <ele>136.16</ele>
        <time>2018-12-06T10:33:44Z</time>
      </trkpt>
      <trkpt lat="48.59659" lon="1.9682">
        <ele>137.13</ele>
        <time>2018-12-06T10:33:49Z</time>
      </trkpt>
      <trkpt lat="48.5965" lon="1.96812">
        <ele>137.61</ele>
        <time>2018-12-06T10:33:55Z</time>
      </trkpt>
      <trkpt lat="48.5964" lon="1.96804">
        <ele>138.57</ele>
        <time>2018-12-06T10:34:03Z</time>
      </trkpt>
      <trkpt lat="48.59638" lon="1.96801">
        <ele>138.57</ele>
        <time>2018-12-06T10:34:05Z</time>
      </trkpt>
      <trkpt lat="48.59623" lon="1.96788">
        <ele>139.05</ele>
        <time>2018-12-06T10:34:13Z</time>
      </trkpt>
      <trkpt lat="48.59615" lon="1.96776">
        <ele>139.05</ele>
        <time>2018-12-06T10:34:21Z</time>
      </trkpt>
      <trkpt lat="48.596" lon="1.96762">
        <ele>139.53</ele>
        <time>2018-12-06T10:34:30Z</time>
      </trkpt>
      <trkpt lat="48.5959" lon="1.96751">
        <ele>139.53</ele>
        <time>2018-12-06T10:34:38Z</time>
      </trkpt>
      <trkpt lat="48.59579" lon="1.96742">
        <ele>139.53</ele>
        <time>2018-12-06T10:34:46Z</time>
      </trkpt>
      <trkpt lat="48.5957" lon="1.96731">
        <ele>140.97</ele>
        <time>2018-12-06T10:34:52Z</time>
      </trkpt>
      <trkpt lat="48.59558" lon="1.96719">
        <ele>141.45</ele>
        <time>2018-12-06T10:34:59Z</time>
      </trkpt>
      <trkpt lat="48.59544" lon="1.96706">
        <ele>141.93</ele>
        <time>2018-12-06T10:35:07Z</time>
      </trkpt>
      <trkpt lat="48.59531" lon="1.96692">
        <ele>142.41</ele>
        <time>2018-12-06T10:35:17Z</time>
      </trkpt>
      <trkpt lat="48.59519" lon="1.96682">
        <ele>142.89</ele>
        <time>2018-12-06T10:35:24Z</time>
      </trkpt>
      <trkpt lat="48.5951" lon="1.96672">
        <ele>142.89</ele>
        <time>2018-12-06T10:35:32Z</time>
      </trkpt>
      <trkpt lat="48.59493" lon="1.96656">
        <ele>143.85</ele>
        <time>2018-12-06T10:35:43Z</time>
      </trkpt>
      <trkpt lat="48.59488" lon="1.96652">
        <ele>142.89</ele>
        <time>2018-12-06T10:35:48Z</time>
      </trkpt>
      <trkpt lat="48.59486" lon="1.96651">
        <ele>143.37</ele>
        <time>2018-12-06T10:35:50Z</time>
      </trkpt>
      <trkpt lat="48.59475" lon="1.96642">
        <ele>141.93</ele>
        <time>2018-12-06T10:35:57Z</time>
      </trkpt>
      <trkpt lat="48.59461" lon="1.96627">
        <ele>140.49</ele>
        <time>2018-12-06T10:36:04Z</time>
      </trkpt>
      <trkpt lat="48.59448" lon="1.96615">
        <ele>139.53</ele>
        <time>2018-12-06T10:36:12Z</time>
      </trkpt>
      <trkpt lat="48.59438" lon="1.96606">
        <ele>138.57</ele>
        <time>2018-12-06T10:36:19Z</time>
      </trkpt>
      <trkpt lat="48.59429" lon="1.966">
        <ele>138.57</ele>
        <time>2018-12-06T10:36:25Z</time>
      </trkpt>
      <trkpt lat="48.59422" lon="1.96589">
        <ele>137.13</ele>
        <time>2018-12-06T10:36:32Z</time>
      </trkpt>
      <trkpt lat="48.59415" lon="1.96582">
        <ele>135.68</ele>
        <time>2018-12-06T10:36:39Z</time>
      </trkpt>
      <trkpt lat="48.59401" lon="1.96573">
        <ele>133.76</ele>
        <time>2018-12-06T10:36:48Z</time>
      </trkpt>
      <trkpt lat="48.59391" lon="1.96561">
        <ele>132.8</ele>
        <time>2018-12-06T10:36:54Z</time>
      </trkpt>
      <trkpt lat="48.59381" lon="1.96551">
        <ele>131.36</ele>
        <time>2018-12-06T10:37:01Z</time>
      </trkpt>
      <trkpt lat="48.59376" lon="1.96545">
        <ele>129.43</ele>
        <time>2018-12-06T10:37:07Z</time>
      </trkpt>
      <trkpt lat="48.59371" lon="1.96539">
        <ele>129.43</ele>
        <time>2018-12-06T10:37:11Z</time>
      </trkpt>
      <trkpt lat="48.59358" lon="1.96533">
        <ele>128.47</ele>
        <time>2018-12-06T10:37:20Z</time>
      </trkpt>
      <trkpt lat="48.59345" lon="1.9652">
        <ele>127.51</ele>
        <time>2018-12-06T10:37:28Z</time>
      </trkpt>
      <trkpt lat="48.59334" lon="1.96504">
        <ele>127.03</ele>
        <time>2018-12-06T10:37:36Z</time>
      </trkpt>
      <trkpt lat="48.59322" lon="1.96496">
        <ele>126.07</ele>
        <time>2018-12-06T10:37:43Z</time>
      </trkpt>
      <trkpt lat="48.5931" lon="1.96488">
        <ele>126.07</ele>
        <time>2018-12-06T10:37:50Z</time>
      </trkpt>
      <trkpt lat="48.59305" lon="1.96486">
        <ele>125.11</ele>
        <time>2018-12-06T10:37:53Z</time>
      </trkpt>
      <trkpt lat="48.59294" lon="1.96478">
        <ele>123.19</ele>
        <time>2018-12-06T10:38:02Z</time>
      </trkpt>
      <trkpt lat="48.59282" lon="1.96475">
        <ele>121.26</ele>
        <time>2018-12-06T10:38:10Z</time>
      </trkpt>
      <trkpt lat="48.59271" lon="1.96482">
        <ele>119.82</ele>
        <time>2018-12-06T10:38:17Z</time>
      </trkpt>
      <trkpt lat="48.59261" lon="1.96493">
        <ele>118.86</ele>
        <time>2018-12-06T10:38:25Z</time>
      </trkpt>
      <trkpt lat="48.59248" lon="1.96514">
        <ele>116.94</ele>
        <time>2018-12-06T10:38:37Z</time>
      </trkpt>
      <trkpt lat="48.5924" lon="1.96518">
        <ele>116.46</ele>
        <time>2018-12-06T10:38:44Z</time>
      </trkpt>
      <trkpt lat="48.59231" lon="1.96527">
        <ele>114.53</ele>
        <time>2018-12-06T10:38:51Z</time>
      </trkpt>
      <trkpt lat="48.59222" lon="1.96538">
        <ele>114.05</ele>
        <time>2018-12-06T10:38:59Z</time>
      </trkpt>
      <trkpt lat="48.59216" lon="1.96546">
        <ele>113.09</ele>
        <time>2018-12-06T10:39:05Z</time>
      </trkpt>
      <trkpt lat="48.59203" lon="1.96563">
        <ele>112.61</ele>
        <time>2018-12-06T10:39:15Z</time>
      </trkpt>
      <trkpt lat="48.59194" lon="1.9658">
        <ele>112.13</ele>
        <time>2018-12-06T10:39:25Z</time>
      </trkpt>
      <trkpt lat="48.59194" lon="1.96588">
        <ele>112.61</ele>
        <time>2018-12-06T10:39:33Z</time>
      </trkpt>
      <trkpt lat="48.59194" lon="1.96593">
        <ele>112.61</ele>
        <time>2018-12-06T10:39:40Z</time>
      </trkpt>
      <trkpt lat="48.59192" lon="1.96595">
        <ele>112.61</ele>
        <time>2018-12-06T10:39:50Z</time>
      </trkpt>
    </trkseg>
  </trk>
</gpx>